<?xml version="1.0" encoding="UTF-8" standalone="no" ?>
<gpx xmlns="http://www.topografix.com/GPX/1/1" xmlns:xsi="http://www.w3.org/2001/XMLSchema-instance" xsi:schemaLocation="http://www.topografix.com/GPX/1/1 http://www.topografix.com/GPX/1/1/gpx.xsd" version="1.1" creator="VisuGPX - https://www.visugpx.com">
  <metadata>
    <name>De Versailles à la vallée de la Bièvre (78)</name>
    <desc><![CDATA[Randonnée de 20 km en ligne à partir de la Gare de Versailles Chantiers jusqu'à la gare d'Igny.]]></desc>
  </metadata>
  <trk>
    <name><![CDATA[De Versailles à la vallée de la Bièvre_R]]></name>
    <trkseg>
      <trkpt lat="48.79683" lon="2.13561">
        <ele>130.1</ele>
        <time>2018-08-19T07:52:57Z</time>
      </trkpt>
      <trkpt lat="48.79682" lon="2.13561">
        <ele>130.1</ele>
        <time>2018-08-19T07:52:58Z</time>
      </trkpt>
      <trkpt lat="48.79675" lon="2.13561">
        <ele>130.12</ele>
        <time>2018-08-19T07:53:13Z</time>
      </trkpt>
      <trkpt lat="48.79668" lon="2.13563">
        <ele>129.88</ele>
        <time>2018-08-19T07:53:31Z</time>
      </trkpt>
      <trkpt lat="48.79667" lon="2.13562">
        <ele>129.83</ele>
        <time>2018-08-19T07:53:50Z</time>
      </trkpt>
      <trkpt lat="48.79668" lon="2.13561">
        <ele>129.86</ele>
        <time>2018-08-19T07:54:10Z</time>
      </trkpt>
      <trkpt lat="48.79674" lon="2.13561">
        <ele>129.62</ele>
        <time>2018-08-19T07:54:31Z</time>
      </trkpt>
      <trkpt lat="48.79676" lon="2.13556">
        <ele>129.55</ele>
        <time>2018-08-19T07:54:36Z</time>
      </trkpt>
      <trkpt lat="48.79683" lon="2.13536">
        <ele>129.38</ele>
        <time>2018-08-19T07:54:52Z</time>
      </trkpt>
      <trkpt lat="48.79685" lon="2.13534">
        <ele>129.9</ele>
        <time>2018-08-19T07:54:54Z</time>
      </trkpt>
      <trkpt lat="48.79688" lon="2.13532">
        <ele>129.49</ele>
        <time>2018-08-19T07:54:57Z</time>
      </trkpt>
      <trkpt lat="48.79694" lon="2.13528">
        <ele>129.77</ele>
        <time>2018-08-19T07:55:02Z</time>
      </trkpt>
      <trkpt lat="48.79704" lon="2.13531">
        <ele>129.97</ele>
        <time>2018-08-19T07:55:11Z</time>
      </trkpt>
      <trkpt lat="48.79708" lon="2.13533">
        <ele>129.92</ele>
        <time>2018-08-19T07:55:14Z</time>
      </trkpt>
      <trkpt lat="48.79712" lon="2.13523">
        <ele>130.12</ele>
        <time>2018-08-19T07:55:28Z</time>
      </trkpt>
      <trkpt lat="48.79703" lon="2.135">
        <ele>130.54</ele>
        <time>2018-08-19T07:55:46Z</time>
      </trkpt>
      <trkpt lat="48.79691" lon="2.13502">
        <ele>129.76</ele>
        <time>2018-08-19T07:55:52Z</time>
      </trkpt>
      <trkpt lat="48.79683" lon="2.1349">
        <ele>130.32</ele>
        <time>2018-08-19T07:56:00Z</time>
      </trkpt>
      <trkpt lat="48.79673" lon="2.13468">
        <ele>130.16</ele>
        <time>2018-08-19T07:56:15Z</time>
      </trkpt>
      <trkpt lat="48.79671" lon="2.13461">
        <ele>130.4</ele>
        <time>2018-08-19T07:56:20Z</time>
      </trkpt>
      <trkpt lat="48.79659" lon="2.13444">
        <ele>130.61</ele>
        <time>2018-08-19T07:56:39Z</time>
      </trkpt>
      <trkpt lat="48.79642" lon="2.13434">
        <ele>131.83</ele>
        <time>2018-08-19T07:56:55Z</time>
      </trkpt>
      <trkpt lat="48.79624" lon="2.13418">
        <ele>132.53</ele>
        <time>2018-08-19T07:57:14Z</time>
      </trkpt>
      <trkpt lat="48.79622" lon="2.13409">
        <ele>132.83</ele>
        <time>2018-08-19T07:57:18Z</time>
      </trkpt>
      <trkpt lat="48.79624" lon="2.13391">
        <ele>134.81</ele>
        <time>2018-08-19T07:57:31Z</time>
      </trkpt>
      <trkpt lat="48.79622" lon="2.13376">
        <ele>136.73</ele>
        <time>2018-08-19T07:57:46Z</time>
      </trkpt>
      <trkpt lat="48.79625" lon="2.13371">
        <ele>137.24</ele>
        <time>2018-08-19T07:57:50Z</time>
      </trkpt>
      <trkpt lat="48.79629" lon="2.13365">
        <ele>137.47</ele>
        <time>2018-08-19T07:57:58Z</time>
      </trkpt>
      <trkpt lat="48.79632" lon="2.13362">
        <ele>137.64</ele>
        <time>2018-08-19T07:58:01Z</time>
      </trkpt>
      <trkpt lat="48.79645" lon="2.13345">
        <ele>137.48</ele>
        <time>2018-08-19T07:58:19Z</time>
      </trkpt>
      <trkpt lat="48.79664" lon="2.13322">
        <ele>137.43</ele>
        <time>2018-08-19T07:58:39Z</time>
      </trkpt>
      <trkpt lat="48.79665" lon="2.1332">
        <ele>137.32</ele>
        <time>2018-08-19T07:58:40Z</time>
      </trkpt>
      <trkpt lat="48.79667" lon="2.13316">
        <ele>136.96</ele>
        <time>2018-08-19T07:58:42Z</time>
      </trkpt>
      <trkpt lat="48.79666" lon="2.13296">
        <ele>136.84</ele>
        <time>2018-08-19T07:58:56Z</time>
      </trkpt>
      <trkpt lat="48.79657" lon="2.13279">
        <ele>137.46</ele>
        <time>2018-08-19T07:59:12Z</time>
      </trkpt>
      <trkpt lat="48.79647" lon="2.13262">
        <ele>136.85</ele>
        <time>2018-08-19T07:59:31Z</time>
      </trkpt>
      <trkpt lat="48.79648" lon="2.13251">
        <ele>133.81</ele>
        <time>2018-08-19T07:59:42Z</time>
      </trkpt>
      <trkpt lat="48.79653" lon="2.13242">
        <ele>131.19</ele>
        <time>2018-08-19T07:59:51Z</time>
      </trkpt>
      <trkpt lat="48.79662" lon="2.13225">
        <ele>130.8</ele>
        <time>2018-08-19T08:00:07Z</time>
      </trkpt>
      <trkpt lat="48.79663" lon="2.13224">
        <ele>130.53</ele>
        <time>2018-08-19T08:00:27Z</time>
      </trkpt>
      <trkpt lat="48.79666" lon="2.13225">
        <ele>130.35</ele>
        <time>2018-08-19T08:00:53Z</time>
      </trkpt>
      <trkpt lat="48.79665" lon="2.13225">
        <ele>130.81</ele>
        <time>2018-08-19T08:01:16Z</time>
      </trkpt>
      <trkpt lat="48.79666" lon="2.13225">
        <ele>130.49</ele>
        <time>2018-08-19T08:01:38Z</time>
      </trkpt>
      <trkpt lat="48.79667" lon="2.13227">
        <ele>130.25</ele>
        <time>2018-08-19T08:02:01Z</time>
      </trkpt>
      <trkpt lat="48.79666" lon="2.13227">
        <ele>129.57</ele>
        <time>2018-08-19T08:02:26Z</time>
      </trkpt>
      <trkpt lat="48.79667" lon="2.13228">
        <ele>129.89</ele>
        <time>2018-08-19T08:02:56Z</time>
      </trkpt>
      <trkpt lat="48.79666" lon="2.13227">
        <ele>130.22</ele>
        <time>2018-08-19T08:03:23Z</time>
      </trkpt>
      <trkpt lat="48.79665" lon="2.13224">
        <ele>129.8</ele>
        <time>2018-08-19T08:03:53Z</time>
      </trkpt>
      <trkpt lat="48.79666" lon="2.13222">
        <ele>129.4</ele>
        <time>2018-08-19T08:04:17Z</time>
      </trkpt>
      <trkpt lat="48.79669" lon="2.13221">
        <ele>129.03</ele>
        <time>2018-08-19T08:04:44Z</time>
      </trkpt>
      <trkpt lat="48.7967" lon="2.1322">
        <ele>129.12</ele>
        <time>2018-08-19T08:04:46Z</time>
      </trkpt>
      <trkpt lat="48.79679" lon="2.13208">
        <ele>128.4</ele>
        <time>2018-08-19T08:05:00Z</time>
      </trkpt>
      <trkpt lat="48.79685" lon="2.13188">
        <ele>126.86</ele>
        <time>2018-08-19T08:05:17Z</time>
      </trkpt>
      <trkpt lat="48.79687" lon="2.13181">
        <ele>127.36</ele>
        <time>2018-08-19T08:05:21Z</time>
      </trkpt>
      <trkpt lat="48.79687" lon="2.13177">
        <ele>126.88</ele>
        <time>2018-08-19T08:05:23Z</time>
      </trkpt>
      <trkpt lat="48.79688" lon="2.13157">
        <ele>126.47</ele>
        <time>2018-08-19T08:05:35Z</time>
      </trkpt>
      <trkpt lat="48.79683" lon="2.13145">
        <ele>126.88</ele>
        <time>2018-08-19T08:05:43Z</time>
      </trkpt>
      <trkpt lat="48.79665" lon="2.13131">
        <ele>126.96</ele>
        <time>2018-08-19T08:05:59Z</time>
      </trkpt>
      <trkpt lat="48.79658" lon="2.13126">
        <ele>126.67</ele>
        <time>2018-08-19T08:06:05Z</time>
      </trkpt>
      <trkpt lat="48.79655" lon="2.13124">
        <ele>127.07</ele>
        <time>2018-08-19T08:06:07Z</time>
      </trkpt>
      <trkpt lat="48.79641" lon="2.13114">
        <ele>127.71</ele>
        <time>2018-08-19T08:06:25Z</time>
      </trkpt>
      <trkpt lat="48.7964" lon="2.13113">
        <ele>127.85</ele>
        <time>2018-08-19T08:06:27Z</time>
      </trkpt>
      <trkpt lat="48.79635" lon="2.13113">
        <ele>127.34</ele>
        <time>2018-08-19T08:06:31Z</time>
      </trkpt>
      <trkpt lat="48.79623" lon="2.13106">
        <ele>128.02</ele>
        <time>2018-08-19T08:06:45Z</time>
      </trkpt>
      <trkpt lat="48.79622" lon="2.13104">
        <ele>127.99</ele>
        <time>2018-08-19T08:06:47Z</time>
      </trkpt>
      <trkpt lat="48.7961" lon="2.13094">
        <ele>127.7</ele>
        <time>2018-08-19T08:06:57Z</time>
      </trkpt>
      <trkpt lat="48.79599" lon="2.13085">
        <ele>127.78</ele>
        <time>2018-08-19T08:07:12Z</time>
      </trkpt>
      <trkpt lat="48.79583" lon="2.1307">
        <ele>127.61</ele>
        <time>2018-08-19T08:07:28Z</time>
      </trkpt>
      <trkpt lat="48.79562" lon="2.13071">
        <ele>127.57</ele>
        <time>2018-08-19T08:07:45Z</time>
      </trkpt>
      <trkpt lat="48.79553" lon="2.13061">
        <ele>127.53</ele>
        <time>2018-08-19T08:07:57Z</time>
      </trkpt>
      <trkpt lat="48.79536" lon="2.13049">
        <ele>127.38</ele>
        <time>2018-08-19T08:08:13Z</time>
      </trkpt>
      <trkpt lat="48.7952" lon="2.13039">
        <ele>127.46</ele>
        <time>2018-08-19T08:08:27Z</time>
      </trkpt>
      <trkpt lat="48.79507" lon="2.13032">
        <ele>127.8</ele>
        <time>2018-08-19T08:08:35Z</time>
      </trkpt>
      <trkpt lat="48.79493" lon="2.13023">
        <ele>128.43</ele>
        <time>2018-08-19T08:08:48Z</time>
      </trkpt>
      <trkpt lat="48.7948" lon="2.13015">
        <ele>128.13</ele>
        <time>2018-08-19T08:09:04Z</time>
      </trkpt>
      <trkpt lat="48.79456" lon="2.1301">
        <ele>126.55</ele>
        <time>2018-08-19T08:09:24Z</time>
      </trkpt>
      <trkpt lat="48.79443" lon="2.12993">
        <ele>127.21</ele>
        <time>2018-08-19T08:09:37Z</time>
      </trkpt>
      <trkpt lat="48.7944" lon="2.12991">
        <ele>127.2</ele>
        <time>2018-08-19T08:09:42Z</time>
      </trkpt>
      <trkpt lat="48.79436" lon="2.12987">
        <ele>127.08</ele>
        <time>2018-08-19T08:09:47Z</time>
      </trkpt>
      <trkpt lat="48.79423" lon="2.12985">
        <ele>126.99</ele>
        <time>2018-08-19T08:09:57Z</time>
      </trkpt>
      <trkpt lat="48.79413" lon="2.12984">
        <ele>127.48</ele>
        <time>2018-08-19T08:10:06Z</time>
      </trkpt>
      <trkpt lat="48.79401" lon="2.1298">
        <ele>127.37</ele>
        <time>2018-08-19T08:10:18Z</time>
      </trkpt>
      <trkpt lat="48.79381" lon="2.12965">
        <ele>127.52</ele>
        <time>2018-08-19T08:10:36Z</time>
      </trkpt>
      <trkpt lat="48.79377" lon="2.12962">
        <ele>127.66</ele>
        <time>2018-08-19T08:10:39Z</time>
      </trkpt>
      <trkpt lat="48.79367" lon="2.12957">
        <ele>128.63</ele>
        <time>2018-08-19T08:10:48Z</time>
      </trkpt>
      <trkpt lat="48.79361" lon="2.12948">
        <ele>127.99</ele>
        <time>2018-08-19T08:10:53Z</time>
      </trkpt>
      <trkpt lat="48.79353" lon="2.12937">
        <ele>128.67</ele>
        <time>2018-08-19T08:11:01Z</time>
      </trkpt>
      <trkpt lat="48.79347" lon="2.12929">
        <ele>128.91</ele>
        <time>2018-08-19T08:11:06Z</time>
      </trkpt>
      <trkpt lat="48.79341" lon="2.12926">
        <ele>129.09</ele>
        <time>2018-08-19T08:11:13Z</time>
      </trkpt>
      <trkpt lat="48.79337" lon="2.12926">
        <ele>129.11</ele>
        <time>2018-08-19T08:11:17Z</time>
      </trkpt>
      <trkpt lat="48.79331" lon="2.1292">
        <ele>129.05</ele>
        <time>2018-08-19T08:11:23Z</time>
      </trkpt>
      <trkpt lat="48.79315" lon="2.12915">
        <ele>129.94</ele>
        <time>2018-08-19T08:11:37Z</time>
      </trkpt>
      <trkpt lat="48.793" lon="2.12906">
        <ele>131.05</ele>
        <time>2018-08-19T08:11:50Z</time>
      </trkpt>
      <trkpt lat="48.79298" lon="2.12901">
        <ele>131.71</ele>
        <time>2018-08-19T08:11:53Z</time>
      </trkpt>
      <trkpt lat="48.79279" lon="2.12877">
        <ele>133.25</ele>
        <time>2018-08-19T08:12:13Z</time>
      </trkpt>
      <trkpt lat="48.7927" lon="2.12871">
        <ele>133.3</ele>
        <time>2018-08-19T08:12:22Z</time>
      </trkpt>
      <trkpt lat="48.79267" lon="2.12869">
        <ele>133.1</ele>
        <time>2018-08-19T08:12:25Z</time>
      </trkpt>
      <trkpt lat="48.79254" lon="2.12867">
        <ele>134.97</ele>
        <time>2018-08-19T08:12:39Z</time>
      </trkpt>
      <trkpt lat="48.79243" lon="2.12863">
        <ele>135.23</ele>
        <time>2018-08-19T08:12:53Z</time>
      </trkpt>
      <trkpt lat="48.79238" lon="2.12881">
        <ele>134.84</ele>
        <time>2018-08-19T08:13:12Z</time>
      </trkpt>
      <trkpt lat="48.79231" lon="2.12905">
        <ele>137.74</ele>
        <time>2018-08-19T08:13:32Z</time>
      </trkpt>
      <trkpt lat="48.79221" lon="2.12929">
        <ele>141.03</ele>
        <time>2018-08-19T08:13:56Z</time>
      </trkpt>
      <trkpt lat="48.79216" lon="2.12953">
        <ele>143.05</ele>
        <time>2018-08-19T08:14:16Z</time>
      </trkpt>
      <trkpt lat="48.7921" lon="2.12975">
        <ele>145.22</ele>
        <time>2018-08-19T08:14:35Z</time>
      </trkpt>
      <trkpt lat="48.792" lon="2.12989">
        <ele>147</ele>
        <time>2018-08-19T08:14:53Z</time>
      </trkpt>
      <trkpt lat="48.79192" lon="2.13001">
        <ele>149.9</ele>
        <time>2018-08-19T08:15:11Z</time>
      </trkpt>
      <trkpt lat="48.79184" lon="2.13009">
        <ele>153.05</ele>
        <time>2018-08-19T08:15:28Z</time>
      </trkpt>
      <trkpt lat="48.79179" lon="2.13014">
        <ele>156.06</ele>
        <time>2018-08-19T08:15:49Z</time>
      </trkpt>
      <trkpt lat="48.79173" lon="2.13021">
        <ele>159.25</ele>
        <time>2018-08-19T08:16:08Z</time>
      </trkpt>
      <trkpt lat="48.79167" lon="2.1303">
        <ele>160.24</ele>
        <time>2018-08-19T08:16:25Z</time>
      </trkpt>
      <trkpt lat="48.79163" lon="2.13031">
        <ele>160.06</ele>
        <time>2018-08-19T08:16:47Z</time>
      </trkpt>
      <trkpt lat="48.79164" lon="2.13031">
        <ele>160.5</ele>
        <time>2018-08-19T08:17:06Z</time>
      </trkpt>
      <trkpt lat="48.79166" lon="2.1303">
        <ele>160.22</ele>
        <time>2018-08-19T08:17:29Z</time>
      </trkpt>
      <trkpt lat="48.79166" lon="2.13027">
        <ele>160.05</ele>
        <time>2018-08-19T08:17:51Z</time>
      </trkpt>
      <trkpt lat="48.79168" lon="2.13034">
        <ele>160.28</ele>
        <time>2018-08-19T08:18:09Z</time>
      </trkpt>
      <trkpt lat="48.7917" lon="2.13037">
        <ele>160.14</ele>
        <time>2018-08-19T08:18:11Z</time>
      </trkpt>
      <trkpt lat="48.79185" lon="2.13057">
        <ele>159.49</ele>
        <time>2018-08-19T08:18:33Z</time>
      </trkpt>
      <trkpt lat="48.792" lon="2.13079">
        <ele>158.88</ele>
        <time>2018-08-19T08:18:56Z</time>
      </trkpt>
      <trkpt lat="48.79207" lon="2.13088">
        <ele>159.65</ele>
        <time>2018-08-19T08:19:13Z</time>
      </trkpt>
      <trkpt lat="48.79224" lon="2.13105">
        <ele>159.36</ele>
        <time>2018-08-19T08:19:34Z</time>
      </trkpt>
      <trkpt lat="48.79241" lon="2.1313">
        <ele>158.72</ele>
        <time>2018-08-19T08:20:00Z</time>
      </trkpt>
      <trkpt lat="48.79254" lon="2.1315">
        <ele>158.28</ele>
        <time>2018-08-19T08:20:19Z</time>
      </trkpt>
      <trkpt lat="48.7926" lon="2.1318">
        <ele>159.06</ele>
        <time>2018-08-19T08:20:43Z</time>
      </trkpt>
      <trkpt lat="48.79258" lon="2.13201">
        <ele>160.32</ele>
        <time>2018-08-19T08:21:03Z</time>
      </trkpt>
      <trkpt lat="48.79249" lon="2.13232">
        <ele>160.07</ele>
        <time>2018-08-19T08:21:24Z</time>
      </trkpt>
      <trkpt lat="48.79247" lon="2.13253">
        <ele>160.13</ele>
        <time>2018-08-19T08:21:40Z</time>
      </trkpt>
      <trkpt lat="48.79248" lon="2.13273">
        <ele>159.99</ele>
        <time>2018-08-19T08:21:50Z</time>
      </trkpt>
      <trkpt lat="48.7925" lon="2.1329">
        <ele>160.05</ele>
        <time>2018-08-19T08:22:00Z</time>
      </trkpt>
      <trkpt lat="48.7925" lon="2.13317">
        <ele>160.33</ele>
        <time>2018-08-19T08:22:17Z</time>
      </trkpt>
      <trkpt lat="48.79247" lon="2.13333">
        <ele>159.42</ele>
        <time>2018-08-19T08:22:32Z</time>
      </trkpt>
      <trkpt lat="48.7923" lon="2.13338">
        <ele>160.69</ele>
        <time>2018-08-19T08:22:51Z</time>
      </trkpt>
      <trkpt lat="48.79213" lon="2.13335">
        <ele>160.22</ele>
        <time>2018-08-19T08:23:09Z</time>
      </trkpt>
      <trkpt lat="48.79195" lon="2.13338">
        <ele>160.38</ele>
        <time>2018-08-19T08:23:29Z</time>
      </trkpt>
      <trkpt lat="48.79193" lon="2.13338">
        <ele>160.12</ele>
        <time>2018-08-19T08:23:30Z</time>
      </trkpt>
      <trkpt lat="48.79177" lon="2.13337">
        <ele>159.66</ele>
        <time>2018-08-19T08:23:46Z</time>
      </trkpt>
      <trkpt lat="48.79158" lon="2.13338">
        <ele>160.06</ele>
        <time>2018-08-19T08:24:04Z</time>
      </trkpt>
      <trkpt lat="48.79143" lon="2.13339">
        <ele>159.55</ele>
        <time>2018-08-19T08:24:23Z</time>
      </trkpt>
      <trkpt lat="48.79124" lon="2.13337">
        <ele>158.81</ele>
        <time>2018-08-19T08:24:40Z</time>
      </trkpt>
      <trkpt lat="48.79102" lon="2.1334">
        <ele>159.71</ele>
        <time>2018-08-19T08:25:00Z</time>
      </trkpt>
      <trkpt lat="48.79086" lon="2.13342">
        <ele>160.12</ele>
        <time>2018-08-19T08:25:17Z</time>
      </trkpt>
      <trkpt lat="48.79073" lon="2.13342">
        <ele>159.5</ele>
        <time>2018-08-19T08:25:30Z</time>
      </trkpt>
      <trkpt lat="48.79052" lon="2.13345">
        <ele>159.55</ele>
        <time>2018-08-19T08:25:52Z</time>
      </trkpt>
      <trkpt lat="48.79034" lon="2.13345">
        <ele>159.94</ele>
        <time>2018-08-19T08:26:14Z</time>
      </trkpt>
      <trkpt lat="48.79017" lon="2.13341">
        <ele>159.62</ele>
        <time>2018-08-19T08:26:30Z</time>
      </trkpt>
      <trkpt lat="48.79012" lon="2.13336">
        <ele>159.64</ele>
        <time>2018-08-19T08:26:33Z</time>
      </trkpt>
      <trkpt lat="48.79003" lon="2.13335">
        <ele>159.52</ele>
        <time>2018-08-19T08:26:43Z</time>
      </trkpt>
      <trkpt lat="48.78986" lon="2.13334">
        <ele>158.81</ele>
        <time>2018-08-19T08:27:01Z</time>
      </trkpt>
      <trkpt lat="48.78969" lon="2.13329">
        <ele>156.92</ele>
        <time>2018-08-19T08:27:19Z</time>
      </trkpt>
      <trkpt lat="48.78952" lon="2.13332">
        <ele>154.22</ele>
        <time>2018-08-19T08:27:39Z</time>
      </trkpt>
      <trkpt lat="48.78937" lon="2.13336">
        <ele>151.19</ele>
        <time>2018-08-19T08:27:56Z</time>
      </trkpt>
      <trkpt lat="48.78923" lon="2.13339">
        <ele>148.71</ele>
        <time>2018-08-19T08:28:15Z</time>
      </trkpt>
      <trkpt lat="48.78903" lon="2.13349">
        <ele>145.83</ele>
        <time>2018-08-19T08:28:37Z</time>
      </trkpt>
      <trkpt lat="48.78891" lon="2.13368">
        <ele>144.59</ele>
        <time>2018-08-19T08:28:55Z</time>
      </trkpt>
      <trkpt lat="48.78874" lon="2.13384">
        <ele>144.39</ele>
        <time>2018-08-19T08:29:14Z</time>
      </trkpt>
      <trkpt lat="48.78868" lon="2.13386">
        <ele>142.95</ele>
        <time>2018-08-19T08:29:28Z</time>
      </trkpt>
      <trkpt lat="48.7886" lon="2.13386">
        <ele>142.83</ele>
        <time>2018-08-19T08:29:34Z</time>
      </trkpt>
      <trkpt lat="48.78856" lon="2.13383">
        <ele>143.2</ele>
        <time>2018-08-19T08:29:39Z</time>
      </trkpt>
      <trkpt lat="48.78835" lon="2.13368">
        <ele>142.86</ele>
        <time>2018-08-19T08:29:55Z</time>
      </trkpt>
      <trkpt lat="48.78838" lon="2.13349">
        <ele>143.16</ele>
        <time>2018-08-19T08:30:09Z</time>
      </trkpt>
      <trkpt lat="48.78837" lon="2.13345">
        <ele>143.07</ele>
        <time>2018-08-19T08:30:13Z</time>
      </trkpt>
      <trkpt lat="48.78831" lon="2.13317">
        <ele>143.28</ele>
        <time>2018-08-19T08:30:32Z</time>
      </trkpt>
      <trkpt lat="48.78824" lon="2.13296">
        <ele>142.91</ele>
        <time>2018-08-19T08:30:48Z</time>
      </trkpt>
      <trkpt lat="48.78811" lon="2.13275">
        <ele>142.45</ele>
        <time>2018-08-19T08:31:05Z</time>
      </trkpt>
      <trkpt lat="48.78796" lon="2.13262">
        <ele>141.64</ele>
        <time>2018-08-19T08:31:21Z</time>
      </trkpt>
      <trkpt lat="48.78789" lon="2.13267">
        <ele>141.18</ele>
        <time>2018-08-19T08:31:35Z</time>
      </trkpt>
      <trkpt lat="48.78789" lon="2.13268">
        <ele>141.18</ele>
        <time>2018-08-19T08:31:56Z</time>
      </trkpt>
      <trkpt lat="48.78784" lon="2.13269">
        <ele>140.79</ele>
        <time>2018-08-19T08:32:26Z</time>
      </trkpt>
      <trkpt lat="48.78781" lon="2.13265">
        <ele>141.38</ele>
        <time>2018-08-19T08:32:30Z</time>
      </trkpt>
      <trkpt lat="48.78776" lon="2.13243">
        <ele>141.85</ele>
        <time>2018-08-19T08:32:46Z</time>
      </trkpt>
      <trkpt lat="48.78774" lon="2.13225">
        <ele>141.75</ele>
        <time>2018-08-19T08:33:08Z</time>
      </trkpt>
      <trkpt lat="48.78771" lon="2.13187">
        <ele>143.51</ele>
        <time>2018-08-19T08:33:28Z</time>
      </trkpt>
      <trkpt lat="48.78767" lon="2.13154">
        <ele>144.62</ele>
        <time>2018-08-19T08:33:50Z</time>
      </trkpt>
      <trkpt lat="48.7877" lon="2.13136">
        <ele>144.16</ele>
        <time>2018-08-19T08:34:10Z</time>
      </trkpt>
      <trkpt lat="48.78764" lon="2.13086">
        <ele>143.66</ele>
        <time>2018-08-19T08:34:32Z</time>
      </trkpt>
      <trkpt lat="48.78762" lon="2.13052">
        <ele>142.89</ele>
        <time>2018-08-19T08:34:52Z</time>
      </trkpt>
      <trkpt lat="48.7876" lon="2.13031">
        <ele>142.2</ele>
        <time>2018-08-19T08:35:12Z</time>
      </trkpt>
      <trkpt lat="48.78759" lon="2.13005">
        <ele>140.19</ele>
        <time>2018-08-19T08:35:31Z</time>
      </trkpt>
      <trkpt lat="48.78757" lon="2.12971">
        <ele>139.61</ele>
        <time>2018-08-19T08:35:51Z</time>
      </trkpt>
      <trkpt lat="48.78748" lon="2.12941">
        <ele>138.97</ele>
        <time>2018-08-19T08:36:09Z</time>
      </trkpt>
      <trkpt lat="48.78727" lon="2.12929">
        <ele>137.5</ele>
        <time>2018-08-19T08:36:31Z</time>
      </trkpt>
      <trkpt lat="48.78716" lon="2.1293">
        <ele>137.63</ele>
        <time>2018-08-19T08:36:45Z</time>
      </trkpt>
      <trkpt lat="48.78694" lon="2.12917">
        <ele>137.98</ele>
        <time>2018-08-19T08:37:06Z</time>
      </trkpt>
      <trkpt lat="48.7868" lon="2.12915">
        <ele>138.63</ele>
        <time>2018-08-19T08:37:26Z</time>
      </trkpt>
      <trkpt lat="48.78667" lon="2.12905">
        <ele>141.4</ele>
        <time>2018-08-19T08:37:47Z</time>
      </trkpt>
      <trkpt lat="48.78648" lon="2.12891">
        <ele>143.85</ele>
        <time>2018-08-19T08:38:08Z</time>
      </trkpt>
      <trkpt lat="48.78635" lon="2.12889">
        <ele>144.87</ele>
        <time>2018-08-19T08:38:26Z</time>
      </trkpt>
      <trkpt lat="48.78617" lon="2.12883">
        <ele>147.31</ele>
        <time>2018-08-19T08:38:48Z</time>
      </trkpt>
      <trkpt lat="48.78609" lon="2.12882">
        <ele>148.59</ele>
        <time>2018-08-19T08:38:59Z</time>
      </trkpt>
      <trkpt lat="48.78588" lon="2.12866">
        <ele>150.3</ele>
        <time>2018-08-19T08:39:23Z</time>
      </trkpt>
      <trkpt lat="48.78572" lon="2.12855">
        <ele>151.95</ele>
        <time>2018-08-19T08:39:42Z</time>
      </trkpt>
      <trkpt lat="48.78557" lon="2.12848">
        <ele>153.61</ele>
        <time>2018-08-19T08:39:59Z</time>
      </trkpt>
      <trkpt lat="48.78539" lon="2.12843">
        <ele>153.41</ele>
        <time>2018-08-19T08:40:19Z</time>
      </trkpt>
      <trkpt lat="48.78526" lon="2.12839">
        <ele>154.18</ele>
        <time>2018-08-19T08:40:38Z</time>
      </trkpt>
      <trkpt lat="48.78511" lon="2.12836">
        <ele>155.05</ele>
        <time>2018-08-19T08:40:55Z</time>
      </trkpt>
      <trkpt lat="48.78494" lon="2.12829">
        <ele>155.45</ele>
        <time>2018-08-19T08:41:15Z</time>
      </trkpt>
      <trkpt lat="48.78478" lon="2.12823">
        <ele>155.63</ele>
        <time>2018-08-19T08:41:34Z</time>
      </trkpt>
      <trkpt lat="48.78458" lon="2.12812">
        <ele>155.73</ele>
        <time>2018-08-19T08:41:54Z</time>
      </trkpt>
      <trkpt lat="48.78443" lon="2.12799">
        <ele>155.91</ele>
        <time>2018-08-19T08:42:10Z</time>
      </trkpt>
      <trkpt lat="48.78424" lon="2.12796">
        <ele>155.48</ele>
        <time>2018-08-19T08:42:32Z</time>
      </trkpt>
      <trkpt lat="48.78408" lon="2.12787">
        <ele>155.41</ele>
        <time>2018-08-19T08:42:50Z</time>
      </trkpt>
      <trkpt lat="48.78386" lon="2.12769">
        <ele>155.12</ele>
        <time>2018-08-19T08:43:12Z</time>
      </trkpt>
      <trkpt lat="48.7837" lon="2.12758">
        <ele>154.47</ele>
        <time>2018-08-19T08:43:32Z</time>
      </trkpt>
      <trkpt lat="48.78359" lon="2.12742">
        <ele>154.48</ele>
        <time>2018-08-19T08:43:52Z</time>
      </trkpt>
      <trkpt lat="48.78347" lon="2.1271">
        <ele>153.87</ele>
        <time>2018-08-19T08:44:11Z</time>
      </trkpt>
      <trkpt lat="48.78335" lon="2.12691">
        <ele>153.72</ele>
        <time>2018-08-19T08:44:32Z</time>
      </trkpt>
      <trkpt lat="48.78323" lon="2.12657">
        <ele>152.89</ele>
        <time>2018-08-19T08:44:51Z</time>
      </trkpt>
      <trkpt lat="48.7831" lon="2.12638">
        <ele>152.51</ele>
        <time>2018-08-19T08:45:12Z</time>
      </trkpt>
      <trkpt lat="48.78296" lon="2.12613">
        <ele>152.29</ele>
        <time>2018-08-19T08:45:33Z</time>
      </trkpt>
      <trkpt lat="48.78283" lon="2.12584">
        <ele>150.73</ele>
        <time>2018-08-19T08:45:55Z</time>
      </trkpt>
      <trkpt lat="48.78271" lon="2.12572">
        <ele>149.92</ele>
        <time>2018-08-19T08:46:13Z</time>
      </trkpt>
      <trkpt lat="48.78253" lon="2.12534">
        <ele>149.9</ele>
        <time>2018-08-19T08:46:32Z</time>
      </trkpt>
      <trkpt lat="48.78241" lon="2.12517">
        <ele>149.24</ele>
        <time>2018-08-19T08:46:50Z</time>
      </trkpt>
      <trkpt lat="48.78236" lon="2.12513">
        <ele>148.34</ele>
        <time>2018-08-19T08:46:58Z</time>
      </trkpt>
      <trkpt lat="48.7823" lon="2.12496">
        <ele>148.33</ele>
        <time>2018-08-19T08:47:10Z</time>
      </trkpt>
      <trkpt lat="48.78225" lon="2.1248">
        <ele>148.19</ele>
        <time>2018-08-19T08:47:34Z</time>
      </trkpt>
      <trkpt lat="48.78223" lon="2.1248">
        <ele>148.37</ele>
        <time>2018-08-19T08:47:58Z</time>
      </trkpt>
      <trkpt lat="48.78223" lon="2.12482">
        <ele>148.05</ele>
        <time>2018-08-19T08:48:21Z</time>
      </trkpt>
      <trkpt lat="48.78221" lon="2.12482">
        <ele>147.94</ele>
        <time>2018-08-19T08:48:28Z</time>
      </trkpt>
      <trkpt lat="48.78223" lon="2.12475">
        <ele>147.52</ele>
        <time>2018-08-19T08:48:55Z</time>
      </trkpt>
      <trkpt lat="48.78225" lon="2.1248">
        <ele>148.03</ele>
        <time>2018-08-19T08:49:19Z</time>
      </trkpt>
      <trkpt lat="48.78225" lon="2.12477">
        <ele>147.46</ele>
        <time>2018-08-19T08:49:26Z</time>
      </trkpt>
      <trkpt lat="48.78223" lon="2.12478">
        <ele>147.87</ele>
        <time>2018-08-19T08:49:48Z</time>
      </trkpt>
      <trkpt lat="48.78221" lon="2.12485">
        <ele>147.52</ele>
        <time>2018-08-19T08:50:16Z</time>
      </trkpt>
      <trkpt lat="48.78223" lon="2.12484">
        <ele>147.93</ele>
        <time>2018-08-19T08:50:44Z</time>
      </trkpt>
      <trkpt lat="48.7822" lon="2.12483">
        <ele>147.98</ele>
        <time>2018-08-19T08:51:12Z</time>
      </trkpt>
      <trkpt lat="48.78219" lon="2.12479">
        <ele>148.09</ele>
        <time>2018-08-19T08:51:36Z</time>
      </trkpt>
      <trkpt lat="48.78218" lon="2.12482">
        <ele>148.76</ele>
        <time>2018-08-19T08:52:00Z</time>
      </trkpt>
      <trkpt lat="48.78212" lon="2.12491">
        <ele>147.93</ele>
        <time>2018-08-19T08:52:16Z</time>
      </trkpt>
      <trkpt lat="48.78207" lon="2.12505">
        <ele>147.72</ele>
        <time>2018-08-19T08:52:32Z</time>
      </trkpt>
      <trkpt lat="48.78203" lon="2.12528">
        <ele>148.49</ele>
        <time>2018-08-19T08:52:52Z</time>
      </trkpt>
      <trkpt lat="48.78193" lon="2.12541">
        <ele>147.78</ele>
        <time>2018-08-19T08:53:09Z</time>
      </trkpt>
      <trkpt lat="48.78181" lon="2.12568">
        <ele>148.19</ele>
        <time>2018-08-19T08:53:30Z</time>
      </trkpt>
      <trkpt lat="48.7818" lon="2.12584">
        <ele>148.03</ele>
        <time>2018-08-19T08:53:49Z</time>
      </trkpt>
      <trkpt lat="48.7818" lon="2.12612">
        <ele>148.82</ele>
        <time>2018-08-19T08:54:07Z</time>
      </trkpt>
      <trkpt lat="48.78181" lon="2.12645">
        <ele>149.09</ele>
        <time>2018-08-19T08:54:28Z</time>
      </trkpt>
      <trkpt lat="48.7818" lon="2.12671">
        <ele>149.82</ele>
        <time>2018-08-19T08:54:46Z</time>
      </trkpt>
      <trkpt lat="48.78179" lon="2.12675">
        <ele>149.25</ele>
        <time>2018-08-19T08:54:49Z</time>
      </trkpt>
      <trkpt lat="48.7817" lon="2.12673">
        <ele>149.2</ele>
        <time>2018-08-19T08:55:15Z</time>
      </trkpt>
      <trkpt lat="48.78158" lon="2.1266">
        <ele>148.44</ele>
        <time>2018-08-19T08:55:34Z</time>
      </trkpt>
      <trkpt lat="48.78139" lon="2.12638">
        <ele>147.97</ele>
        <time>2018-08-19T08:55:57Z</time>
      </trkpt>
      <trkpt lat="48.78126" lon="2.12622">
        <ele>147.7</ele>
        <time>2018-08-19T08:56:19Z</time>
      </trkpt>
      <trkpt lat="48.78113" lon="2.12608">
        <ele>146.44</ele>
        <time>2018-08-19T08:56:39Z</time>
      </trkpt>
      <trkpt lat="48.78113" lon="2.12608">
        <ele>146.41</ele>
        <time>2018-08-19T08:56:40Z</time>
      </trkpt>
      <trkpt lat="48.78093" lon="2.12581">
        <ele>145.59</ele>
        <time>2018-08-19T08:57:04Z</time>
      </trkpt>
      <trkpt lat="48.78072" lon="2.12556">
        <ele>144.08</ele>
        <time>2018-08-19T08:57:24Z</time>
      </trkpt>
      <trkpt lat="48.78056" lon="2.1253">
        <ele>143.92</ele>
        <time>2018-08-19T08:57:44Z</time>
      </trkpt>
      <trkpt lat="48.78045" lon="2.12517">
        <ele>142.45</ele>
        <time>2018-08-19T08:58:05Z</time>
      </trkpt>
      <trkpt lat="48.7803" lon="2.12495">
        <ele>141.9</ele>
        <time>2018-08-19T08:58:27Z</time>
      </trkpt>
      <trkpt lat="48.78015" lon="2.12473">
        <ele>140.67</ele>
        <time>2018-08-19T08:58:43Z</time>
      </trkpt>
      <trkpt lat="48.78002" lon="2.12453">
        <ele>140.07</ele>
        <time>2018-08-19T08:58:54Z</time>
      </trkpt>
      <trkpt lat="48.77995" lon="2.12445">
        <ele>139.91</ele>
        <time>2018-08-19T08:59:13Z</time>
      </trkpt>
      <trkpt lat="48.77996" lon="2.12433">
        <ele>138.87</ele>
        <time>2018-08-19T08:59:32Z</time>
      </trkpt>
      <trkpt lat="48.78003" lon="2.12409">
        <ele>137.68</ele>
        <time>2018-08-19T08:59:54Z</time>
      </trkpt>
      <trkpt lat="48.78006" lon="2.12381">
        <ele>136.99</ele>
        <time>2018-08-19T09:00:18Z</time>
      </trkpt>
      <trkpt lat="48.78005" lon="2.12374">
        <ele>137.22</ele>
        <time>2018-08-19T09:00:20Z</time>
      </trkpt>
      <trkpt lat="48.78007" lon="2.12346">
        <ele>137.5</ele>
        <time>2018-08-19T09:00:35Z</time>
      </trkpt>
      <trkpt lat="48.7801" lon="2.12314">
        <ele>138.27</ele>
        <time>2018-08-19T09:00:53Z</time>
      </trkpt>
      <trkpt lat="48.78001" lon="2.123">
        <ele>138</ele>
        <time>2018-08-19T09:01:11Z</time>
      </trkpt>
      <trkpt lat="48.77993" lon="2.12281">
        <ele>138.38</ele>
        <time>2018-08-19T09:01:29Z</time>
      </trkpt>
      <trkpt lat="48.7799" lon="2.12247">
        <ele>138.2</ele>
        <time>2018-08-19T09:01:48Z</time>
      </trkpt>
      <trkpt lat="48.77989" lon="2.12233">
        <ele>139.23</ele>
        <time>2018-08-19T09:02:10Z</time>
      </trkpt>
      <trkpt lat="48.77969" lon="2.12206">
        <ele>139.31</ele>
        <time>2018-08-19T09:02:31Z</time>
      </trkpt>
      <trkpt lat="48.77949" lon="2.12201">
        <ele>137.67</ele>
        <time>2018-08-19T09:02:52Z</time>
      </trkpt>
      <trkpt lat="48.77931" lon="2.12189">
        <ele>137.85</ele>
        <time>2018-08-19T09:03:09Z</time>
      </trkpt>
      <trkpt lat="48.77919" lon="2.12187">
        <ele>136.79</ele>
        <time>2018-08-19T09:03:28Z</time>
      </trkpt>
      <trkpt lat="48.77905" lon="2.12175">
        <ele>135.11</ele>
        <time>2018-08-19T09:03:50Z</time>
      </trkpt>
      <trkpt lat="48.77893" lon="2.12163">
        <ele>132.91</ele>
        <time>2018-08-19T09:04:11Z</time>
      </trkpt>
      <trkpt lat="48.77887" lon="2.12144">
        <ele>130.55</ele>
        <time>2018-08-19T09:04:29Z</time>
      </trkpt>
      <trkpt lat="48.77884" lon="2.12122">
        <ele>128.36</ele>
        <time>2018-08-19T09:04:52Z</time>
      </trkpt>
      <trkpt lat="48.77884" lon="2.12121">
        <ele>128.02</ele>
        <time>2018-08-19T09:04:54Z</time>
      </trkpt>
      <trkpt lat="48.77875" lon="2.12097">
        <ele>124.75</ele>
        <time>2018-08-19T09:05:12Z</time>
      </trkpt>
      <trkpt lat="48.77871" lon="2.12075">
        <ele>121.66</ele>
        <time>2018-08-19T09:05:35Z</time>
      </trkpt>
      <trkpt lat="48.77863" lon="2.12053">
        <ele>118.87</ele>
        <time>2018-08-19T09:05:55Z</time>
      </trkpt>
      <trkpt lat="48.77851" lon="2.12029">
        <ele>115.82</ele>
        <time>2018-08-19T09:06:14Z</time>
      </trkpt>
      <trkpt lat="48.77846" lon="2.12013">
        <ele>113.03</ele>
        <time>2018-08-19T09:06:31Z</time>
      </trkpt>
      <trkpt lat="48.7784" lon="2.11984">
        <ele>109.72</ele>
        <time>2018-08-19T09:06:53Z</time>
      </trkpt>
      <trkpt lat="48.77835" lon="2.11965">
        <ele>106.75</ele>
        <time>2018-08-19T09:07:13Z</time>
      </trkpt>
      <trkpt lat="48.77834" lon="2.11961">
        <ele>105.8</ele>
        <time>2018-08-19T09:07:19Z</time>
      </trkpt>
      <trkpt lat="48.77821" lon="2.11948">
        <ele>102.77</ele>
        <time>2018-08-19T09:07:39Z</time>
      </trkpt>
      <trkpt lat="48.77809" lon="2.11942">
        <ele>99.94</ele>
        <time>2018-08-19T09:08:00Z</time>
      </trkpt>
      <trkpt lat="48.77795" lon="2.1193">
        <ele>97.11</ele>
        <time>2018-08-19T09:08:21Z</time>
      </trkpt>
      <trkpt lat="48.77777" lon="2.11921">
        <ele>94.58</ele>
        <time>2018-08-19T09:08:43Z</time>
      </trkpt>
      <trkpt lat="48.77768" lon="2.11915">
        <ele>94.56</ele>
        <time>2018-08-19T09:09:06Z</time>
      </trkpt>
      <trkpt lat="48.7777" lon="2.11913">
        <ele>94.55</ele>
        <time>2018-08-19T09:09:11Z</time>
      </trkpt>
      <trkpt lat="48.77771" lon="2.11911">
        <ele>94.41</ele>
        <time>2018-08-19T09:09:15Z</time>
      </trkpt>
      <trkpt lat="48.77771" lon="2.11902">
        <ele>94.71</ele>
        <time>2018-08-19T09:09:42Z</time>
      </trkpt>
      <trkpt lat="48.77777" lon="2.119">
        <ele>94.64</ele>
        <time>2018-08-19T09:10:09Z</time>
      </trkpt>
      <trkpt lat="48.77776" lon="2.11901">
        <ele>95.1</ele>
        <time>2018-08-19T09:10:13Z</time>
      </trkpt>
      <trkpt lat="48.77768" lon="2.1189">
        <ele>94.87</ele>
        <time>2018-08-19T09:10:33Z</time>
      </trkpt>
      <trkpt lat="48.77768" lon="2.11876">
        <ele>95.04</ele>
        <time>2018-08-19T09:10:47Z</time>
      </trkpt>
      <trkpt lat="48.77769" lon="2.11846">
        <ele>94.63</ele>
        <time>2018-08-19T09:11:10Z</time>
      </trkpt>
      <trkpt lat="48.77766" lon="2.11814">
        <ele>93.52</ele>
        <time>2018-08-19T09:11:32Z</time>
      </trkpt>
      <trkpt lat="48.77761" lon="2.11796">
        <ele>94.47</ele>
        <time>2018-08-19T09:11:46Z</time>
      </trkpt>
      <trkpt lat="48.77749" lon="2.11775">
        <ele>94.84</ele>
        <time>2018-08-19T09:12:02Z</time>
      </trkpt>
      <trkpt lat="48.77732" lon="2.11767">
        <ele>94.3</ele>
        <time>2018-08-19T09:12:16Z</time>
      </trkpt>
      <trkpt lat="48.77722" lon="2.11773">
        <ele>94.47</ele>
        <time>2018-08-19T09:12:31Z</time>
      </trkpt>
      <trkpt lat="48.77709" lon="2.11771">
        <ele>94.83</ele>
        <time>2018-08-19T09:12:46Z</time>
      </trkpt>
      <trkpt lat="48.77691" lon="2.11778">
        <ele>94.8</ele>
        <time>2018-08-19T09:13:08Z</time>
      </trkpt>
      <trkpt lat="48.77683" lon="2.11784">
        <ele>94.56</ele>
        <time>2018-08-19T09:13:28Z</time>
      </trkpt>
      <trkpt lat="48.77677" lon="2.11779">
        <ele>94.52</ele>
        <time>2018-08-19T09:13:49Z</time>
      </trkpt>
      <trkpt lat="48.77679" lon="2.11784">
        <ele>94.4</ele>
        <time>2018-08-19T09:14:08Z</time>
      </trkpt>
      <trkpt lat="48.77679" lon="2.11782">
        <ele>94.09</ele>
        <time>2018-08-19T09:14:33Z</time>
      </trkpt>
      <trkpt lat="48.7768" lon="2.11784">
        <ele>93.99</ele>
        <time>2018-08-19T09:14:57Z</time>
      </trkpt>
      <trkpt lat="48.77683" lon="2.11787">
        <ele>94.5</ele>
        <time>2018-08-19T09:15:23Z</time>
      </trkpt>
      <trkpt lat="48.77683" lon="2.11785">
        <ele>94.41</ele>
        <time>2018-08-19T09:15:48Z</time>
      </trkpt>
      <trkpt lat="48.7768" lon="2.11783">
        <ele>94.74</ele>
        <time>2018-08-19T09:16:15Z</time>
      </trkpt>
      <trkpt lat="48.77681" lon="2.11788">
        <ele>94.1</ele>
        <time>2018-08-19T09:16:40Z</time>
      </trkpt>
      <trkpt lat="48.7768" lon="2.11787">
        <ele>94.24</ele>
        <time>2018-08-19T09:17:08Z</time>
      </trkpt>
      <trkpt lat="48.77681" lon="2.11782">
        <ele>94.26</ele>
        <time>2018-08-19T09:17:34Z</time>
      </trkpt>
      <trkpt lat="48.77674" lon="2.11783">
        <ele>94.17</ele>
        <time>2018-08-19T09:17:52Z</time>
      </trkpt>
      <trkpt lat="48.77677" lon="2.11783">
        <ele>94.2</ele>
        <time>2018-08-19T09:18:13Z</time>
      </trkpt>
      <trkpt lat="48.77676" lon="2.11785">
        <ele>94.43</ele>
        <time>2018-08-19T09:18:29Z</time>
      </trkpt>
      <trkpt lat="48.77671" lon="2.11785">
        <ele>95.17</ele>
        <time>2018-08-19T09:18:33Z</time>
      </trkpt>
      <trkpt lat="48.77662" lon="2.11779">
        <ele>95.09</ele>
        <time>2018-08-19T09:18:46Z</time>
      </trkpt>
      <trkpt lat="48.77662" lon="2.11779">
        <ele>94.78</ele>
        <time>2018-08-19T09:18:47Z</time>
      </trkpt>
      <trkpt lat="48.77673" lon="2.11779">
        <ele>95.25</ele>
        <time>2018-08-19T09:18:57Z</time>
      </trkpt>
      <trkpt lat="48.77681" lon="2.11785">
        <ele>93.22</ele>
        <time>2018-08-19T09:19:11Z</time>
      </trkpt>
      <trkpt lat="48.77681" lon="2.11792">
        <ele>91.01</ele>
        <time>2018-08-19T09:19:18Z</time>
      </trkpt>
      <trkpt lat="48.77684" lon="2.11804">
        <ele>91.28</ele>
        <time>2018-08-19T09:19:31Z</time>
      </trkpt>
      <trkpt lat="48.77689" lon="2.11817">
        <ele>91.76</ele>
        <time>2018-08-19T09:19:48Z</time>
      </trkpt>
      <trkpt lat="48.7769" lon="2.1183">
        <ele>91.56</ele>
        <time>2018-08-19T09:19:59Z</time>
      </trkpt>
      <trkpt lat="48.77691" lon="2.11845">
        <ele>91.3</ele>
        <time>2018-08-19T09:20:19Z</time>
      </trkpt>
      <trkpt lat="48.77691" lon="2.11879">
        <ele>91.14</ele>
        <time>2018-08-19T09:20:42Z</time>
      </trkpt>
      <trkpt lat="48.77686" lon="2.11911">
        <ele>90.81</ele>
        <time>2018-08-19T09:21:04Z</time>
      </trkpt>
      <trkpt lat="48.77687" lon="2.11936">
        <ele>90.74</ele>
        <time>2018-08-19T09:21:23Z</time>
      </trkpt>
      <trkpt lat="48.77685" lon="2.11963">
        <ele>91.41</ele>
        <time>2018-08-19T09:21:44Z</time>
      </trkpt>
      <trkpt lat="48.77681" lon="2.11999">
        <ele>90.98</ele>
        <time>2018-08-19T09:22:05Z</time>
      </trkpt>
      <trkpt lat="48.77674" lon="2.12033">
        <ele>90.14</ele>
        <time>2018-08-19T09:22:25Z</time>
      </trkpt>
      <trkpt lat="48.77665" lon="2.12065">
        <ele>90.32</ele>
        <time>2018-08-19T09:22:43Z</time>
      </trkpt>
      <trkpt lat="48.77661" lon="2.12077">
        <ele>89.91</ele>
        <time>2018-08-19T09:22:52Z</time>
      </trkpt>
      <trkpt lat="48.7765" lon="2.12103">
        <ele>90.97</ele>
        <time>2018-08-19T09:23:09Z</time>
      </trkpt>
      <trkpt lat="48.77648" lon="2.12111">
        <ele>91.15</ele>
        <time>2018-08-19T09:23:14Z</time>
      </trkpt>
      <trkpt lat="48.77643" lon="2.12125">
        <ele>91.3</ele>
        <time>2018-08-19T09:23:24Z</time>
      </trkpt>
      <trkpt lat="48.77636" lon="2.12145">
        <ele>91.74</ele>
        <time>2018-08-19T09:23:38Z</time>
      </trkpt>
      <trkpt lat="48.77631" lon="2.12168">
        <ele>91.12</ele>
        <time>2018-08-19T09:23:52Z</time>
      </trkpt>
      <trkpt lat="48.7763" lon="2.12173">
        <ele>91.36</ele>
        <time>2018-08-19T09:23:55Z</time>
      </trkpt>
      <trkpt lat="48.77624" lon="2.12193">
        <ele>90.96</ele>
        <time>2018-08-19T09:24:09Z</time>
      </trkpt>
      <trkpt lat="48.77619" lon="2.12203">
        <ele>90.79</ele>
        <time>2018-08-19T09:24:18Z</time>
      </trkpt>
      <trkpt lat="48.77616" lon="2.12222">
        <ele>91.28</ele>
        <time>2018-08-19T09:24:33Z</time>
      </trkpt>
      <trkpt lat="48.77615" lon="2.12248">
        <ele>91.21</ele>
        <time>2018-08-19T09:24:54Z</time>
      </trkpt>
      <trkpt lat="48.77602" lon="2.12271">
        <ele>90.95</ele>
        <time>2018-08-19T09:25:14Z</time>
      </trkpt>
      <trkpt lat="48.77597" lon="2.12276">
        <ele>90.73</ele>
        <time>2018-08-19T09:25:17Z</time>
      </trkpt>
      <trkpt lat="48.77593" lon="2.12279">
        <ele>90.42</ele>
        <time>2018-08-19T09:25:19Z</time>
      </trkpt>
      <trkpt lat="48.77586" lon="2.12293">
        <ele>91.16</ele>
        <time>2018-08-19T09:25:34Z</time>
      </trkpt>
      <trkpt lat="48.77578" lon="2.12303">
        <ele>91.97</ele>
        <time>2018-08-19T09:25:50Z</time>
      </trkpt>
      <trkpt lat="48.77563" lon="2.12311">
        <ele>91.36</ele>
        <time>2018-08-19T09:26:10Z</time>
      </trkpt>
      <trkpt lat="48.77554" lon="2.12331">
        <ele>91.39</ele>
        <time>2018-08-19T09:26:28Z</time>
      </trkpt>
      <trkpt lat="48.77553" lon="2.12342">
        <ele>90.52</ele>
        <time>2018-08-19T09:26:35Z</time>
      </trkpt>
      <trkpt lat="48.77552" lon="2.12367">
        <ele>91.05</ele>
        <time>2018-08-19T09:26:53Z</time>
      </trkpt>
      <trkpt lat="48.77542" lon="2.12392">
        <ele>90.55</ele>
        <time>2018-08-19T09:27:14Z</time>
      </trkpt>
      <trkpt lat="48.77536" lon="2.12405">
        <ele>90.2</ele>
        <time>2018-08-19T09:27:24Z</time>
      </trkpt>
      <trkpt lat="48.7753" lon="2.1242">
        <ele>90.63</ele>
        <time>2018-08-19T09:27:44Z</time>
      </trkpt>
      <trkpt lat="48.77527" lon="2.12426">
        <ele>90.67</ele>
        <time>2018-08-19T09:28:09Z</time>
      </trkpt>
      <trkpt lat="48.77528" lon="2.12439">
        <ele>90.83</ele>
        <time>2018-08-19T09:28:29Z</time>
      </trkpt>
      <trkpt lat="48.77527" lon="2.12445">
        <ele>90.95</ele>
        <time>2018-08-19T09:28:33Z</time>
      </trkpt>
      <trkpt lat="48.7752" lon="2.12467">
        <ele>90.88</ele>
        <time>2018-08-19T09:28:48Z</time>
      </trkpt>
      <trkpt lat="48.77515" lon="2.12476">
        <ele>90.76</ele>
        <time>2018-08-19T09:28:59Z</time>
      </trkpt>
      <trkpt lat="48.77514" lon="2.12479">
        <ele>90.94</ele>
        <time>2018-08-19T09:29:01Z</time>
      </trkpt>
      <trkpt lat="48.77511" lon="2.12484">
        <ele>90.84</ele>
        <time>2018-08-19T09:29:05Z</time>
      </trkpt>
      <trkpt lat="48.77502" lon="2.12502">
        <ele>91.53</ele>
        <time>2018-08-19T09:29:19Z</time>
      </trkpt>
      <trkpt lat="48.77495" lon="2.12523">
        <ele>91.96</ele>
        <time>2018-08-19T09:29:33Z</time>
      </trkpt>
      <trkpt lat="48.77495" lon="2.12541">
        <ele>91.18</ele>
        <time>2018-08-19T09:29:43Z</time>
      </trkpt>
      <trkpt lat="48.77495" lon="2.12551">
        <ele>91.39</ele>
        <time>2018-08-19T09:29:51Z</time>
      </trkpt>
      <trkpt lat="48.77493" lon="2.12572">
        <ele>90.74</ele>
        <time>2018-08-19T09:30:07Z</time>
      </trkpt>
      <trkpt lat="48.77494" lon="2.12576">
        <ele>90.62</ele>
        <time>2018-08-19T09:30:09Z</time>
      </trkpt>
      <trkpt lat="48.77494" lon="2.12583">
        <ele>91.13</ele>
        <time>2018-08-19T09:30:13Z</time>
      </trkpt>
      <trkpt lat="48.77493" lon="2.12603">
        <ele>91.15</ele>
        <time>2018-08-19T09:30:27Z</time>
      </trkpt>
      <trkpt lat="48.7749" lon="2.12625">
        <ele>92.22</ele>
        <time>2018-08-19T09:30:39Z</time>
      </trkpt>
      <trkpt lat="48.77489" lon="2.12628">
        <ele>92.32</ele>
        <time>2018-08-19T09:30:41Z</time>
      </trkpt>
      <trkpt lat="48.77483" lon="2.12641">
        <ele>92.66</ele>
        <time>2018-08-19T09:30:55Z</time>
      </trkpt>
      <trkpt lat="48.77485" lon="2.12639">
        <ele>93.36</ele>
        <time>2018-08-19T09:31:24Z</time>
      </trkpt>
      <trkpt lat="48.77488" lon="2.12641">
        <ele>93.17</ele>
        <time>2018-08-19T09:31:48Z</time>
      </trkpt>
      <trkpt lat="48.77489" lon="2.1265">
        <ele>93.24</ele>
        <time>2018-08-19T09:32:02Z</time>
      </trkpt>
      <trkpt lat="48.77497" lon="2.12654">
        <ele>92.85</ele>
        <time>2018-08-19T09:32:12Z</time>
      </trkpt>
      <trkpt lat="48.77497" lon="2.12682">
        <ele>91.66</ele>
        <time>2018-08-19T09:32:29Z</time>
      </trkpt>
      <trkpt lat="48.77493" lon="2.12696">
        <ele>91.68</ele>
        <time>2018-08-19T09:32:40Z</time>
      </trkpt>
      <trkpt lat="48.77486" lon="2.12713">
        <ele>92.04</ele>
        <time>2018-08-19T09:32:57Z</time>
      </trkpt>
      <trkpt lat="48.77485" lon="2.1273">
        <ele>93.37</ele>
        <time>2018-08-19T09:33:16Z</time>
      </trkpt>
      <trkpt lat="48.77486" lon="2.12749">
        <ele>92.94</ele>
        <time>2018-08-19T09:33:31Z</time>
      </trkpt>
      <trkpt lat="48.77486" lon="2.1277">
        <ele>93.12</ele>
        <time>2018-08-19T09:33:48Z</time>
      </trkpt>
      <trkpt lat="48.77484" lon="2.12799">
        <ele>92.94</ele>
        <time>2018-08-19T09:34:04Z</time>
      </trkpt>
      <trkpt lat="48.77483" lon="2.12805">
        <ele>93.21</ele>
        <time>2018-08-19T09:34:07Z</time>
      </trkpt>
      <trkpt lat="48.77481" lon="2.12819">
        <ele>93.3</ele>
        <time>2018-08-19T09:34:20Z</time>
      </trkpt>
      <trkpt lat="48.77479" lon="2.12846">
        <ele>92.3</ele>
        <time>2018-08-19T09:34:30Z</time>
      </trkpt>
      <trkpt lat="48.77493" lon="2.1286">
        <ele>90.65</ele>
        <time>2018-08-19T09:34:53Z</time>
      </trkpt>
      <trkpt lat="48.77505" lon="2.12873">
        <ele>90.06</ele>
        <time>2018-08-19T09:35:10Z</time>
      </trkpt>
      <trkpt lat="48.77515" lon="2.12882">
        <ele>89.33</ele>
        <time>2018-08-19T09:35:23Z</time>
      </trkpt>
      <trkpt lat="48.77518" lon="2.12887">
        <ele>89.49</ele>
        <time>2018-08-19T09:35:37Z</time>
      </trkpt>
      <trkpt lat="48.7751" lon="2.12904">
        <ele>89.16</ele>
        <time>2018-08-19T09:35:56Z</time>
      </trkpt>
      <trkpt lat="48.77508" lon="2.12922">
        <ele>89.1</ele>
        <time>2018-08-19T09:36:11Z</time>
      </trkpt>
      <trkpt lat="48.77497" lon="2.12967">
        <ele>89.12</ele>
        <time>2018-08-19T09:36:36Z</time>
      </trkpt>
      <trkpt lat="48.77487" lon="2.13">
        <ele>88.21</ele>
        <time>2018-08-19T09:36:58Z</time>
      </trkpt>
      <trkpt lat="48.77484" lon="2.1301">
        <ele>88.66</ele>
        <time>2018-08-19T09:37:08Z</time>
      </trkpt>
      <trkpt lat="48.77477" lon="2.13043">
        <ele>88.35</ele>
        <time>2018-08-19T09:37:30Z</time>
      </trkpt>
      <trkpt lat="48.77476" lon="2.13047">
        <ele>88.5</ele>
        <time>2018-08-19T09:37:33Z</time>
      </trkpt>
      <trkpt lat="48.7747" lon="2.13065">
        <ele>88.37</ele>
        <time>2018-08-19T09:37:42Z</time>
      </trkpt>
      <trkpt lat="48.77456" lon="2.13088">
        <ele>88.74</ele>
        <time>2018-08-19T09:38:02Z</time>
      </trkpt>
      <trkpt lat="48.77445" lon="2.13102">
        <ele>88.05</ele>
        <time>2018-08-19T09:38:20Z</time>
      </trkpt>
      <trkpt lat="48.77431" lon="2.1311">
        <ele>88.02</ele>
        <time>2018-08-19T09:38:34Z</time>
      </trkpt>
      <trkpt lat="48.77425" lon="2.13111">
        <ele>87.99</ele>
        <time>2018-08-19T09:38:38Z</time>
      </trkpt>
      <trkpt lat="48.77414" lon="2.13111">
        <ele>88.47</ele>
        <time>2018-08-19T09:38:52Z</time>
      </trkpt>
      <trkpt lat="48.77411" lon="2.13105">
        <ele>88.58</ele>
        <time>2018-08-19T09:39:04Z</time>
      </trkpt>
      <trkpt lat="48.77399" lon="2.13117">
        <ele>88.02</ele>
        <time>2018-08-19T09:39:20Z</time>
      </trkpt>
      <trkpt lat="48.7738" lon="2.13133">
        <ele>88.03</ele>
        <time>2018-08-19T09:39:40Z</time>
      </trkpt>
      <trkpt lat="48.77376" lon="2.13136">
        <ele>87.86</ele>
        <time>2018-08-19T09:39:43Z</time>
      </trkpt>
      <trkpt lat="48.77357" lon="2.13156">
        <ele>87.6</ele>
        <time>2018-08-19T09:40:03Z</time>
      </trkpt>
      <trkpt lat="48.77347" lon="2.13169">
        <ele>87.61</ele>
        <time>2018-08-19T09:40:16Z</time>
      </trkpt>
      <trkpt lat="48.77339" lon="2.13197">
        <ele>87.37</ele>
        <time>2018-08-19T09:40:39Z</time>
      </trkpt>
      <trkpt lat="48.77337" lon="2.13199">
        <ele>87.37</ele>
        <time>2018-08-19T09:40:42Z</time>
      </trkpt>
      <trkpt lat="48.77333" lon="2.13206">
        <ele>87.36</ele>
        <time>2018-08-19T09:40:49Z</time>
      </trkpt>
      <trkpt lat="48.77331" lon="2.13208">
        <ele>87.41</ele>
        <time>2018-08-19T09:40:52Z</time>
      </trkpt>
      <trkpt lat="48.77321" lon="2.13217">
        <ele>88.11</ele>
        <time>2018-08-19T09:41:03Z</time>
      </trkpt>
      <trkpt lat="48.77318" lon="2.1322">
        <ele>88.26</ele>
        <time>2018-08-19T09:41:06Z</time>
      </trkpt>
      <trkpt lat="48.77315" lon="2.13227">
        <ele>88.11</ele>
        <time>2018-08-19T09:41:14Z</time>
      </trkpt>
      <trkpt lat="48.77318" lon="2.13224">
        <ele>86.57</ele>
        <time>2018-08-19T09:41:32Z</time>
      </trkpt>
      <trkpt lat="48.77319" lon="2.13226">
        <ele>86.25</ele>
        <time>2018-08-19T09:41:34Z</time>
      </trkpt>
      <trkpt lat="48.7732" lon="2.13228">
        <ele>86.4</ele>
        <time>2018-08-19T09:41:38Z</time>
      </trkpt>
      <trkpt lat="48.7732" lon="2.13231">
        <ele>88.14</ele>
        <time>2018-08-19T09:41:57Z</time>
      </trkpt>
      <trkpt lat="48.77307" lon="2.13234">
        <ele>88.98</ele>
        <time>2018-08-19T09:42:12Z</time>
      </trkpt>
      <trkpt lat="48.77292" lon="2.13231">
        <ele>90.02</ele>
        <time>2018-08-19T09:42:30Z</time>
      </trkpt>
      <trkpt lat="48.77285" lon="2.1323">
        <ele>90.16</ele>
        <time>2018-08-19T09:42:44Z</time>
      </trkpt>
      <trkpt lat="48.77266" lon="2.13219">
        <ele>91.47</ele>
        <time>2018-08-19T09:43:04Z</time>
      </trkpt>
      <trkpt lat="48.77253" lon="2.13195">
        <ele>91.81</ele>
        <time>2018-08-19T09:43:25Z</time>
      </trkpt>
      <trkpt lat="48.77252" lon="2.13175">
        <ele>92.14</ele>
        <time>2018-08-19T09:43:39Z</time>
      </trkpt>
      <trkpt lat="48.77242" lon="2.13149">
        <ele>93.05</ele>
        <time>2018-08-19T09:43:58Z</time>
      </trkpt>
      <trkpt lat="48.77228" lon="2.13135">
        <ele>96.38</ele>
        <time>2018-08-19T09:44:18Z</time>
      </trkpt>
      <trkpt lat="48.77213" lon="2.13122">
        <ele>98.28</ele>
        <time>2018-08-19T09:44:40Z</time>
      </trkpt>
      <trkpt lat="48.77212" lon="2.13121">
        <ele>98.25</ele>
        <time>2018-08-19T09:44:43Z</time>
      </trkpt>
      <trkpt lat="48.77198" lon="2.13106">
        <ele>100.28</ele>
        <time>2018-08-19T09:45:03Z</time>
      </trkpt>
      <trkpt lat="48.77192" lon="2.13098">
        <ele>100.89</ele>
        <time>2018-08-19T09:45:13Z</time>
      </trkpt>
      <trkpt lat="48.77178" lon="2.13084">
        <ele>101.68</ele>
        <time>2018-08-19T09:45:30Z</time>
      </trkpt>
      <trkpt lat="48.77162" lon="2.1307">
        <ele>103.12</ele>
        <time>2018-08-19T09:45:49Z</time>
      </trkpt>
      <trkpt lat="48.77152" lon="2.13061">
        <ele>105.65</ele>
        <time>2018-08-19T09:46:10Z</time>
      </trkpt>
      <trkpt lat="48.77136" lon="2.13056">
        <ele>108.21</ele>
        <time>2018-08-19T09:46:29Z</time>
      </trkpt>
      <trkpt lat="48.77135" lon="2.13069">
        <ele>108.97</ele>
        <time>2018-08-19T09:46:50Z</time>
      </trkpt>
      <trkpt lat="48.77137" lon="2.13086">
        <ele>110.08</ele>
        <time>2018-08-19T09:47:08Z</time>
      </trkpt>
      <trkpt lat="48.77139" lon="2.13097">
        <ele>112.02</ele>
        <time>2018-08-19T09:47:21Z</time>
      </trkpt>
      <trkpt lat="48.77142" lon="2.13118">
        <ele>112.87</ele>
        <time>2018-08-19T09:47:40Z</time>
      </trkpt>
      <trkpt lat="48.77146" lon="2.1314">
        <ele>112.28</ele>
        <time>2018-08-19T09:47:56Z</time>
      </trkpt>
      <trkpt lat="48.77153" lon="2.13166">
        <ele>111.99</ele>
        <time>2018-08-19T09:48:13Z</time>
      </trkpt>
      <trkpt lat="48.77153" lon="2.13167">
        <ele>112.04</ele>
        <time>2018-08-19T09:48:14Z</time>
      </trkpt>
      <trkpt lat="48.77161" lon="2.13184">
        <ele>111.78</ele>
        <time>2018-08-19T09:48:30Z</time>
      </trkpt>
      <trkpt lat="48.77164" lon="2.13201">
        <ele>112.17</ele>
        <time>2018-08-19T09:48:43Z</time>
      </trkpt>
      <trkpt lat="48.77168" lon="2.13215">
        <ele>112.1</ele>
        <time>2018-08-19T09:48:56Z</time>
      </trkpt>
      <trkpt lat="48.77167" lon="2.13228">
        <ele>112.81</ele>
        <time>2018-08-19T09:49:18Z</time>
      </trkpt>
      <trkpt lat="48.77152" lon="2.13227">
        <ele>113.21</ele>
        <time>2018-08-19T09:49:36Z</time>
      </trkpt>
      <trkpt lat="48.77141" lon="2.13223">
        <ele>110.92</ele>
        <time>2018-08-19T09:49:52Z</time>
      </trkpt>
      <trkpt lat="48.77138" lon="2.13233">
        <ele>109.75</ele>
        <time>2018-08-19T09:50:05Z</time>
      </trkpt>
      <trkpt lat="48.77146" lon="2.13243">
        <ele>109.59</ele>
        <time>2018-08-19T09:50:24Z</time>
      </trkpt>
      <trkpt lat="48.77148" lon="2.13242">
        <ele>109.48</ele>
        <time>2018-08-19T09:50:45Z</time>
      </trkpt>
      <trkpt lat="48.77149" lon="2.13239">
        <ele>110.14</ele>
        <time>2018-08-19T09:51:15Z</time>
      </trkpt>
      <trkpt lat="48.77148" lon="2.13244">
        <ele>110.36</ele>
        <time>2018-08-19T09:51:42Z</time>
      </trkpt>
      <trkpt lat="48.77145" lon="2.13245">
        <ele>110.06</ele>
        <time>2018-08-19T09:51:56Z</time>
      </trkpt>
      <trkpt lat="48.77146" lon="2.13246">
        <ele>110.4</ele>
        <time>2018-08-19T09:52:21Z</time>
      </trkpt>
      <trkpt lat="48.77148" lon="2.13248">
        <ele>110.13</ele>
        <time>2018-08-19T09:52:49Z</time>
      </trkpt>
      <trkpt lat="48.77145" lon="2.13245">
        <ele>110.42</ele>
        <time>2018-08-19T09:53:14Z</time>
      </trkpt>
      <trkpt lat="48.77147" lon="2.13254">
        <ele>110.1</ele>
        <time>2018-08-19T09:53:34Z</time>
      </trkpt>
      <trkpt lat="48.77147" lon="2.13253">
        <ele>110.25</ele>
        <time>2018-08-19T09:53:50Z</time>
      </trkpt>
      <trkpt lat="48.77139" lon="2.13267">
        <ele>108.8</ele>
        <time>2018-08-19T09:54:05Z</time>
      </trkpt>
      <trkpt lat="48.77135" lon="2.13282">
        <ele>107.31</ele>
        <time>2018-08-19T09:54:22Z</time>
      </trkpt>
      <trkpt lat="48.77134" lon="2.13286">
        <ele>107.15</ele>
        <time>2018-08-19T09:54:26Z</time>
      </trkpt>
      <trkpt lat="48.77125" lon="2.13303">
        <ele>106.81</ele>
        <time>2018-08-19T09:54:48Z</time>
      </trkpt>
      <trkpt lat="48.77122" lon="2.13323">
        <ele>105.6</ele>
        <time>2018-08-19T09:55:07Z</time>
      </trkpt>
      <trkpt lat="48.77117" lon="2.13346">
        <ele>103.72</ele>
        <time>2018-08-19T09:55:30Z</time>
      </trkpt>
      <trkpt lat="48.77114" lon="2.13356">
        <ele>104.15</ele>
        <time>2018-08-19T09:55:38Z</time>
      </trkpt>
      <trkpt lat="48.77112" lon="2.13379">
        <ele>102.74</ele>
        <time>2018-08-19T09:55:55Z</time>
      </trkpt>
      <trkpt lat="48.77109" lon="2.1339">
        <ele>101.68</ele>
        <time>2018-08-19T09:56:06Z</time>
      </trkpt>
      <trkpt lat="48.77106" lon="2.13405">
        <ele>101.64</ele>
        <time>2018-08-19T09:56:24Z</time>
      </trkpt>
      <trkpt lat="48.77108" lon="2.13407">
        <ele>100.58</ele>
        <time>2018-08-19T09:56:35Z</time>
      </trkpt>
      <trkpt lat="48.77098" lon="2.13439">
        <ele>100.12</ele>
        <time>2018-08-19T09:56:56Z</time>
      </trkpt>
      <trkpt lat="48.77084" lon="2.13488">
        <ele>99.3</ele>
        <time>2018-08-19T09:57:15Z</time>
      </trkpt>
      <trkpt lat="48.7708" lon="2.13503">
        <ele>99.86</ele>
        <time>2018-08-19T09:57:22Z</time>
      </trkpt>
      <trkpt lat="48.77077" lon="2.13521">
        <ele>101.14</ele>
        <time>2018-08-19T09:57:39Z</time>
      </trkpt>
      <trkpt lat="48.77077" lon="2.13531">
        <ele>102.12</ele>
        <time>2018-08-19T09:57:53Z</time>
      </trkpt>
      <trkpt lat="48.77074" lon="2.13567">
        <ele>104.58</ele>
        <time>2018-08-19T09:58:15Z</time>
      </trkpt>
      <trkpt lat="48.7707" lon="2.13598">
        <ele>106.1</ele>
        <time>2018-08-19T09:58:37Z</time>
      </trkpt>
      <trkpt lat="48.77069" lon="2.13625">
        <ele>104.2</ele>
        <time>2018-08-19T09:58:58Z</time>
      </trkpt>
      <trkpt lat="48.77058" lon="2.13673">
        <ele>103.99</ele>
        <time>2018-08-19T09:59:19Z</time>
      </trkpt>
      <trkpt lat="48.77054" lon="2.13694">
        <ele>102.23</ele>
        <time>2018-08-19T09:59:36Z</time>
      </trkpt>
      <trkpt lat="48.77035" lon="2.13715">
        <ele>101.37</ele>
        <time>2018-08-19T09:59:59Z</time>
      </trkpt>
      <trkpt lat="48.77013" lon="2.13718">
        <ele>102.19</ele>
        <time>2018-08-19T10:00:20Z</time>
      </trkpt>
      <trkpt lat="48.76997" lon="2.1374">
        <ele>102.53</ele>
        <time>2018-08-19T10:00:42Z</time>
      </trkpt>
      <trkpt lat="48.76987" lon="2.13771">
        <ele>104.01</ele>
        <time>2018-08-19T10:01:04Z</time>
      </trkpt>
      <trkpt lat="48.76977" lon="2.13795">
        <ele>105.54</ele>
        <time>2018-08-19T10:01:25Z</time>
      </trkpt>
      <trkpt lat="48.76963" lon="2.1383">
        <ele>104.42</ele>
        <time>2018-08-19T10:01:47Z</time>
      </trkpt>
      <trkpt lat="48.76962" lon="2.13852">
        <ele>101.85</ele>
        <time>2018-08-19T10:02:02Z</time>
      </trkpt>
      <trkpt lat="48.76962" lon="2.13873">
        <ele>100.78</ele>
        <time>2018-08-19T10:02:20Z</time>
      </trkpt>
      <trkpt lat="48.7696" lon="2.13911">
        <ele>98.48</ele>
        <time>2018-08-19T10:02:43Z</time>
      </trkpt>
      <trkpt lat="48.76969" lon="2.13943">
        <ele>96.09</ele>
        <time>2018-08-19T10:03:05Z</time>
      </trkpt>
      <trkpt lat="48.7698" lon="2.13964">
        <ele>93.8</ele>
        <time>2018-08-19T10:03:24Z</time>
      </trkpt>
      <trkpt lat="48.76994" lon="2.13989">
        <ele>91.13</ele>
        <time>2018-08-19T10:03:43Z</time>
      </trkpt>
      <trkpt lat="48.77004" lon="2.14013">
        <ele>89.96</ele>
        <time>2018-08-19T10:04:03Z</time>
      </trkpt>
      <trkpt lat="48.77015" lon="2.14024">
        <ele>89.28</ele>
        <time>2018-08-19T10:04:19Z</time>
      </trkpt>
      <trkpt lat="48.77018" lon="2.14027">
        <ele>88.58</ele>
        <time>2018-08-19T10:04:22Z</time>
      </trkpt>
      <trkpt lat="48.77028" lon="2.1404">
        <ele>87.08</ele>
        <time>2018-08-19T10:04:36Z</time>
      </trkpt>
      <trkpt lat="48.77037" lon="2.14054">
        <ele>86.38</ele>
        <time>2018-08-19T10:04:50Z</time>
      </trkpt>
      <trkpt lat="48.77045" lon="2.14066">
        <ele>86.24</ele>
        <time>2018-08-19T10:05:04Z</time>
      </trkpt>
      <trkpt lat="48.77057" lon="2.14083">
        <ele>85.32</ele>
        <time>2018-08-19T10:05:19Z</time>
      </trkpt>
      <trkpt lat="48.77067" lon="2.14097">
        <ele>85.07</ele>
        <time>2018-08-19T10:05:32Z</time>
      </trkpt>
      <trkpt lat="48.77082" lon="2.14115">
        <ele>84.54</ele>
        <time>2018-08-19T10:05:49Z</time>
      </trkpt>
      <trkpt lat="48.77093" lon="2.14125">
        <ele>84.31</ele>
        <time>2018-08-19T10:06:05Z</time>
      </trkpt>
      <trkpt lat="48.7711" lon="2.14121">
        <ele>84.7</ele>
        <time>2018-08-19T10:06:24Z</time>
      </trkpt>
      <trkpt lat="48.77125" lon="2.14113">
        <ele>84.96</ele>
        <time>2018-08-19T10:06:41Z</time>
      </trkpt>
      <trkpt lat="48.77125" lon="2.14122">
        <ele>85.71</ele>
        <time>2018-08-19T10:06:59Z</time>
      </trkpt>
      <trkpt lat="48.77125" lon="2.1413">
        <ele>85.85</ele>
        <time>2018-08-19T10:07:19Z</time>
      </trkpt>
      <trkpt lat="48.77122" lon="2.14134">
        <ele>85.7</ele>
        <time>2018-08-19T10:07:40Z</time>
      </trkpt>
      <trkpt lat="48.77118" lon="2.1413">
        <ele>85.58</ele>
        <time>2018-08-19T10:08:03Z</time>
      </trkpt>
      <trkpt lat="48.77119" lon="2.1413">
        <ele>85.93</ele>
        <time>2018-08-19T10:08:24Z</time>
      </trkpt>
      <trkpt lat="48.7712" lon="2.14131">
        <ele>86.61</ele>
        <time>2018-08-19T10:08:26Z</time>
      </trkpt>
      <trkpt lat="48.77116" lon="2.14152">
        <ele>85.37</ele>
        <time>2018-08-19T10:08:47Z</time>
      </trkpt>
      <trkpt lat="48.77105" lon="2.1417">
        <ele>84.06</ele>
        <time>2018-08-19T10:09:03Z</time>
      </trkpt>
      <trkpt lat="48.77096" lon="2.142">
        <ele>84.07</ele>
        <time>2018-08-19T10:09:25Z</time>
      </trkpt>
      <trkpt lat="48.77086" lon="2.14222">
        <ele>82.99</ele>
        <time>2018-08-19T10:09:45Z</time>
      </trkpt>
      <trkpt lat="48.77071" lon="2.14251">
        <ele>83.32</ele>
        <time>2018-08-19T10:10:07Z</time>
      </trkpt>
      <trkpt lat="48.7706" lon="2.14278">
        <ele>83.28</ele>
        <time>2018-08-19T10:10:28Z</time>
      </trkpt>
      <trkpt lat="48.77051" lon="2.143">
        <ele>83.22</ele>
        <time>2018-08-19T10:10:49Z</time>
      </trkpt>
      <trkpt lat="48.77046" lon="2.14312">
        <ele>82.48</ele>
        <time>2018-08-19T10:11:02Z</time>
      </trkpt>
      <trkpt lat="48.77038" lon="2.14334">
        <ele>82.86</ele>
        <time>2018-08-19T10:11:12Z</time>
      </trkpt>
      <trkpt lat="48.77028" lon="2.1436">
        <ele>81.64</ele>
        <time>2018-08-19T10:11:28Z</time>
      </trkpt>
      <trkpt lat="48.77023" lon="2.14379">
        <ele>82.38</ele>
        <time>2018-08-19T10:11:41Z</time>
      </trkpt>
      <trkpt lat="48.77022" lon="2.14383">
        <ele>82.73</ele>
        <time>2018-08-19T10:11:43Z</time>
      </trkpt>
      <trkpt lat="48.77019" lon="2.14392">
        <ele>81.69</ele>
        <time>2018-08-19T10:11:50Z</time>
      </trkpt>
      <trkpt lat="48.77015" lon="2.14397">
        <ele>81.94</ele>
        <time>2018-08-19T10:11:56Z</time>
      </trkpt>
      <trkpt lat="48.77006" lon="2.1442">
        <ele>81.48</ele>
        <time>2018-08-19T10:12:15Z</time>
      </trkpt>
      <trkpt lat="48.76995" lon="2.14452">
        <ele>81.7</ele>
        <time>2018-08-19T10:12:38Z</time>
      </trkpt>
      <trkpt lat="48.7699" lon="2.14473">
        <ele>81.66</ele>
        <time>2018-08-19T10:12:52Z</time>
      </trkpt>
      <trkpt lat="48.76985" lon="2.14488">
        <ele>81.25</ele>
        <time>2018-08-19T10:13:05Z</time>
      </trkpt>
      <trkpt lat="48.76979" lon="2.14498">
        <ele>81.67</ele>
        <time>2018-08-19T10:13:19Z</time>
      </trkpt>
      <trkpt lat="48.76972" lon="2.14505">
        <ele>81.53</ele>
        <time>2018-08-19T10:13:28Z</time>
      </trkpt>
      <trkpt lat="48.76959" lon="2.14489">
        <ele>81.34</ele>
        <time>2018-08-19T10:13:45Z</time>
      </trkpt>
      <trkpt lat="48.76954" lon="2.14485">
        <ele>81.28</ele>
        <time>2018-08-19T10:13:52Z</time>
      </trkpt>
      <trkpt lat="48.76943" lon="2.14477">
        <ele>81.16</ele>
        <time>2018-08-19T10:14:03Z</time>
      </trkpt>
      <trkpt lat="48.76928" lon="2.1446">
        <ele>81.16</ele>
        <time>2018-08-19T10:14:18Z</time>
      </trkpt>
      <trkpt lat="48.76918" lon="2.14447">
        <ele>81.15</ele>
        <time>2018-08-19T10:14:30Z</time>
      </trkpt>
      <trkpt lat="48.76903" lon="2.14429">
        <ele>82.39</ele>
        <time>2018-08-19T10:14:48Z</time>
      </trkpt>
      <trkpt lat="48.76898" lon="2.14421">
        <ele>82.37</ele>
        <time>2018-08-19T10:15:06Z</time>
      </trkpt>
      <trkpt lat="48.76892" lon="2.14414">
        <ele>82.88</ele>
        <time>2018-08-19T10:15:15Z</time>
      </trkpt>
      <trkpt lat="48.76888" lon="2.14407">
        <ele>83.69</ele>
        <time>2018-08-19T10:15:23Z</time>
      </trkpt>
      <trkpt lat="48.76884" lon="2.14403">
        <ele>83.6</ele>
        <time>2018-08-19T10:15:27Z</time>
      </trkpt>
      <trkpt lat="48.76876" lon="2.14394">
        <ele>85.01</ele>
        <time>2018-08-19T10:15:38Z</time>
      </trkpt>
      <trkpt lat="48.76871" lon="2.14385">
        <ele>84.5</ele>
        <time>2018-08-19T10:15:46Z</time>
      </trkpt>
      <trkpt lat="48.76862" lon="2.14373">
        <ele>85.93</ele>
        <time>2018-08-19T10:15:58Z</time>
      </trkpt>
      <trkpt lat="48.7686" lon="2.14374">
        <ele>86.4</ele>
        <time>2018-08-19T10:16:01Z</time>
      </trkpt>
      <trkpt lat="48.76857" lon="2.14384">
        <ele>86.38</ele>
        <time>2018-08-19T10:16:09Z</time>
      </trkpt>
      <trkpt lat="48.76855" lon="2.14403">
        <ele>86.52</ele>
        <time>2018-08-19T10:16:26Z</time>
      </trkpt>
      <trkpt lat="48.76851" lon="2.14427">
        <ele>86.38</ele>
        <time>2018-08-19T10:16:47Z</time>
      </trkpt>
      <trkpt lat="48.76845" lon="2.14453">
        <ele>85.42</ele>
        <time>2018-08-19T10:17:02Z</time>
      </trkpt>
      <trkpt lat="48.7684" lon="2.1447">
        <ele>86.05</ele>
        <time>2018-08-19T10:17:15Z</time>
      </trkpt>
      <trkpt lat="48.76834" lon="2.14485">
        <ele>85.68</ele>
        <time>2018-08-19T10:17:27Z</time>
      </trkpt>
      <trkpt lat="48.76826" lon="2.14514">
        <ele>85.63</ele>
        <time>2018-08-19T10:17:45Z</time>
      </trkpt>
      <trkpt lat="48.76823" lon="2.14527">
        <ele>85.31</ele>
        <time>2018-08-19T10:17:55Z</time>
      </trkpt>
      <trkpt lat="48.76815" lon="2.14555">
        <ele>85.93</ele>
        <time>2018-08-19T10:18:18Z</time>
      </trkpt>
      <trkpt lat="48.76807" lon="2.14584">
        <ele>85.58</ele>
        <time>2018-08-19T10:18:40Z</time>
      </trkpt>
      <trkpt lat="48.76804" lon="2.14597">
        <ele>86.14</ele>
        <time>2018-08-19T10:18:50Z</time>
      </trkpt>
      <trkpt lat="48.76796" lon="2.14625">
        <ele>85.99</ele>
        <time>2018-08-19T10:19:12Z</time>
      </trkpt>
      <trkpt lat="48.76784" lon="2.14622">
        <ele>86.76</ele>
        <time>2018-08-19T10:19:33Z</time>
      </trkpt>
      <trkpt lat="48.76771" lon="2.14608">
        <ele>87.26</ele>
        <time>2018-08-19T10:19:52Z</time>
      </trkpt>
      <trkpt lat="48.76756" lon="2.14592">
        <ele>88.58</ele>
        <time>2018-08-19T10:20:10Z</time>
      </trkpt>
      <trkpt lat="48.76741" lon="2.14577">
        <ele>90.36</ele>
        <time>2018-08-19T10:20:32Z</time>
      </trkpt>
      <trkpt lat="48.76724" lon="2.14562">
        <ele>92.75</ele>
        <time>2018-08-19T10:20:55Z</time>
      </trkpt>
      <trkpt lat="48.7671" lon="2.14549">
        <ele>94.27</ele>
        <time>2018-08-19T10:21:16Z</time>
      </trkpt>
      <trkpt lat="48.76694" lon="2.14533">
        <ele>97.22</ele>
        <time>2018-08-19T10:21:39Z</time>
      </trkpt>
      <trkpt lat="48.76678" lon="2.14516">
        <ele>99.56</ele>
        <time>2018-08-19T10:21:59Z</time>
      </trkpt>
      <trkpt lat="48.76666" lon="2.14506">
        <ele>101.79</ele>
        <time>2018-08-19T10:22:21Z</time>
      </trkpt>
      <trkpt lat="48.76656" lon="2.14495">
        <ele>103.05</ele>
        <time>2018-08-19T10:22:37Z</time>
      </trkpt>
      <trkpt lat="48.76652" lon="2.14487">
        <ele>104.94</ele>
        <time>2018-08-19T10:22:49Z</time>
      </trkpt>
      <trkpt lat="48.76642" lon="2.14475">
        <ele>106.22</ele>
        <time>2018-08-19T10:23:09Z</time>
      </trkpt>
      <trkpt lat="48.76639" lon="2.14464">
        <ele>107.74</ele>
        <time>2018-08-19T10:23:23Z</time>
      </trkpt>
      <trkpt lat="48.76636" lon="2.1446">
        <ele>109.15</ele>
        <time>2018-08-19T10:23:29Z</time>
      </trkpt>
      <trkpt lat="48.76628" lon="2.1445">
        <ele>111.9</ele>
        <time>2018-08-19T10:23:49Z</time>
      </trkpt>
      <trkpt lat="48.76617" lon="2.14443">
        <ele>114.85</ele>
        <time>2018-08-19T10:24:08Z</time>
      </trkpt>
      <trkpt lat="48.76608" lon="2.14434">
        <ele>117.94</ele>
        <time>2018-08-19T10:24:29Z</time>
      </trkpt>
      <trkpt lat="48.76595" lon="2.14426">
        <ele>119.77</ele>
        <time>2018-08-19T10:24:48Z</time>
      </trkpt>
      <trkpt lat="48.76581" lon="2.14418">
        <ele>121.07</ele>
        <time>2018-08-19T10:25:11Z</time>
      </trkpt>
      <trkpt lat="48.76569" lon="2.14412">
        <ele>122.99</ele>
        <time>2018-08-19T10:25:31Z</time>
      </trkpt>
      <trkpt lat="48.76556" lon="2.1441">
        <ele>124.23</ele>
        <time>2018-08-19T10:25:52Z</time>
      </trkpt>
      <trkpt lat="48.76543" lon="2.14404">
        <ele>125.18</ele>
        <time>2018-08-19T10:26:11Z</time>
      </trkpt>
      <trkpt lat="48.76528" lon="2.14398">
        <ele>126.59</ele>
        <time>2018-08-19T10:26:32Z</time>
      </trkpt>
      <trkpt lat="48.76525" lon="2.14397">
        <ele>127.18</ele>
        <time>2018-08-19T10:26:34Z</time>
      </trkpt>
      <trkpt lat="48.76514" lon="2.14394">
        <ele>126.87</ele>
        <time>2018-08-19T10:26:46Z</time>
      </trkpt>
      <trkpt lat="48.76506" lon="2.14398">
        <ele>127.16</ele>
        <time>2018-08-19T10:26:57Z</time>
      </trkpt>
      <trkpt lat="48.76506" lon="2.14395">
        <ele>127.52</ele>
        <time>2018-08-19T10:27:24Z</time>
      </trkpt>
      <trkpt lat="48.76505" lon="2.14395">
        <ele>127.51</ele>
        <time>2018-08-19T10:27:48Z</time>
      </trkpt>
      <trkpt lat="48.76505" lon="2.14394">
        <ele>127.21</ele>
        <time>2018-08-19T10:28:13Z</time>
      </trkpt>
      <trkpt lat="48.76504" lon="2.14396">
        <ele>128.05</ele>
        <time>2018-08-19T10:28:36Z</time>
      </trkpt>
      <trkpt lat="48.76503" lon="2.14395">
        <ele>127.39</ele>
        <time>2018-08-19T10:29:03Z</time>
      </trkpt>
      <trkpt lat="48.76505" lon="2.14396">
        <ele>127.98</ele>
        <time>2018-08-19T10:29:28Z</time>
      </trkpt>
      <trkpt lat="48.76505" lon="2.14396">
        <ele>127.8</ele>
        <time>2018-08-19T10:29:53Z</time>
      </trkpt>
      <trkpt lat="48.76503" lon="2.14395">
        <ele>128.07</ele>
        <time>2018-08-19T10:30:18Z</time>
      </trkpt>
      <trkpt lat="48.76503" lon="2.14397">
        <ele>127.63</ele>
        <time>2018-08-19T10:30:47Z</time>
      </trkpt>
      <trkpt lat="48.76495" lon="2.14406">
        <ele>128.25</ele>
        <time>2018-08-19T10:31:02Z</time>
      </trkpt>
      <trkpt lat="48.76492" lon="2.14407">
        <ele>128.6</ele>
        <time>2018-08-19T10:31:06Z</time>
      </trkpt>
      <trkpt lat="48.76474" lon="2.14409">
        <ele>129.73</ele>
        <time>2018-08-19T10:31:23Z</time>
      </trkpt>
      <trkpt lat="48.7646" lon="2.14408">
        <ele>130.01</ele>
        <time>2018-08-19T10:31:38Z</time>
      </trkpt>
      <trkpt lat="48.76455" lon="2.14407">
        <ele>130.4</ele>
        <time>2018-08-19T10:31:54Z</time>
      </trkpt>
      <trkpt lat="48.76453" lon="2.14392">
        <ele>130.73</ele>
        <time>2018-08-19T10:32:08Z</time>
      </trkpt>
      <trkpt lat="48.76452" lon="2.14378">
        <ele>131.59</ele>
        <time>2018-08-19T10:32:22Z</time>
      </trkpt>
      <trkpt lat="48.76449" lon="2.14364">
        <ele>131.3</ele>
        <time>2018-08-19T10:32:38Z</time>
      </trkpt>
      <trkpt lat="48.76449" lon="2.14348">
        <ele>131.9</ele>
        <time>2018-08-19T10:32:49Z</time>
      </trkpt>
      <trkpt lat="48.76447" lon="2.14324">
        <ele>132.45</ele>
        <time>2018-08-19T10:33:03Z</time>
      </trkpt>
      <trkpt lat="48.76446" lon="2.14308">
        <ele>132.13</ele>
        <time>2018-08-19T10:33:16Z</time>
      </trkpt>
      <trkpt lat="48.76446" lon="2.14292">
        <ele>132.46</ele>
        <time>2018-08-19T10:33:31Z</time>
      </trkpt>
      <trkpt lat="48.76444" lon="2.14272">
        <ele>133.25</ele>
        <time>2018-08-19T10:33:46Z</time>
      </trkpt>
      <trkpt lat="48.76443" lon="2.1424">
        <ele>133.14</ele>
        <time>2018-08-19T10:34:08Z</time>
      </trkpt>
      <trkpt lat="48.76444" lon="2.14212">
        <ele>134.34</ele>
        <time>2018-08-19T10:34:25Z</time>
      </trkpt>
      <trkpt lat="48.76442" lon="2.14198">
        <ele>133.44</ele>
        <time>2018-08-19T10:34:37Z</time>
      </trkpt>
      <trkpt lat="48.76446" lon="2.14173">
        <ele>133.56</ele>
        <time>2018-08-19T10:34:54Z</time>
      </trkpt>
      <trkpt lat="48.76444" lon="2.14147">
        <ele>133.86</ele>
        <time>2018-08-19T10:35:09Z</time>
      </trkpt>
      <trkpt lat="48.76441" lon="2.14139">
        <ele>133.52</ele>
        <time>2018-08-19T10:35:16Z</time>
      </trkpt>
      <trkpt lat="48.76438" lon="2.14118">
        <ele>133.54</ele>
        <time>2018-08-19T10:35:31Z</time>
      </trkpt>
      <trkpt lat="48.76435" lon="2.14087">
        <ele>132.95</ele>
        <time>2018-08-19T10:35:53Z</time>
      </trkpt>
      <trkpt lat="48.76436" lon="2.14068">
        <ele>133.74</ele>
        <time>2018-08-19T10:36:11Z</time>
      </trkpt>
      <trkpt lat="48.76442" lon="2.14049">
        <ele>132.78</ele>
        <time>2018-08-19T10:36:30Z</time>
      </trkpt>
      <trkpt lat="48.76453" lon="2.14044">
        <ele>132.49</ele>
        <time>2018-08-19T10:36:36Z</time>
      </trkpt>
      <trkpt lat="48.76456" lon="2.14055">
        <ele>132.41</ele>
        <time>2018-08-19T10:38:17Z</time>
      </trkpt>
      <trkpt lat="48.76457" lon="2.1406">
        <ele>132.77</ele>
        <time>2018-08-19T10:38:21Z</time>
      </trkpt>
      <trkpt lat="48.76463" lon="2.14066">
        <ele>135.92</ele>
        <time>2018-08-19T11:15:54Z</time>
      </trkpt>
      <trkpt lat="48.76468" lon="2.14066">
        <ele>136.04</ele>
        <time>2018-08-19T11:16:20Z</time>
      </trkpt>
      <trkpt lat="48.76469" lon="2.14068">
        <ele>135.91</ele>
        <time>2018-08-19T11:16:44Z</time>
      </trkpt>
      <trkpt lat="48.76468" lon="2.14064">
        <ele>135.35</ele>
        <time>2018-08-19T11:17:09Z</time>
      </trkpt>
      <trkpt lat="48.76463" lon="2.14061">
        <ele>136.57</ele>
        <time>2018-08-19T11:17:30Z</time>
      </trkpt>
      <trkpt lat="48.7646" lon="2.14056">
        <ele>136.43</ele>
        <time>2018-08-19T11:17:49Z</time>
      </trkpt>
      <trkpt lat="48.76456" lon="2.14045">
        <ele>136.94</ele>
        <time>2018-08-19T11:18:04Z</time>
      </trkpt>
      <trkpt lat="48.76451" lon="2.14037">
        <ele>136.02</ele>
        <time>2018-08-19T11:18:23Z</time>
      </trkpt>
      <trkpt lat="48.76438" lon="2.14034">
        <ele>136.62</ele>
        <time>2018-08-19T11:18:45Z</time>
      </trkpt>
      <trkpt lat="48.76422" lon="2.1403">
        <ele>137.29</ele>
        <time>2018-08-19T11:19:07Z</time>
      </trkpt>
      <trkpt lat="48.76412" lon="2.14024">
        <ele>137.12</ele>
        <time>2018-08-19T11:19:23Z</time>
      </trkpt>
      <trkpt lat="48.76393" lon="2.1402">
        <ele>137.52</ele>
        <time>2018-08-19T11:19:44Z</time>
      </trkpt>
      <trkpt lat="48.76388" lon="2.1402">
        <ele>138.02</ele>
        <time>2018-08-19T11:19:50Z</time>
      </trkpt>
      <trkpt lat="48.76374" lon="2.14019">
        <ele>137.93</ele>
        <time>2018-08-19T11:20:06Z</time>
      </trkpt>
      <trkpt lat="48.76355" lon="2.14006">
        <ele>138.52</ele>
        <time>2018-08-19T11:20:27Z</time>
      </trkpt>
      <trkpt lat="48.76342" lon="2.14001">
        <ele>138.87</ele>
        <time>2018-08-19T11:20:42Z</time>
      </trkpt>
      <trkpt lat="48.76332" lon="2.13999">
        <ele>138.71</ele>
        <time>2018-08-19T11:20:53Z</time>
      </trkpt>
      <trkpt lat="48.76321" lon="2.14001">
        <ele>139.16</ele>
        <time>2018-08-19T11:21:03Z</time>
      </trkpt>
      <trkpt lat="48.76315" lon="2.13999">
        <ele>138.21</ele>
        <time>2018-08-19T11:21:09Z</time>
      </trkpt>
      <trkpt lat="48.76299" lon="2.13996">
        <ele>139.66</ele>
        <time>2018-08-19T11:21:24Z</time>
      </trkpt>
      <trkpt lat="48.76284" lon="2.14">
        <ele>139.62</ele>
        <time>2018-08-19T11:21:39Z</time>
      </trkpt>
      <trkpt lat="48.76269" lon="2.13999">
        <ele>139.64</ele>
        <time>2018-08-19T11:21:55Z</time>
      </trkpt>
      <trkpt lat="48.76254" lon="2.13996">
        <ele>139.71</ele>
        <time>2018-08-19T11:22:08Z</time>
      </trkpt>
      <trkpt lat="48.76234" lon="2.13995">
        <ele>139.79</ele>
        <time>2018-08-19T11:22:27Z</time>
      </trkpt>
      <trkpt lat="48.76226" lon="2.13994">
        <ele>140.35</ele>
        <time>2018-08-19T11:22:38Z</time>
      </trkpt>
      <trkpt lat="48.76216" lon="2.13971">
        <ele>140.23</ele>
        <time>2018-08-19T11:22:53Z</time>
      </trkpt>
      <trkpt lat="48.76206" lon="2.13945">
        <ele>139.73</ele>
        <time>2018-08-19T11:23:12Z</time>
      </trkpt>
      <trkpt lat="48.76203" lon="2.1392">
        <ele>140.45</ele>
        <time>2018-08-19T11:23:28Z</time>
      </trkpt>
      <trkpt lat="48.76199" lon="2.13888">
        <ele>139.98</ele>
        <time>2018-08-19T11:23:48Z</time>
      </trkpt>
      <trkpt lat="48.76203" lon="2.13852">
        <ele>140.16</ele>
        <time>2018-08-19T11:24:11Z</time>
      </trkpt>
      <trkpt lat="48.76204" lon="2.13829">
        <ele>140.61</ele>
        <time>2018-08-19T11:24:29Z</time>
      </trkpt>
      <trkpt lat="48.76197" lon="2.13822">
        <ele>140.23</ele>
        <time>2018-08-19T11:24:46Z</time>
      </trkpt>
      <trkpt lat="48.76194" lon="2.1382">
        <ele>141.24</ele>
        <time>2018-08-19T11:24:50Z</time>
      </trkpt>
      <trkpt lat="48.76192" lon="2.13818">
        <ele>140.75</ele>
        <time>2018-08-19T11:24:52Z</time>
      </trkpt>
      <trkpt lat="48.76181" lon="2.13803">
        <ele>141.74</ele>
        <time>2018-08-19T11:25:06Z</time>
      </trkpt>
      <trkpt lat="48.7618" lon="2.13803">
        <ele>141.65</ele>
        <time>2018-08-19T11:25:07Z</time>
      </trkpt>
      <trkpt lat="48.76179" lon="2.13801">
        <ele>141.66</ele>
        <time>2018-08-19T11:25:09Z</time>
      </trkpt>
      <trkpt lat="48.76156" lon="2.13782">
        <ele>142.39</ele>
        <time>2018-08-19T11:25:32Z</time>
      </trkpt>
      <trkpt lat="48.76141" lon="2.13774">
        <ele>142.11</ele>
        <time>2018-08-19T11:25:50Z</time>
      </trkpt>
      <trkpt lat="48.76124" lon="2.1376">
        <ele>142.58</ele>
        <time>2018-08-19T11:26:08Z</time>
      </trkpt>
      <trkpt lat="48.76105" lon="2.13748">
        <ele>142.76</ele>
        <time>2018-08-19T11:26:25Z</time>
      </trkpt>
      <trkpt lat="48.76088" lon="2.13739">
        <ele>142.62</ele>
        <time>2018-08-19T11:26:40Z</time>
      </trkpt>
      <trkpt lat="48.76076" lon="2.13732">
        <ele>142.98</ele>
        <time>2018-08-19T11:26:52Z</time>
      </trkpt>
      <trkpt lat="48.76074" lon="2.1373">
        <ele>142.72</ele>
        <time>2018-08-19T11:26:54Z</time>
      </trkpt>
      <trkpt lat="48.76055" lon="2.13721">
        <ele>142.88</ele>
        <time>2018-08-19T11:27:12Z</time>
      </trkpt>
      <trkpt lat="48.76052" lon="2.1372">
        <ele>143.27</ele>
        <time>2018-08-19T11:27:15Z</time>
      </trkpt>
      <trkpt lat="48.76036" lon="2.13709">
        <ele>142.68</ele>
        <time>2018-08-19T11:27:32Z</time>
      </trkpt>
      <trkpt lat="48.76034" lon="2.13707">
        <ele>143.03</ele>
        <time>2018-08-19T11:27:34Z</time>
      </trkpt>
      <trkpt lat="48.76025" lon="2.13701">
        <ele>142.81</ele>
        <time>2018-08-19T11:27:43Z</time>
      </trkpt>
      <trkpt lat="48.76023" lon="2.137">
        <ele>143.31</ele>
        <time>2018-08-19T11:27:45Z</time>
      </trkpt>
      <trkpt lat="48.76011" lon="2.13691">
        <ele>143.28</ele>
        <time>2018-08-19T11:27:57Z</time>
      </trkpt>
      <trkpt lat="48.76009" lon="2.1369">
        <ele>143.28</ele>
        <time>2018-08-19T11:27:59Z</time>
      </trkpt>
      <trkpt lat="48.75996" lon="2.13678">
        <ele>143.37</ele>
        <time>2018-08-19T11:28:15Z</time>
      </trkpt>
      <trkpt lat="48.7598" lon="2.13667">
        <ele>143.58</ele>
        <time>2018-08-19T11:28:32Z</time>
      </trkpt>
      <trkpt lat="48.75963" lon="2.13666">
        <ele>143.62</ele>
        <time>2018-08-19T11:28:48Z</time>
      </trkpt>
      <trkpt lat="48.75945" lon="2.13657">
        <ele>143.33</ele>
        <time>2018-08-19T11:29:04Z</time>
      </trkpt>
      <trkpt lat="48.75926" lon="2.13651">
        <ele>143.23</ele>
        <time>2018-08-19T11:29:22Z</time>
      </trkpt>
      <trkpt lat="48.75913" lon="2.1365">
        <ele>143.01</ele>
        <time>2018-08-19T11:29:34Z</time>
      </trkpt>
      <trkpt lat="48.75895" lon="2.13646">
        <ele>143.14</ele>
        <time>2018-08-19T11:29:50Z</time>
      </trkpt>
      <trkpt lat="48.75877" lon="2.13641">
        <ele>142.84</ele>
        <time>2018-08-19T11:30:06Z</time>
      </trkpt>
      <trkpt lat="48.75859" lon="2.13633">
        <ele>143.27</ele>
        <time>2018-08-19T11:30:22Z</time>
      </trkpt>
      <trkpt lat="48.75843" lon="2.13626">
        <ele>141.99</ele>
        <time>2018-08-19T11:30:38Z</time>
      </trkpt>
      <trkpt lat="48.75826" lon="2.13613">
        <ele>141.76</ele>
        <time>2018-08-19T11:30:55Z</time>
      </trkpt>
      <trkpt lat="48.75809" lon="2.136">
        <ele>142.3</ele>
        <time>2018-08-19T11:31:12Z</time>
      </trkpt>
      <trkpt lat="48.75797" lon="2.13591">
        <ele>142.26</ele>
        <time>2018-08-19T11:31:25Z</time>
      </trkpt>
      <trkpt lat="48.75785" lon="2.13579">
        <ele>141.88</ele>
        <time>2018-08-19T11:31:39Z</time>
      </trkpt>
      <trkpt lat="48.75784" lon="2.13578">
        <ele>141.97</ele>
        <time>2018-08-19T11:31:40Z</time>
      </trkpt>
      <trkpt lat="48.75777" lon="2.13571">
        <ele>141.67</ele>
        <time>2018-08-19T11:31:47Z</time>
      </trkpt>
      <trkpt lat="48.75769" lon="2.13563">
        <ele>141.55</ele>
        <time>2018-08-19T11:31:55Z</time>
      </trkpt>
      <trkpt lat="48.75757" lon="2.13546">
        <ele>141.29</ele>
        <time>2018-08-19T11:32:12Z</time>
      </trkpt>
      <trkpt lat="48.75748" lon="2.13533">
        <ele>140.84</ele>
        <time>2018-08-19T11:32:25Z</time>
      </trkpt>
      <trkpt lat="48.75736" lon="2.13515">
        <ele>140.99</ele>
        <time>2018-08-19T11:32:41Z</time>
      </trkpt>
      <trkpt lat="48.75722" lon="2.13498">
        <ele>140.12</ele>
        <time>2018-08-19T11:32:57Z</time>
      </trkpt>
      <trkpt lat="48.75708" lon="2.13486">
        <ele>139.9</ele>
        <time>2018-08-19T11:33:16Z</time>
      </trkpt>
      <trkpt lat="48.75698" lon="2.1347">
        <ele>139.93</ele>
        <time>2018-08-19T11:33:28Z</time>
      </trkpt>
      <trkpt lat="48.7569" lon="2.13459">
        <ele>139.76</ele>
        <time>2018-08-19T11:33:36Z</time>
      </trkpt>
      <trkpt lat="48.75672" lon="2.13438">
        <ele>138.89</ele>
        <time>2018-08-19T11:33:53Z</time>
      </trkpt>
      <trkpt lat="48.75659" lon="2.13426">
        <ele>139.37</ele>
        <time>2018-08-19T11:34:09Z</time>
      </trkpt>
      <trkpt lat="48.75652" lon="2.13416">
        <ele>138.76</ele>
        <time>2018-08-19T11:34:29Z</time>
      </trkpt>
      <trkpt lat="48.7564" lon="2.134">
        <ele>138.67</ele>
        <time>2018-08-19T11:34:45Z</time>
      </trkpt>
      <trkpt lat="48.75637" lon="2.13396">
        <ele>138.26</ele>
        <time>2018-08-19T11:34:50Z</time>
      </trkpt>
      <trkpt lat="48.75632" lon="2.13388">
        <ele>138.13</ele>
        <time>2018-08-19T11:34:58Z</time>
      </trkpt>
      <trkpt lat="48.75613" lon="2.13366">
        <ele>138.02</ele>
        <time>2018-08-19T11:35:17Z</time>
      </trkpt>
      <trkpt lat="48.756" lon="2.13351">
        <ele>137.35</ele>
        <time>2018-08-19T11:35:34Z</time>
      </trkpt>
      <trkpt lat="48.75585" lon="2.13338">
        <ele>136.44</ele>
        <time>2018-08-19T11:35:50Z</time>
      </trkpt>
      <trkpt lat="48.75571" lon="2.13324">
        <ele>135.51</ele>
        <time>2018-08-19T11:36:05Z</time>
      </trkpt>
      <trkpt lat="48.75554" lon="2.13308">
        <ele>134.14</ele>
        <time>2018-08-19T11:36:23Z</time>
      </trkpt>
      <trkpt lat="48.75539" lon="2.13291">
        <ele>133.54</ele>
        <time>2018-08-19T11:36:39Z</time>
      </trkpt>
      <trkpt lat="48.75537" lon="2.13289">
        <ele>133.57</ele>
        <time>2018-08-19T11:36:41Z</time>
      </trkpt>
      <trkpt lat="48.75519" lon="2.13267">
        <ele>132.46</ele>
        <time>2018-08-19T11:37:01Z</time>
      </trkpt>
      <trkpt lat="48.75502" lon="2.13247">
        <ele>132.61</ele>
        <time>2018-08-19T11:37:21Z</time>
      </trkpt>
      <trkpt lat="48.75496" lon="2.13242">
        <ele>131.45</ele>
        <time>2018-08-19T11:37:35Z</time>
      </trkpt>
      <trkpt lat="48.75488" lon="2.1324">
        <ele>131.11</ele>
        <time>2018-08-19T11:37:52Z</time>
      </trkpt>
      <trkpt lat="48.75485" lon="2.13235">
        <ele>130.72</ele>
        <time>2018-08-19T11:38:09Z</time>
      </trkpt>
      <trkpt lat="48.75487" lon="2.13237">
        <ele>131.36</ele>
        <time>2018-08-19T11:38:25Z</time>
      </trkpt>
      <trkpt lat="48.75492" lon="2.13245">
        <ele>130.89</ele>
        <time>2018-08-19T11:38:41Z</time>
      </trkpt>
      <trkpt lat="48.75484" lon="2.13233">
        <ele>130.96</ele>
        <time>2018-08-19T11:38:58Z</time>
      </trkpt>
      <trkpt lat="48.75472" lon="2.13214">
        <ele>130.43</ele>
        <time>2018-08-19T11:39:16Z</time>
      </trkpt>
      <trkpt lat="48.75462" lon="2.13208">
        <ele>130.14</ele>
        <time>2018-08-19T11:39:31Z</time>
      </trkpt>
      <trkpt lat="48.75457" lon="2.13207">
        <ele>128.95</ele>
        <time>2018-08-19T11:39:52Z</time>
      </trkpt>
      <trkpt lat="48.75444" lon="2.13213">
        <ele>126.97</ele>
        <time>2018-08-19T11:40:12Z</time>
      </trkpt>
      <trkpt lat="48.75437" lon="2.13219">
        <ele>126.1</ele>
        <time>2018-08-19T11:40:30Z</time>
      </trkpt>
      <trkpt lat="48.75439" lon="2.13219">
        <ele>124.11</ele>
        <time>2018-08-19T11:40:57Z</time>
      </trkpt>
      <trkpt lat="48.75439" lon="2.13219">
        <ele>127.89</ele>
        <time>2018-08-19T11:40:59Z</time>
      </trkpt>
      <trkpt lat="48.75439" lon="2.13218">
        <ele>126.37</ele>
        <time>2018-08-19T11:41:00Z</time>
      </trkpt>
      <trkpt lat="48.75439" lon="2.13217">
        <ele>127.03</ele>
        <time>2018-08-19T11:41:25Z</time>
      </trkpt>
      <trkpt lat="48.75439" lon="2.13218">
        <ele>126.77</ele>
        <time>2018-08-19T11:41:28Z</time>
      </trkpt>
      <trkpt lat="48.75434" lon="2.13222">
        <ele>126.21</ele>
        <time>2018-08-19T11:41:49Z</time>
      </trkpt>
      <trkpt lat="48.75436" lon="2.13225">
        <ele>125.42</ele>
        <time>2018-08-19T11:42:23Z</time>
      </trkpt>
      <trkpt lat="48.75436" lon="2.13226">
        <ele>126.11</ele>
        <time>2018-08-19T11:42:51Z</time>
      </trkpt>
      <trkpt lat="48.75428" lon="2.13227">
        <ele>125.62</ele>
        <time>2018-08-19T11:43:20Z</time>
      </trkpt>
      <trkpt lat="48.75415" lon="2.13238">
        <ele>124.95</ele>
        <time>2018-08-19T11:43:39Z</time>
      </trkpt>
      <trkpt lat="48.75414" lon="2.13239">
        <ele>122.95</ele>
        <time>2018-08-19T11:43:41Z</time>
      </trkpt>
      <trkpt lat="48.7541" lon="2.13239">
        <ele>122.68</ele>
        <time>2018-08-19T11:43:44Z</time>
      </trkpt>
      <trkpt lat="48.754" lon="2.13221">
        <ele>122.69</ele>
        <time>2018-08-19T11:44:00Z</time>
      </trkpt>
      <trkpt lat="48.75394" lon="2.13208">
        <ele>122.05</ele>
        <time>2018-08-19T11:44:18Z</time>
      </trkpt>
      <trkpt lat="48.75393" lon="2.13197">
        <ele>121.86</ele>
        <time>2018-08-19T11:44:29Z</time>
      </trkpt>
      <trkpt lat="48.75387" lon="2.13188">
        <ele>121.19</ele>
        <time>2018-08-19T11:44:40Z</time>
      </trkpt>
      <trkpt lat="48.75373" lon="2.13162">
        <ele>120.73</ele>
        <time>2018-08-19T11:44:59Z</time>
      </trkpt>
      <trkpt lat="48.75369" lon="2.13155">
        <ele>120.62</ele>
        <time>2018-08-19T11:45:04Z</time>
      </trkpt>
      <trkpt lat="48.75358" lon="2.13131">
        <ele>119.24</ele>
        <time>2018-08-19T11:45:22Z</time>
      </trkpt>
      <trkpt lat="48.75345" lon="2.13111">
        <ele>118.24</ele>
        <time>2018-08-19T11:45:39Z</time>
      </trkpt>
      <trkpt lat="48.75334" lon="2.13093">
        <ele>117.38</ele>
        <time>2018-08-19T11:45:52Z</time>
      </trkpt>
      <trkpt lat="48.75322" lon="2.13079">
        <ele>116.45</ele>
        <time>2018-08-19T11:46:08Z</time>
      </trkpt>
      <trkpt lat="48.7531" lon="2.13071">
        <ele>115.96</ele>
        <time>2018-08-19T11:46:27Z</time>
      </trkpt>
      <trkpt lat="48.75309" lon="2.13078">
        <ele>115.14</ele>
        <time>2018-08-19T11:46:36Z</time>
      </trkpt>
      <trkpt lat="48.75311" lon="2.13092">
        <ele>114.38</ele>
        <time>2018-08-19T11:46:51Z</time>
      </trkpt>
      <trkpt lat="48.75312" lon="2.13096">
        <ele>114.53</ele>
        <time>2018-08-19T11:46:54Z</time>
      </trkpt>
      <trkpt lat="48.75315" lon="2.13109">
        <ele>113.96</ele>
        <time>2018-08-19T11:47:01Z</time>
      </trkpt>
      <trkpt lat="48.75316" lon="2.13115">
        <ele>113.82</ele>
        <time>2018-08-19T11:47:04Z</time>
      </trkpt>
      <trkpt lat="48.7532" lon="2.13137">
        <ele>113.07</ele>
        <time>2018-08-19T11:47:17Z</time>
      </trkpt>
      <trkpt lat="48.75322" lon="2.13143">
        <ele>112.69</ele>
        <time>2018-08-19T11:47:20Z</time>
      </trkpt>
      <trkpt lat="48.75326" lon="2.13152">
        <ele>112.34</ele>
        <time>2018-08-19T11:47:27Z</time>
      </trkpt>
      <trkpt lat="48.75332" lon="2.13171">
        <ele>112.01</ele>
        <time>2018-08-19T11:47:40Z</time>
      </trkpt>
      <trkpt lat="48.75334" lon="2.13176">
        <ele>112.24</ele>
        <time>2018-08-19T11:47:44Z</time>
      </trkpt>
      <trkpt lat="48.75345" lon="2.13198">
        <ele>111.51</ele>
        <time>2018-08-19T11:48:02Z</time>
      </trkpt>
      <trkpt lat="48.75351" lon="2.13227">
        <ele>111.82</ele>
        <time>2018-08-19T11:48:16Z</time>
      </trkpt>
      <trkpt lat="48.75353" lon="2.13234">
        <ele>111.08</ele>
        <time>2018-08-19T11:48:23Z</time>
      </trkpt>
      <trkpt lat="48.75355" lon="2.13237">
        <ele>111.37</ele>
        <time>2018-08-19T11:48:26Z</time>
      </trkpt>
      <trkpt lat="48.75358" lon="2.13245">
        <ele>110.85</ele>
        <time>2018-08-19T11:48:32Z</time>
      </trkpt>
      <trkpt lat="48.75358" lon="2.1325">
        <ele>110.89</ele>
        <time>2018-08-19T11:48:35Z</time>
      </trkpt>
      <trkpt lat="48.75364" lon="2.13265">
        <ele>110.01</ele>
        <time>2018-08-19T11:48:48Z</time>
      </trkpt>
      <trkpt lat="48.75377" lon="2.13287">
        <ele>109.31</ele>
        <time>2018-08-19T11:49:08Z</time>
      </trkpt>
      <trkpt lat="48.75381" lon="2.13311">
        <ele>108.5</ele>
        <time>2018-08-19T11:49:26Z</time>
      </trkpt>
      <trkpt lat="48.75387" lon="2.1334">
        <ele>107.72</ele>
        <time>2018-08-19T11:49:46Z</time>
      </trkpt>
      <trkpt lat="48.75388" lon="2.13359">
        <ele>107.51</ele>
        <time>2018-08-19T11:49:53Z</time>
      </trkpt>
      <trkpt lat="48.7539" lon="2.13389">
        <ele>106.71</ele>
        <time>2018-08-19T11:50:13Z</time>
      </trkpt>
      <trkpt lat="48.75394" lon="2.13418">
        <ele>106.61</ele>
        <time>2018-08-19T11:50:30Z</time>
      </trkpt>
      <trkpt lat="48.75394" lon="2.13438">
        <ele>106.52</ele>
        <time>2018-08-19T11:50:37Z</time>
      </trkpt>
      <trkpt lat="48.75394" lon="2.13478">
        <ele>105.78</ele>
        <time>2018-08-19T11:50:56Z</time>
      </trkpt>
      <trkpt lat="48.75394" lon="2.1348">
        <ele>105.78</ele>
        <time>2018-08-19T11:50:57Z</time>
      </trkpt>
      <trkpt lat="48.75396" lon="2.13508">
        <ele>104.87</ele>
        <time>2018-08-19T11:51:12Z</time>
      </trkpt>
      <trkpt lat="48.75398" lon="2.13533">
        <ele>104.4</ele>
        <time>2018-08-19T11:51:28Z</time>
      </trkpt>
      <trkpt lat="48.75399" lon="2.13551">
        <ele>103.54</ele>
        <time>2018-08-19T11:51:40Z</time>
      </trkpt>
      <trkpt lat="48.75401" lon="2.13562">
        <ele>103.49</ele>
        <time>2018-08-19T11:51:46Z</time>
      </trkpt>
      <trkpt lat="48.75401" lon="2.13575">
        <ele>103.84</ele>
        <time>2018-08-19T11:51:53Z</time>
      </trkpt>
      <trkpt lat="48.75383" lon="2.13586">
        <ele>103.66</ele>
        <time>2018-08-19T11:52:10Z</time>
      </trkpt>
      <trkpt lat="48.7537" lon="2.13592">
        <ele>105.01</ele>
        <time>2018-08-19T11:52:28Z</time>
      </trkpt>
      <trkpt lat="48.75369" lon="2.13609">
        <ele>104.86</ele>
        <time>2018-08-19T11:52:48Z</time>
      </trkpt>
      <trkpt lat="48.7537" lon="2.13633">
        <ele>104.37</ele>
        <time>2018-08-19T11:53:09Z</time>
      </trkpt>
      <trkpt lat="48.75379" lon="2.13667">
        <ele>103.82</ele>
        <time>2018-08-19T11:53:30Z</time>
      </trkpt>
      <trkpt lat="48.75384" lon="2.13691">
        <ele>103.78</ele>
        <time>2018-08-19T11:53:46Z</time>
      </trkpt>
      <trkpt lat="48.75386" lon="2.13703">
        <ele>103.4</ele>
        <time>2018-08-19T11:54:11Z</time>
      </trkpt>
      <trkpt lat="48.75387" lon="2.13706">
        <ele>103.24</ele>
        <time>2018-08-19T11:54:18Z</time>
      </trkpt>
      <trkpt lat="48.75395" lon="2.13712">
        <ele>102.87</ele>
        <time>2018-08-19T11:54:45Z</time>
      </trkpt>
      <trkpt lat="48.75396" lon="2.13745">
        <ele>102.42</ele>
        <time>2018-08-19T11:55:06Z</time>
      </trkpt>
      <trkpt lat="48.75398" lon="2.13766">
        <ele>102.32</ele>
        <time>2018-08-19T11:55:17Z</time>
      </trkpt>
      <trkpt lat="48.75409" lon="2.13786">
        <ele>102.18</ele>
        <time>2018-08-19T11:55:33Z</time>
      </trkpt>
      <trkpt lat="48.75412" lon="2.13792">
        <ele>102.87</ele>
        <time>2018-08-19T11:55:50Z</time>
      </trkpt>
      <trkpt lat="48.7541" lon="2.13806">
        <ele>101.2</ele>
        <time>2018-08-19T11:56:08Z</time>
      </trkpt>
      <trkpt lat="48.75416" lon="2.13828">
        <ele>100.64</ele>
        <time>2018-08-19T11:56:26Z</time>
      </trkpt>
      <trkpt lat="48.75416" lon="2.13857">
        <ele>100.21</ele>
        <time>2018-08-19T11:56:44Z</time>
      </trkpt>
      <trkpt lat="48.75412" lon="2.13896">
        <ele>100.22</ele>
        <time>2018-08-19T11:57:05Z</time>
      </trkpt>
      <trkpt lat="48.75411" lon="2.13904">
        <ele>99.81</ele>
        <time>2018-08-19T11:57:09Z</time>
      </trkpt>
      <trkpt lat="48.75412" lon="2.13923">
        <ele>100.27</ele>
        <time>2018-08-19T11:57:18Z</time>
      </trkpt>
      <trkpt lat="48.75424" lon="2.13932">
        <ele>100.18</ele>
        <time>2018-08-19T11:57:31Z</time>
      </trkpt>
      <trkpt lat="48.75435" lon="2.1393">
        <ele>100.31</ele>
        <time>2018-08-19T11:57:48Z</time>
      </trkpt>
      <trkpt lat="48.75444" lon="2.13929">
        <ele>99.78</ele>
        <time>2018-08-19T11:58:01Z</time>
      </trkpt>
      <trkpt lat="48.75447" lon="2.13926">
        <ele>99.82</ele>
        <time>2018-08-19T11:58:04Z</time>
      </trkpt>
      <trkpt lat="48.75466" lon="2.13916">
        <ele>99.76</ele>
        <time>2018-08-19T11:58:20Z</time>
      </trkpt>
      <trkpt lat="48.75474" lon="2.13916">
        <ele>99.66</ele>
        <time>2018-08-19T11:58:34Z</time>
      </trkpt>
      <trkpt lat="48.75474" lon="2.13917">
        <ele>98.14</ele>
        <time>2018-08-19T11:58:36Z</time>
      </trkpt>
      <trkpt lat="48.75473" lon="2.13923">
        <ele>99.09</ele>
        <time>2018-08-19T11:58:58Z</time>
      </trkpt>
      <trkpt lat="48.7547" lon="2.1394">
        <ele>97.55</ele>
        <time>2018-08-19T11:59:18Z</time>
      </trkpt>
      <trkpt lat="48.75473" lon="2.13971">
        <ele>98.38</ele>
        <time>2018-08-19T11:59:41Z</time>
      </trkpt>
      <trkpt lat="48.75475" lon="2.1398">
        <ele>98.64</ele>
        <time>2018-08-19T11:59:45Z</time>
      </trkpt>
      <trkpt lat="48.75479" lon="2.13993">
        <ele>98.53</ele>
        <time>2018-08-19T11:59:53Z</time>
      </trkpt>
      <trkpt lat="48.75486" lon="2.14001">
        <ele>99</ele>
        <time>2018-08-19T12:00:02Z</time>
      </trkpt>
      <trkpt lat="48.75505" lon="2.14016">
        <ele>98.9</ele>
        <time>2018-08-19T12:00:22Z</time>
      </trkpt>
      <trkpt lat="48.75506" lon="2.14015">
        <ele>98.09</ele>
        <time>2018-08-19T12:00:23Z</time>
      </trkpt>
      <trkpt lat="48.75511" lon="2.14023">
        <ele>98.77</ele>
        <time>2018-08-19T12:00:43Z</time>
      </trkpt>
      <trkpt lat="48.75515" lon="2.14025">
        <ele>98.62</ele>
        <time>2018-08-19T12:01:10Z</time>
      </trkpt>
      <trkpt lat="48.75512" lon="2.14034">
        <ele>97.84</ele>
        <time>2018-08-19T12:01:29Z</time>
      </trkpt>
      <trkpt lat="48.7551" lon="2.14033">
        <ele>97.79</ele>
        <time>2018-08-19T12:01:48Z</time>
      </trkpt>
      <trkpt lat="48.75519" lon="2.14038">
        <ele>98.01</ele>
        <time>2018-08-19T12:02:11Z</time>
      </trkpt>
      <trkpt lat="48.75523" lon="2.14045">
        <ele>98.36</ele>
        <time>2018-08-19T12:02:36Z</time>
      </trkpt>
      <trkpt lat="48.75525" lon="2.1406">
        <ele>97.82</ele>
        <time>2018-08-19T12:02:52Z</time>
      </trkpt>
      <trkpt lat="48.75514" lon="2.14089">
        <ele>97.89</ele>
        <time>2018-08-19T12:03:11Z</time>
      </trkpt>
      <trkpt lat="48.7551" lon="2.14094">
        <ele>97.85</ele>
        <time>2018-08-19T12:03:24Z</time>
      </trkpt>
      <trkpt lat="48.75508" lon="2.14093">
        <ele>98.02</ele>
        <time>2018-08-19T12:03:42Z</time>
      </trkpt>
      <trkpt lat="48.75508" lon="2.14091">
        <ele>97.71</ele>
        <time>2018-08-19T12:03:58Z</time>
      </trkpt>
      <trkpt lat="48.75505" lon="2.14093">
        <ele>97.65</ele>
        <time>2018-08-19T12:04:01Z</time>
      </trkpt>
      <trkpt lat="48.75501" lon="2.14101">
        <ele>97.89</ele>
        <time>2018-08-19T12:04:07Z</time>
      </trkpt>
      <trkpt lat="48.75487" lon="2.14118">
        <ele>97.73</ele>
        <time>2018-08-19T12:04:22Z</time>
      </trkpt>
      <trkpt lat="48.75484" lon="2.14127">
        <ele>98.2</ele>
        <time>2018-08-19T12:04:36Z</time>
      </trkpt>
      <trkpt lat="48.75485" lon="2.14126">
        <ele>98.19</ele>
        <time>2018-08-19T12:04:40Z</time>
      </trkpt>
      <trkpt lat="48.75497" lon="2.14115">
        <ele>98.04</ele>
        <time>2018-08-19T12:04:57Z</time>
      </trkpt>
      <trkpt lat="48.7551" lon="2.14104">
        <ele>97.85</ele>
        <time>2018-08-19T12:05:16Z</time>
      </trkpt>
      <trkpt lat="48.75526" lon="2.1409">
        <ele>97.92</ele>
        <time>2018-08-19T12:05:33Z</time>
      </trkpt>
      <trkpt lat="48.75538" lon="2.14076">
        <ele>98.13</ele>
        <time>2018-08-19T12:05:49Z</time>
      </trkpt>
      <trkpt lat="48.75554" lon="2.14066">
        <ele>98.99</ele>
        <time>2018-08-19T12:06:09Z</time>
      </trkpt>
      <trkpt lat="48.75565" lon="2.14063">
        <ele>99.35</ele>
        <time>2018-08-19T12:06:18Z</time>
      </trkpt>
      <trkpt lat="48.75575" lon="2.14063">
        <ele>100.35</ele>
        <time>2018-08-19T12:06:44Z</time>
      </trkpt>
      <trkpt lat="48.75595" lon="2.14067">
        <ele>102.29</ele>
        <time>2018-08-19T12:07:05Z</time>
      </trkpt>
      <trkpt lat="48.75606" lon="2.14071">
        <ele>102.48</ele>
        <time>2018-08-19T12:07:16Z</time>
      </trkpt>
      <trkpt lat="48.75613" lon="2.14076">
        <ele>102.58</ele>
        <time>2018-08-19T12:07:43Z</time>
      </trkpt>
      <trkpt lat="48.75614" lon="2.14083">
        <ele>102.17</ele>
        <time>2018-08-19T12:08:04Z</time>
      </trkpt>
      <trkpt lat="48.75616" lon="2.14074">
        <ele>102.47</ele>
        <time>2018-08-19T12:08:28Z</time>
      </trkpt>
      <trkpt lat="48.7562" lon="2.14073">
        <ele>102.53</ele>
        <time>2018-08-19T12:08:53Z</time>
      </trkpt>
      <trkpt lat="48.75635" lon="2.14086">
        <ele>104</ele>
        <time>2018-08-19T12:09:09Z</time>
      </trkpt>
      <trkpt lat="48.75657" lon="2.14095">
        <ele>105.68</ele>
        <time>2018-08-19T12:09:28Z</time>
      </trkpt>
      <trkpt lat="48.7568" lon="2.14113">
        <ele>107.15</ele>
        <time>2018-08-19T12:09:50Z</time>
      </trkpt>
      <trkpt lat="48.75695" lon="2.14125">
        <ele>108.58</ele>
        <time>2018-08-19T12:10:06Z</time>
      </trkpt>
      <trkpt lat="48.75715" lon="2.14143">
        <ele>109.8</ele>
        <time>2018-08-19T12:10:25Z</time>
      </trkpt>
      <trkpt lat="48.75734" lon="2.14163">
        <ele>109.81</ele>
        <time>2018-08-19T12:10:47Z</time>
      </trkpt>
      <trkpt lat="48.75753" lon="2.14186">
        <ele>110.89</ele>
        <time>2018-08-19T12:11:06Z</time>
      </trkpt>
      <trkpt lat="48.75761" lon="2.14206">
        <ele>111.99</ele>
        <time>2018-08-19T12:11:18Z</time>
      </trkpt>
      <trkpt lat="48.75763" lon="2.14211">
        <ele>111.94</ele>
        <time>2018-08-19T12:11:21Z</time>
      </trkpt>
      <trkpt lat="48.75771" lon="2.14234">
        <ele>113.5</ele>
        <time>2018-08-19T12:11:36Z</time>
      </trkpt>
      <trkpt lat="48.75783" lon="2.14257">
        <ele>114.88</ele>
        <time>2018-08-19T12:11:51Z</time>
      </trkpt>
      <trkpt lat="48.7579" lon="2.14273">
        <ele>116.32</ele>
        <time>2018-08-19T12:12:03Z</time>
      </trkpt>
      <trkpt lat="48.75791" lon="2.1428">
        <ele>116.59</ele>
        <time>2018-08-19T12:12:07Z</time>
      </trkpt>
      <trkpt lat="48.75798" lon="2.14302">
        <ele>116.59</ele>
        <time>2018-08-19T12:12:19Z</time>
      </trkpt>
      <trkpt lat="48.75809" lon="2.14319">
        <ele>114.49</ele>
        <time>2018-08-19T12:12:38Z</time>
      </trkpt>
      <trkpt lat="48.75819" lon="2.1434">
        <ele>113.28</ele>
        <time>2018-08-19T12:13:00Z</time>
      </trkpt>
      <trkpt lat="48.75821" lon="2.14375">
        <ele>112.1</ele>
        <time>2018-08-19T12:13:20Z</time>
      </trkpt>
      <trkpt lat="48.75824" lon="2.14379">
        <ele>111.85</ele>
        <time>2018-08-19T12:13:25Z</time>
      </trkpt>
      <trkpt lat="48.75824" lon="2.1439">
        <ele>111.9</ele>
        <time>2018-08-19T12:13:53Z</time>
      </trkpt>
      <trkpt lat="48.75825" lon="2.14402">
        <ele>111.27</ele>
        <time>2018-08-19T12:14:19Z</time>
      </trkpt>
      <trkpt lat="48.75824" lon="2.14404">
        <ele>110.92</ele>
        <time>2018-08-19T12:14:21Z</time>
      </trkpt>
      <trkpt lat="48.75826" lon="2.14428">
        <ele>109.6</ele>
        <time>2018-08-19T12:14:42Z</time>
      </trkpt>
      <trkpt lat="48.75827" lon="2.14456">
        <ele>107.21</ele>
        <time>2018-08-19T12:15:01Z</time>
      </trkpt>
      <trkpt lat="48.75827" lon="2.14463">
        <ele>107.1</ele>
        <time>2018-08-19T12:15:08Z</time>
      </trkpt>
      <trkpt lat="48.75835" lon="2.145">
        <ele>105.39</ele>
        <time>2018-08-19T12:15:31Z</time>
      </trkpt>
      <trkpt lat="48.75841" lon="2.14539">
        <ele>103.2</ele>
        <time>2018-08-19T12:15:56Z</time>
      </trkpt>
      <trkpt lat="48.75839" lon="2.14572">
        <ele>101.93</ele>
        <time>2018-08-19T12:16:16Z</time>
      </trkpt>
      <trkpt lat="48.75829" lon="2.14607">
        <ele>99.81</ele>
        <time>2018-08-19T12:16:38Z</time>
      </trkpt>
      <trkpt lat="48.75826" lon="2.14633">
        <ele>98.18</ele>
        <time>2018-08-19T12:16:58Z</time>
      </trkpt>
      <trkpt lat="48.75827" lon="2.14661">
        <ele>96.99</ele>
        <time>2018-08-19T12:17:15Z</time>
      </trkpt>
      <trkpt lat="48.75824" lon="2.14701">
        <ele>95.24</ele>
        <time>2018-08-19T12:17:37Z</time>
      </trkpt>
      <trkpt lat="48.75821" lon="2.14731">
        <ele>93.13</ele>
        <time>2018-08-19T12:17:54Z</time>
      </trkpt>
      <trkpt lat="48.75812" lon="2.14762">
        <ele>91.31</ele>
        <time>2018-08-19T12:18:16Z</time>
      </trkpt>
      <trkpt lat="48.75798" lon="2.14789">
        <ele>89.95</ele>
        <time>2018-08-19T12:18:38Z</time>
      </trkpt>
      <trkpt lat="48.75794" lon="2.14803">
        <ele>89.56</ele>
        <time>2018-08-19T12:18:45Z</time>
      </trkpt>
      <trkpt lat="48.75794" lon="2.14824">
        <ele>90.1</ele>
        <time>2018-08-19T12:18:56Z</time>
      </trkpt>
      <trkpt lat="48.75793" lon="2.14832">
        <ele>89.74</ele>
        <time>2018-08-19T12:19:03Z</time>
      </trkpt>
      <trkpt lat="48.75801" lon="2.14865">
        <ele>89.71</ele>
        <time>2018-08-19T12:19:26Z</time>
      </trkpt>
      <trkpt lat="48.75802" lon="2.149">
        <ele>89.52</ele>
        <time>2018-08-19T12:19:46Z</time>
      </trkpt>
      <trkpt lat="48.75808" lon="2.14925">
        <ele>89.15</ele>
        <time>2018-08-19T12:20:06Z</time>
      </trkpt>
      <trkpt lat="48.75809" lon="2.14954">
        <ele>89.33</ele>
        <time>2018-08-19T12:20:23Z</time>
      </trkpt>
      <trkpt lat="48.75811" lon="2.14994">
        <ele>89.94</ele>
        <time>2018-08-19T12:20:45Z</time>
      </trkpt>
      <trkpt lat="48.75802" lon="2.15018">
        <ele>87.93</ele>
        <time>2018-08-19T12:21:05Z</time>
      </trkpt>
      <trkpt lat="48.75793" lon="2.15024">
        <ele>88.3</ele>
        <time>2018-08-19T12:21:26Z</time>
      </trkpt>
      <trkpt lat="48.75798" lon="2.15028">
        <ele>88.03</ele>
        <time>2018-08-19T12:21:47Z</time>
      </trkpt>
      <trkpt lat="48.75808" lon="2.15045">
        <ele>88.35</ele>
        <time>2018-08-19T12:22:07Z</time>
      </trkpt>
      <trkpt lat="48.75817" lon="2.1508">
        <ele>88.7</ele>
        <time>2018-08-19T12:22:27Z</time>
      </trkpt>
      <trkpt lat="48.75832" lon="2.15108">
        <ele>89.44</ele>
        <time>2018-08-19T12:22:49Z</time>
      </trkpt>
      <trkpt lat="48.7584" lon="2.15117">
        <ele>89.38</ele>
        <time>2018-08-19T12:22:57Z</time>
      </trkpt>
      <trkpt lat="48.75844" lon="2.15149">
        <ele>88.2</ele>
        <time>2018-08-19T12:23:16Z</time>
      </trkpt>
      <trkpt lat="48.75848" lon="2.15161">
        <ele>86.47</ele>
        <time>2018-08-19T12:23:33Z</time>
      </trkpt>
      <trkpt lat="48.75856" lon="2.15176">
        <ele>87.09</ele>
        <time>2018-08-19T12:23:51Z</time>
      </trkpt>
      <trkpt lat="48.75866" lon="2.15197">
        <ele>88.18</ele>
        <time>2018-08-19T12:24:09Z</time>
      </trkpt>
      <trkpt lat="48.75874" lon="2.15208">
        <ele>89.75</ele>
        <time>2018-08-19T12:24:22Z</time>
      </trkpt>
      <trkpt lat="48.75887" lon="2.15221">
        <ele>91.35</ele>
        <time>2018-08-19T12:24:39Z</time>
      </trkpt>
      <trkpt lat="48.75898" lon="2.15232">
        <ele>93.14</ele>
        <time>2018-08-19T12:24:55Z</time>
      </trkpt>
      <trkpt lat="48.75914" lon="2.15246">
        <ele>94.45</ele>
        <time>2018-08-19T12:25:15Z</time>
      </trkpt>
      <trkpt lat="48.75923" lon="2.1525">
        <ele>95.03</ele>
        <time>2018-08-19T12:25:26Z</time>
      </trkpt>
      <trkpt lat="48.75947" lon="2.15258">
        <ele>97.53</ele>
        <time>2018-08-19T12:25:50Z</time>
      </trkpt>
      <trkpt lat="48.7596" lon="2.15266">
        <ele>99.15</ele>
        <time>2018-08-19T12:26:10Z</time>
      </trkpt>
      <trkpt lat="48.75969" lon="2.15266">
        <ele>100.71</ele>
        <time>2018-08-19T12:26:28Z</time>
      </trkpt>
      <trkpt lat="48.75984" lon="2.15282">
        <ele>103.32</ele>
        <time>2018-08-19T12:26:51Z</time>
      </trkpt>
      <trkpt lat="48.76002" lon="2.15297">
        <ele>105.3</ele>
        <time>2018-08-19T12:27:11Z</time>
      </trkpt>
      <trkpt lat="48.76012" lon="2.15305">
        <ele>107.58</ele>
        <time>2018-08-19T12:27:30Z</time>
      </trkpt>
      <trkpt lat="48.76019" lon="2.15311">
        <ele>108.93</ele>
        <time>2018-08-19T12:27:44Z</time>
      </trkpt>
      <trkpt lat="48.7603" lon="2.1532">
        <ele>110.66</ele>
        <time>2018-08-19T12:27:58Z</time>
      </trkpt>
      <trkpt lat="48.76044" lon="2.15329">
        <ele>113.76</ele>
        <time>2018-08-19T12:28:20Z</time>
      </trkpt>
      <trkpt lat="48.76059" lon="2.15335">
        <ele>115.04</ele>
        <time>2018-08-19T12:28:41Z</time>
      </trkpt>
      <trkpt lat="48.76072" lon="2.15338">
        <ele>115.92</ele>
        <time>2018-08-19T12:28:53Z</time>
      </trkpt>
      <trkpt lat="48.76074" lon="2.15338">
        <ele>115.67</ele>
        <time>2018-08-19T12:28:55Z</time>
      </trkpt>
      <trkpt lat="48.76083" lon="2.15342">
        <ele>116.86</ele>
        <time>2018-08-19T12:29:06Z</time>
      </trkpt>
      <trkpt lat="48.76102" lon="2.15343">
        <ele>118.91</ele>
        <time>2018-08-19T12:29:28Z</time>
      </trkpt>
      <trkpt lat="48.76119" lon="2.15343">
        <ele>119.17</ele>
        <time>2018-08-19T12:29:44Z</time>
      </trkpt>
      <trkpt lat="48.76134" lon="2.15343">
        <ele>120.77</ele>
        <time>2018-08-19T12:30:02Z</time>
      </trkpt>
      <trkpt lat="48.76154" lon="2.15345">
        <ele>121.93</ele>
        <time>2018-08-19T12:30:19Z</time>
      </trkpt>
      <trkpt lat="48.76172" lon="2.15343">
        <ele>123.31</ele>
        <time>2018-08-19T12:30:40Z</time>
      </trkpt>
      <trkpt lat="48.76187" lon="2.15342">
        <ele>123.37</ele>
        <time>2018-08-19T12:30:54Z</time>
      </trkpt>
      <trkpt lat="48.76197" lon="2.15345">
        <ele>123.32</ele>
        <time>2018-08-19T12:31:03Z</time>
      </trkpt>
      <trkpt lat="48.76214" lon="2.15348">
        <ele>123.49</ele>
        <time>2018-08-19T12:31:20Z</time>
      </trkpt>
      <trkpt lat="48.76234" lon="2.15353">
        <ele>123.42</ele>
        <time>2018-08-19T12:31:41Z</time>
      </trkpt>
      <trkpt lat="48.76248" lon="2.15358">
        <ele>123.39</ele>
        <time>2018-08-19T12:31:56Z</time>
      </trkpt>
      <trkpt lat="48.7626" lon="2.1536">
        <ele>123.38</ele>
        <time>2018-08-19T12:32:08Z</time>
      </trkpt>
      <trkpt lat="48.76265" lon="2.15362">
        <ele>123.01</ele>
        <time>2018-08-19T12:32:12Z</time>
      </trkpt>
      <trkpt lat="48.76273" lon="2.15362">
        <ele>123.2</ele>
        <time>2018-08-19T12:32:20Z</time>
      </trkpt>
      <trkpt lat="48.76286" lon="2.15365">
        <ele>123.16</ele>
        <time>2018-08-19T12:32:32Z</time>
      </trkpt>
      <trkpt lat="48.76299" lon="2.15368">
        <ele>122.17</ele>
        <time>2018-08-19T12:32:46Z</time>
      </trkpt>
      <trkpt lat="48.76305" lon="2.15368">
        <ele>121.85</ele>
        <time>2018-08-19T12:32:52Z</time>
      </trkpt>
      <trkpt lat="48.76317" lon="2.15371">
        <ele>121.01</ele>
        <time>2018-08-19T12:33:05Z</time>
      </trkpt>
      <trkpt lat="48.76333" lon="2.15384">
        <ele>119.99</ele>
        <time>2018-08-19T12:33:21Z</time>
      </trkpt>
      <trkpt lat="48.76336" lon="2.15394">
        <ele>119.75</ele>
        <time>2018-08-19T12:33:35Z</time>
      </trkpt>
      <trkpt lat="48.76336" lon="2.15402">
        <ele>119.29</ele>
        <time>2018-08-19T12:33:57Z</time>
      </trkpt>
      <trkpt lat="48.76335" lon="2.15403">
        <ele>119.3</ele>
        <time>2018-08-19T12:34:25Z</time>
      </trkpt>
      <trkpt lat="48.76339" lon="2.15405">
        <ele>119.03</ele>
        <time>2018-08-19T12:34:53Z</time>
      </trkpt>
      <trkpt lat="48.76336" lon="2.15402">
        <ele>119.76</ele>
        <time>2018-08-19T12:35:27Z</time>
      </trkpt>
      <trkpt lat="48.76337" lon="2.15403">
        <ele>120.16</ele>
        <time>2018-08-19T12:35:38Z</time>
      </trkpt>
      <trkpt lat="48.76331" lon="2.15422">
        <ele>118.5</ele>
        <time>2018-08-19T12:36:01Z</time>
      </trkpt>
      <trkpt lat="48.76326" lon="2.15444">
        <ele>117.59</ele>
        <time>2018-08-19T12:36:24Z</time>
      </trkpt>
      <trkpt lat="48.76325" lon="2.15445">
        <ele>117.54</ele>
        <time>2018-08-19T12:36:25Z</time>
      </trkpt>
      <trkpt lat="48.76323" lon="2.15479">
        <ele>115.12</ele>
        <time>2018-08-19T12:36:50Z</time>
      </trkpt>
      <trkpt lat="48.76321" lon="2.15488">
        <ele>114.23</ele>
        <time>2018-08-19T12:36:58Z</time>
      </trkpt>
      <trkpt lat="48.76324" lon="2.15523">
        <ele>112.15</ele>
        <time>2018-08-19T12:37:17Z</time>
      </trkpt>
      <trkpt lat="48.76334" lon="2.15549">
        <ele>109.02</ele>
        <time>2018-08-19T12:37:40Z</time>
      </trkpt>
      <trkpt lat="48.76342" lon="2.15574">
        <ele>106.55</ele>
        <time>2018-08-19T12:38:02Z</time>
      </trkpt>
      <trkpt lat="48.76349" lon="2.15607">
        <ele>104.52</ele>
        <time>2018-08-19T12:38:25Z</time>
      </trkpt>
      <trkpt lat="48.76357" lon="2.15647">
        <ele>101.5</ele>
        <time>2018-08-19T12:38:48Z</time>
      </trkpt>
      <trkpt lat="48.76362" lon="2.1567">
        <ele>99.29</ele>
        <time>2018-08-19T12:39:08Z</time>
      </trkpt>
      <trkpt lat="48.76364" lon="2.1569">
        <ele>97.48</ele>
        <time>2018-08-19T12:39:21Z</time>
      </trkpt>
      <trkpt lat="48.76365" lon="2.15727">
        <ele>93.95</ele>
        <time>2018-08-19T12:39:44Z</time>
      </trkpt>
      <trkpt lat="48.7637" lon="2.15762">
        <ele>91.09</ele>
        <time>2018-08-19T12:40:01Z</time>
      </trkpt>
      <trkpt lat="48.7637" lon="2.15784">
        <ele>87.97</ele>
        <time>2018-08-19T12:40:24Z</time>
      </trkpt>
      <trkpt lat="48.76372" lon="2.15814">
        <ele>84.87</ele>
        <time>2018-08-19T12:40:45Z</time>
      </trkpt>
      <trkpt lat="48.76372" lon="2.15844">
        <ele>83.51</ele>
        <time>2018-08-19T12:40:58Z</time>
      </trkpt>
      <trkpt lat="48.76372" lon="2.15849">
        <ele>83.9</ele>
        <time>2018-08-19T12:41:01Z</time>
      </trkpt>
      <trkpt lat="48.76377" lon="2.15855">
        <ele>83.69</ele>
        <time>2018-08-19T12:41:11Z</time>
      </trkpt>
      <trkpt lat="48.76378" lon="2.15856">
        <ele>84.49</ele>
        <time>2018-08-19T12:41:14Z</time>
      </trkpt>
      <trkpt lat="48.76384" lon="2.15866">
        <ele>83.95</ele>
        <time>2018-08-19T12:41:24Z</time>
      </trkpt>
      <trkpt lat="48.76383" lon="2.15884">
        <ele>82.75</ele>
        <time>2018-08-19T12:41:39Z</time>
      </trkpt>
      <trkpt lat="48.76378" lon="2.15906">
        <ele>81.83</ele>
        <time>2018-08-19T12:41:56Z</time>
      </trkpt>
      <trkpt lat="48.76378" lon="2.1594">
        <ele>80.94</ele>
        <time>2018-08-19T12:42:15Z</time>
      </trkpt>
      <trkpt lat="48.76376" lon="2.1597">
        <ele>79.84</ele>
        <time>2018-08-19T12:42:29Z</time>
      </trkpt>
      <trkpt lat="48.76375" lon="2.1599">
        <ele>79.07</ele>
        <time>2018-08-19T12:42:41Z</time>
      </trkpt>
      <trkpt lat="48.76375" lon="2.16015">
        <ele>78.26</ele>
        <time>2018-08-19T12:42:57Z</time>
      </trkpt>
      <trkpt lat="48.76376" lon="2.16018">
        <ele>78.48</ele>
        <time>2018-08-19T12:42:59Z</time>
      </trkpt>
      <trkpt lat="48.76388" lon="2.16037">
        <ele>77.93</ele>
        <time>2018-08-19T12:43:14Z</time>
      </trkpt>
      <trkpt lat="48.76393" lon="2.16048">
        <ele>77.95</ele>
        <time>2018-08-19T12:43:20Z</time>
      </trkpt>
      <trkpt lat="48.76397" lon="2.16056">
        <ele>76.21</ele>
        <time>2018-08-19T12:43:26Z</time>
      </trkpt>
      <trkpt lat="48.76411" lon="2.1608">
        <ele>74.72</ele>
        <time>2018-08-19T12:43:45Z</time>
      </trkpt>
      <trkpt lat="48.7642" lon="2.16092">
        <ele>73.61</ele>
        <time>2018-08-19T12:43:56Z</time>
      </trkpt>
      <trkpt lat="48.76432" lon="2.16108">
        <ele>72.5</ele>
        <time>2018-08-19T12:44:12Z</time>
      </trkpt>
      <trkpt lat="48.76435" lon="2.16108">
        <ele>71.83</ele>
        <time>2018-08-19T12:44:15Z</time>
      </trkpt>
      <trkpt lat="48.76445" lon="2.16116">
        <ele>72.32</ele>
        <time>2018-08-19T12:44:31Z</time>
      </trkpt>
      <trkpt lat="48.76448" lon="2.16121">
        <ele>72.07</ele>
        <time>2018-08-19T12:44:48Z</time>
      </trkpt>
      <trkpt lat="48.76451" lon="2.16144">
        <ele>71.99</ele>
        <time>2018-08-19T12:45:04Z</time>
      </trkpt>
      <trkpt lat="48.7644" lon="2.16159">
        <ele>72.97</ele>
        <time>2018-08-19T12:45:22Z</time>
      </trkpt>
      <trkpt lat="48.76432" lon="2.16176">
        <ele>72.07</ele>
        <time>2018-08-19T12:45:39Z</time>
      </trkpt>
      <trkpt lat="48.76427" lon="2.16202">
        <ele>72</ele>
        <time>2018-08-19T12:45:55Z</time>
      </trkpt>
      <trkpt lat="48.76425" lon="2.16233">
        <ele>71.85</ele>
        <time>2018-08-19T12:46:12Z</time>
      </trkpt>
      <trkpt lat="48.76424" lon="2.16257">
        <ele>71.17</ele>
        <time>2018-08-19T12:46:28Z</time>
      </trkpt>
      <trkpt lat="48.76425" lon="2.16276">
        <ele>71.35</ele>
        <time>2018-08-19T12:46:46Z</time>
      </trkpt>
      <trkpt lat="48.76428" lon="2.16302">
        <ele>71.55</ele>
        <time>2018-08-19T12:47:06Z</time>
      </trkpt>
      <trkpt lat="48.76421" lon="2.16333">
        <ele>72.11</ele>
        <time>2018-08-19T12:47:29Z</time>
      </trkpt>
      <trkpt lat="48.76423" lon="2.16369">
        <ele>71.38</ele>
        <time>2018-08-19T12:47:53Z</time>
      </trkpt>
      <trkpt lat="48.76421" lon="2.164">
        <ele>70.8</ele>
        <time>2018-08-19T12:48:13Z</time>
      </trkpt>
      <trkpt lat="48.76419" lon="2.16428">
        <ele>70.06</ele>
        <time>2018-08-19T12:48:33Z</time>
      </trkpt>
      <trkpt lat="48.76417" lon="2.16453">
        <ele>69.59</ele>
        <time>2018-08-19T12:48:55Z</time>
      </trkpt>
      <trkpt lat="48.76412" lon="2.16487">
        <ele>69.8</ele>
        <time>2018-08-19T12:49:14Z</time>
      </trkpt>
      <trkpt lat="48.76406" lon="2.16534">
        <ele>69.68</ele>
        <time>2018-08-19T12:49:33Z</time>
      </trkpt>
      <trkpt lat="48.76406" lon="2.16561">
        <ele>69.29</ele>
        <time>2018-08-19T12:49:51Z</time>
      </trkpt>
      <trkpt lat="48.76406" lon="2.16597">
        <ele>68.89</ele>
        <time>2018-08-19T12:50:10Z</time>
      </trkpt>
      <trkpt lat="48.76409" lon="2.16622">
        <ele>68.79</ele>
        <time>2018-08-19T12:50:27Z</time>
      </trkpt>
      <trkpt lat="48.76419" lon="2.16656">
        <ele>69.5</ele>
        <time>2018-08-19T12:50:47Z</time>
      </trkpt>
      <trkpt lat="48.76427" lon="2.16683">
        <ele>68.32</ele>
        <time>2018-08-19T12:51:06Z</time>
      </trkpt>
      <trkpt lat="48.76434" lon="2.16695">
        <ele>67.99</ele>
        <time>2018-08-19T12:51:17Z</time>
      </trkpt>
      <trkpt lat="48.76442" lon="2.16722">
        <ele>67.49</ele>
        <time>2018-08-19T12:51:34Z</time>
      </trkpt>
      <trkpt lat="48.76447" lon="2.16742">
        <ele>66.58</ele>
        <time>2018-08-19T12:51:48Z</time>
      </trkpt>
      <trkpt lat="48.76443" lon="2.16758">
        <ele>67.36</ele>
        <time>2018-08-19T12:52:06Z</time>
      </trkpt>
      <trkpt lat="48.76441" lon="2.1679">
        <ele>67.13</ele>
        <time>2018-08-19T12:52:22Z</time>
      </trkpt>
      <trkpt lat="48.76446" lon="2.16798">
        <ele>67.38</ele>
        <time>2018-08-19T12:52:32Z</time>
      </trkpt>
      <trkpt lat="48.76464" lon="2.16803">
        <ele>66.85</ele>
        <time>2018-08-19T12:52:48Z</time>
      </trkpt>
      <trkpt lat="48.76469" lon="2.16803">
        <ele>66.94</ele>
        <time>2018-08-19T12:52:54Z</time>
      </trkpt>
      <trkpt lat="48.76481" lon="2.16811">
        <ele>67.08</ele>
        <time>2018-08-19T12:53:11Z</time>
      </trkpt>
      <trkpt lat="48.76485" lon="2.16821">
        <ele>67.14</ele>
        <time>2018-08-19T12:53:25Z</time>
      </trkpt>
      <trkpt lat="48.76489" lon="2.16839">
        <ele>67.19</ele>
        <time>2018-08-19T12:53:43Z</time>
      </trkpt>
      <trkpt lat="48.7649" lon="2.16868">
        <ele>66.91</ele>
        <time>2018-08-19T12:54:02Z</time>
      </trkpt>
      <trkpt lat="48.7649" lon="2.16881">
        <ele>66.5</ele>
        <time>2018-08-19T12:54:11Z</time>
      </trkpt>
      <trkpt lat="48.76486" lon="2.16907">
        <ele>66.75</ele>
        <time>2018-08-19T12:54:25Z</time>
      </trkpt>
      <trkpt lat="48.76481" lon="2.16938">
        <ele>67.21</ele>
        <time>2018-08-19T12:54:40Z</time>
      </trkpt>
      <trkpt lat="48.76478" lon="2.16965">
        <ele>67.5</ele>
        <time>2018-08-19T12:54:59Z</time>
      </trkpt>
      <trkpt lat="48.76482" lon="2.16967">
        <ele>67.4</ele>
        <time>2018-08-19T12:55:18Z</time>
      </trkpt>
      <trkpt lat="48.76489" lon="2.16974">
        <ele>67.64</ele>
        <time>2018-08-19T12:55:32Z</time>
      </trkpt>
      <trkpt lat="48.76493" lon="2.16983">
        <ele>67.7</ele>
        <time>2018-08-19T12:55:46Z</time>
      </trkpt>
      <trkpt lat="48.76499" lon="2.16984">
        <ele>68.44</ele>
        <time>2018-08-19T12:56:04Z</time>
      </trkpt>
      <trkpt lat="48.76498" lon="2.16984">
        <ele>68.88</ele>
        <time>2018-08-19T12:56:31Z</time>
      </trkpt>
      <trkpt lat="48.76502" lon="2.16983">
        <ele>69.01</ele>
        <time>2018-08-19T12:56:54Z</time>
      </trkpt>
      <trkpt lat="48.76496" lon="2.16985">
        <ele>68.22</ele>
        <time>2018-08-19T12:57:17Z</time>
      </trkpt>
      <trkpt lat="48.76494" lon="2.16991">
        <ele>68.22</ele>
        <time>2018-08-19T12:57:32Z</time>
      </trkpt>
      <trkpt lat="48.76495" lon="2.16992">
        <ele>68.52</ele>
        <time>2018-08-19T12:57:54Z</time>
      </trkpt>
      <trkpt lat="48.76498" lon="2.16997">
        <ele>68.39</ele>
        <time>2018-08-19T12:58:00Z</time>
      </trkpt>
      <trkpt lat="48.76499" lon="2.17007">
        <ele>68.46</ele>
        <time>2018-08-19T12:58:13Z</time>
      </trkpt>
      <trkpt lat="48.76499" lon="2.17017">
        <ele>68.55</ele>
        <time>2018-08-19T12:58:29Z</time>
      </trkpt>
      <trkpt lat="48.765" lon="2.17037">
        <ele>67.83</ele>
        <time>2018-08-19T12:58:44Z</time>
      </trkpt>
      <trkpt lat="48.765" lon="2.1708">
        <ele>68.24</ele>
        <time>2018-08-19T12:59:07Z</time>
      </trkpt>
      <trkpt lat="48.76501" lon="2.17082">
        <ele>68.43</ele>
        <time>2018-08-19T12:59:08Z</time>
      </trkpt>
      <trkpt lat="48.76499" lon="2.17088">
        <ele>69.04</ele>
        <time>2018-08-19T12:59:12Z</time>
      </trkpt>
      <trkpt lat="48.76491" lon="2.17096">
        <ele>68.89</ele>
        <time>2018-08-19T12:59:21Z</time>
      </trkpt>
      <trkpt lat="48.76479" lon="2.17094">
        <ele>68.7</ele>
        <time>2018-08-19T12:59:34Z</time>
      </trkpt>
      <trkpt lat="48.76469" lon="2.17094">
        <ele>67.87</ele>
        <time>2018-08-19T12:59:44Z</time>
      </trkpt>
      <trkpt lat="48.76461" lon="2.17099">
        <ele>68.12</ele>
        <time>2018-08-19T12:59:57Z</time>
      </trkpt>
      <trkpt lat="48.76457" lon="2.1711">
        <ele>67.87</ele>
        <time>2018-08-19T13:00:10Z</time>
      </trkpt>
      <trkpt lat="48.76451" lon="2.17133">
        <ele>67.69</ele>
        <time>2018-08-19T13:00:32Z</time>
      </trkpt>
      <trkpt lat="48.76447" lon="2.17148">
        <ele>67.52</ele>
        <time>2018-08-19T13:00:38Z</time>
      </trkpt>
      <trkpt lat="48.76446" lon="2.17156">
        <ele>67.79</ele>
        <time>2018-08-19T13:00:58Z</time>
      </trkpt>
      <trkpt lat="48.76442" lon="2.17152">
        <ele>67.88</ele>
        <time>2018-08-19T13:01:23Z</time>
      </trkpt>
      <trkpt lat="48.76439" lon="2.17163">
        <ele>67.24</ele>
        <time>2018-08-19T13:01:42Z</time>
      </trkpt>
      <trkpt lat="48.76435" lon="2.17186">
        <ele>67.38</ele>
        <time>2018-08-19T13:02:05Z</time>
      </trkpt>
      <trkpt lat="48.76429" lon="2.1721">
        <ele>67.19</ele>
        <time>2018-08-19T13:02:27Z</time>
      </trkpt>
      <trkpt lat="48.76424" lon="2.1723">
        <ele>67.46</ele>
        <time>2018-08-19T13:02:40Z</time>
      </trkpt>
      <trkpt lat="48.76418" lon="2.1726">
        <ele>67.49</ele>
        <time>2018-08-19T13:02:56Z</time>
      </trkpt>
      <trkpt lat="48.7641" lon="2.17286">
        <ele>67.68</ele>
        <time>2018-08-19T13:03:10Z</time>
      </trkpt>
      <trkpt lat="48.76408" lon="2.17297">
        <ele>67.28</ele>
        <time>2018-08-19T13:03:16Z</time>
      </trkpt>
      <trkpt lat="48.76409" lon="2.173">
        <ele>66.71</ele>
        <time>2018-08-19T13:03:18Z</time>
      </trkpt>
      <trkpt lat="48.76406" lon="2.17328">
        <ele>66.73</ele>
        <time>2018-08-19T13:03:33Z</time>
      </trkpt>
      <trkpt lat="48.76403" lon="2.17365">
        <ele>67.03</ele>
        <time>2018-08-19T13:03:55Z</time>
      </trkpt>
      <trkpt lat="48.76393" lon="2.17396">
        <ele>66.27</ele>
        <time>2018-08-19T13:04:16Z</time>
      </trkpt>
      <trkpt lat="48.76384" lon="2.17433">
        <ele>66.78</ele>
        <time>2018-08-19T13:04:40Z</time>
      </trkpt>
      <trkpt lat="48.76379" lon="2.17453">
        <ele>66.64</ele>
        <time>2018-08-19T13:04:54Z</time>
      </trkpt>
      <trkpt lat="48.76372" lon="2.17476">
        <ele>66.04</ele>
        <time>2018-08-19T13:05:13Z</time>
      </trkpt>
      <trkpt lat="48.76368" lon="2.17486">
        <ele>66.79</ele>
        <time>2018-08-19T13:05:29Z</time>
      </trkpt>
      <trkpt lat="48.76369" lon="2.17493">
        <ele>66.78</ele>
        <time>2018-08-19T13:05:48Z</time>
      </trkpt>
      <trkpt lat="48.76363" lon="2.17511">
        <ele>67.19</ele>
        <time>2018-08-19T13:06:08Z</time>
      </trkpt>
      <trkpt lat="48.7636" lon="2.1753">
        <ele>68.47</ele>
        <time>2018-08-19T13:06:24Z</time>
      </trkpt>
      <trkpt lat="48.76355" lon="2.17563">
        <ele>68.29</ele>
        <time>2018-08-19T13:06:44Z</time>
      </trkpt>
      <trkpt lat="48.76346" lon="2.176">
        <ele>68.85</ele>
        <time>2018-08-19T13:07:05Z</time>
      </trkpt>
      <trkpt lat="48.76343" lon="2.17616">
        <ele>69.1</ele>
        <time>2018-08-19T13:07:14Z</time>
      </trkpt>
      <trkpt lat="48.76342" lon="2.17623">
        <ele>69.38</ele>
        <time>2018-08-19T13:07:18Z</time>
      </trkpt>
      <trkpt lat="48.76336" lon="2.17654">
        <ele>69.2</ele>
        <time>2018-08-19T13:07:37Z</time>
      </trkpt>
      <trkpt lat="48.7633" lon="2.17677">
        <ele>68.5</ele>
        <time>2018-08-19T13:07:55Z</time>
      </trkpt>
      <trkpt lat="48.7632" lon="2.17725">
        <ele>68.18</ele>
        <time>2018-08-19T13:08:20Z</time>
      </trkpt>
      <trkpt lat="48.76319" lon="2.17727">
        <ele>68.01</ele>
        <time>2018-08-19T13:08:21Z</time>
      </trkpt>
      <trkpt lat="48.76316" lon="2.17751">
        <ele>67.9</ele>
        <time>2018-08-19T13:08:35Z</time>
      </trkpt>
      <trkpt lat="48.76312" lon="2.17786">
        <ele>67.47</ele>
        <time>2018-08-19T13:08:56Z</time>
      </trkpt>
      <trkpt lat="48.76309" lon="2.17816">
        <ele>67.23</ele>
        <time>2018-08-19T13:09:10Z</time>
      </trkpt>
      <trkpt lat="48.76305" lon="2.17836">
        <ele>67.11</ele>
        <time>2018-08-19T13:09:27Z</time>
      </trkpt>
      <trkpt lat="48.763" lon="2.17866">
        <ele>66.62</ele>
        <time>2018-08-19T13:09:50Z</time>
      </trkpt>
      <trkpt lat="48.76295" lon="2.17899">
        <ele>67.7</ele>
        <time>2018-08-19T13:10:11Z</time>
      </trkpt>
      <trkpt lat="48.76289" lon="2.17933">
        <ele>67.12</ele>
        <time>2018-08-19T13:10:31Z</time>
      </trkpt>
      <trkpt lat="48.76282" lon="2.1797">
        <ele>67.35</ele>
        <time>2018-08-19T13:10:52Z</time>
      </trkpt>
      <trkpt lat="48.76277" lon="2.17987">
        <ele>68.14</ele>
        <time>2018-08-19T13:11:03Z</time>
      </trkpt>
      <trkpt lat="48.7627" lon="2.18019">
        <ele>68.5</ele>
        <time>2018-08-19T13:11:20Z</time>
      </trkpt>
      <trkpt lat="48.76266" lon="2.18045">
        <ele>68.45</ele>
        <time>2018-08-19T13:11:35Z</time>
      </trkpt>
      <trkpt lat="48.76265" lon="2.1805">
        <ele>68.18</ele>
        <time>2018-08-19T13:11:38Z</time>
      </trkpt>
      <trkpt lat="48.76262" lon="2.18056">
        <ele>68.97</ele>
        <time>2018-08-19T13:11:58Z</time>
      </trkpt>
      <trkpt lat="48.76261" lon="2.18054">
        <ele>68.9</ele>
        <time>2018-08-19T13:12:22Z</time>
      </trkpt>
      <trkpt lat="48.76261" lon="2.18057">
        <ele>68.63</ele>
        <time>2018-08-19T13:12:54Z</time>
      </trkpt>
      <trkpt lat="48.76261" lon="2.18057">
        <ele>68.7</ele>
        <time>2018-08-19T13:13:25Z</time>
      </trkpt>
      <trkpt lat="48.76262" lon="2.18058">
        <ele>69.15</ele>
        <time>2018-08-19T13:13:50Z</time>
      </trkpt>
      <trkpt lat="48.76261" lon="2.18062">
        <ele>69.06</ele>
        <time>2018-08-19T13:14:08Z</time>
      </trkpt>
      <trkpt lat="48.7626" lon="2.18079">
        <ele>69.52</ele>
        <time>2018-08-19T13:14:27Z</time>
      </trkpt>
      <trkpt lat="48.76255" lon="2.18103">
        <ele>69.6</ele>
        <time>2018-08-19T13:14:47Z</time>
      </trkpt>
      <trkpt lat="48.76254" lon="2.18113">
        <ele>69.91</ele>
        <time>2018-08-19T13:14:54Z</time>
      </trkpt>
      <trkpt lat="48.76252" lon="2.1812">
        <ele>69.83</ele>
        <time>2018-08-19T13:14:58Z</time>
      </trkpt>
      <trkpt lat="48.76247" lon="2.18141">
        <ele>69.65</ele>
        <time>2018-08-19T13:15:13Z</time>
      </trkpt>
      <trkpt lat="48.76241" lon="2.18162">
        <ele>69.76</ele>
        <time>2018-08-19T13:15:26Z</time>
      </trkpt>
      <trkpt lat="48.76237" lon="2.18192">
        <ele>69.62</ele>
        <time>2018-08-19T13:15:42Z</time>
      </trkpt>
      <trkpt lat="48.76231" lon="2.1822">
        <ele>69.53</ele>
        <time>2018-08-19T13:15:58Z</time>
      </trkpt>
      <trkpt lat="48.76227" lon="2.18235">
        <ele>69.78</ele>
        <time>2018-08-19T13:16:08Z</time>
      </trkpt>
      <trkpt lat="48.76221" lon="2.18257">
        <ele>69.8</ele>
        <time>2018-08-19T13:16:23Z</time>
      </trkpt>
      <trkpt lat="48.76216" lon="2.18281">
        <ele>69.36</ele>
        <time>2018-08-19T13:16:39Z</time>
      </trkpt>
      <trkpt lat="48.76208" lon="2.1831">
        <ele>68.83</ele>
        <time>2018-08-19T13:16:59Z</time>
      </trkpt>
      <trkpt lat="48.76207" lon="2.18314">
        <ele>69.11</ele>
        <time>2018-08-19T13:17:01Z</time>
      </trkpt>
      <trkpt lat="48.76198" lon="2.18336">
        <ele>68.53</ele>
        <time>2018-08-19T13:17:17Z</time>
      </trkpt>
      <trkpt lat="48.76195" lon="2.18346">
        <ele>68.54</ele>
        <time>2018-08-19T13:17:23Z</time>
      </trkpt>
      <trkpt lat="48.76189" lon="2.18373">
        <ele>68.23</ele>
        <time>2018-08-19T13:17:39Z</time>
      </trkpt>
      <trkpt lat="48.76183" lon="2.18394">
        <ele>68.71</ele>
        <time>2018-08-19T13:17:53Z</time>
      </trkpt>
      <trkpt lat="48.76177" lon="2.18418">
        <ele>68.59</ele>
        <time>2018-08-19T13:18:08Z</time>
      </trkpt>
      <trkpt lat="48.76173" lon="2.18432">
        <ele>68.83</ele>
        <time>2018-08-19T13:18:19Z</time>
      </trkpt>
      <trkpt lat="48.7617" lon="2.18438">
        <ele>68.66</ele>
        <time>2018-08-19T13:18:23Z</time>
      </trkpt>
      <trkpt lat="48.76162" lon="2.18465">
        <ele>68.43</ele>
        <time>2018-08-19T13:18:42Z</time>
      </trkpt>
      <trkpt lat="48.76156" lon="2.18486">
        <ele>67.86</ele>
        <time>2018-08-19T13:18:57Z</time>
      </trkpt>
      <trkpt lat="48.76148" lon="2.18511">
        <ele>68.25</ele>
        <time>2018-08-19T13:19:12Z</time>
      </trkpt>
      <trkpt lat="48.76145" lon="2.18519">
        <ele>67.84</ele>
        <time>2018-08-19T13:19:20Z</time>
      </trkpt>
      <trkpt lat="48.76144" lon="2.18525">
        <ele>66.88</ele>
        <time>2018-08-19T13:19:24Z</time>
      </trkpt>
      <trkpt lat="48.76142" lon="2.18537">
        <ele>67.31</ele>
        <time>2018-08-19T13:19:31Z</time>
      </trkpt>
      <trkpt lat="48.76138" lon="2.18555">
        <ele>66.97</ele>
        <time>2018-08-19T13:19:45Z</time>
      </trkpt>
      <trkpt lat="48.76135" lon="2.18563">
        <ele>66.07</ele>
        <time>2018-08-19T13:19:56Z</time>
      </trkpt>
      <trkpt lat="48.76129" lon="2.18581">
        <ele>65.52</ele>
        <time>2018-08-19T13:20:12Z</time>
      </trkpt>
      <trkpt lat="48.7612" lon="2.18615">
        <ele>65.02</ele>
        <time>2018-08-19T13:20:36Z</time>
      </trkpt>
      <trkpt lat="48.76112" lon="2.18648">
        <ele>64.87</ele>
        <time>2018-08-19T13:20:58Z</time>
      </trkpt>
      <trkpt lat="48.76108" lon="2.18664">
        <ele>64.38</ele>
        <time>2018-08-19T13:21:07Z</time>
      </trkpt>
      <trkpt lat="48.761" lon="2.18692">
        <ele>64.28</ele>
        <time>2018-08-19T13:21:24Z</time>
      </trkpt>
      <trkpt lat="48.76092" lon="2.18712">
        <ele>64</ele>
        <time>2018-08-19T13:21:39Z</time>
      </trkpt>
      <trkpt lat="48.76085" lon="2.18734">
        <ele>64.49</ele>
        <time>2018-08-19T13:21:57Z</time>
      </trkpt>
      <trkpt lat="48.76074" lon="2.18763">
        <ele>64.21</ele>
        <time>2018-08-19T13:22:16Z</time>
      </trkpt>
      <trkpt lat="48.76069" lon="2.18778">
        <ele>64.08</ele>
        <time>2018-08-19T13:22:25Z</time>
      </trkpt>
      <trkpt lat="48.76061" lon="2.18804">
        <ele>64.11</ele>
        <time>2018-08-19T13:22:42Z</time>
      </trkpt>
      <trkpt lat="48.76054" lon="2.18827">
        <ele>64.19</ele>
        <time>2018-08-19T13:22:59Z</time>
      </trkpt>
      <trkpt lat="48.76047" lon="2.18851">
        <ele>63.85</ele>
        <time>2018-08-19T13:23:16Z</time>
      </trkpt>
      <trkpt lat="48.76041" lon="2.18874">
        <ele>62.38</ele>
        <time>2018-08-19T13:23:34Z</time>
      </trkpt>
      <trkpt lat="48.76032" lon="2.18896">
        <ele>63.04</ele>
        <time>2018-08-19T13:23:50Z</time>
      </trkpt>
      <trkpt lat="48.76021" lon="2.18928">
        <ele>63.66</ele>
        <time>2018-08-19T13:24:12Z</time>
      </trkpt>
      <trkpt lat="48.76014" lon="2.18957">
        <ele>63.8</ele>
        <time>2018-08-19T13:24:31Z</time>
      </trkpt>
      <trkpt lat="48.76008" lon="2.18974">
        <ele>63.53</ele>
        <time>2018-08-19T13:24:42Z</time>
      </trkpt>
      <trkpt lat="48.76001" lon="2.19">
        <ele>64.05</ele>
        <time>2018-08-19T13:24:59Z</time>
      </trkpt>
      <trkpt lat="48.75993" lon="2.19029">
        <ele>63.62</ele>
        <time>2018-08-19T13:25:18Z</time>
      </trkpt>
      <trkpt lat="48.75987" lon="2.19052">
        <ele>63.65</ele>
        <time>2018-08-19T13:25:34Z</time>
      </trkpt>
      <trkpt lat="48.75981" lon="2.19079">
        <ele>63.04</ele>
        <time>2018-08-19T13:25:53Z</time>
      </trkpt>
      <trkpt lat="48.75978" lon="2.19092">
        <ele>62.96</ele>
        <time>2018-08-19T13:26:13Z</time>
      </trkpt>
      <trkpt lat="48.75977" lon="2.19096">
        <ele>63.02</ele>
        <time>2018-08-19T13:26:42Z</time>
      </trkpt>
      <trkpt lat="48.75978" lon="2.19096">
        <ele>62.52</ele>
        <time>2018-08-19T13:27:06Z</time>
      </trkpt>
      <trkpt lat="48.75978" lon="2.19097">
        <ele>63.08</ele>
        <time>2018-08-19T13:27:30Z</time>
      </trkpt>
      <trkpt lat="48.7598" lon="2.19098">
        <ele>62.61</ele>
        <time>2018-08-19T13:27:56Z</time>
      </trkpt>
      <trkpt lat="48.7598" lon="2.19096">
        <ele>62.8</ele>
        <time>2018-08-19T13:28:17Z</time>
      </trkpt>
      <trkpt lat="48.75979" lon="2.19096">
        <ele>62.73</ele>
        <time>2018-08-19T13:28:41Z</time>
      </trkpt>
      <trkpt lat="48.75979" lon="2.19095">
        <ele>63.5</ele>
        <time>2018-08-19T13:29:09Z</time>
      </trkpt>
      <trkpt lat="48.75979" lon="2.19096">
        <ele>63.22</ele>
        <time>2018-08-19T13:29:41Z</time>
      </trkpt>
      <trkpt lat="48.75979" lon="2.19098">
        <ele>62.95</ele>
        <time>2018-08-19T13:30:07Z</time>
      </trkpt>
      <trkpt lat="48.75978" lon="2.19098">
        <ele>63.49</ele>
        <time>2018-08-19T13:30:30Z</time>
      </trkpt>
      <trkpt lat="48.75978" lon="2.19098">
        <ele>63.55</ele>
        <time>2018-08-19T13:30:57Z</time>
      </trkpt>
      <trkpt lat="48.75979" lon="2.19096">
        <ele>63.79</ele>
        <time>2018-08-19T13:31:24Z</time>
      </trkpt>
      <trkpt lat="48.7598" lon="2.19095">
        <ele>64.11</ele>
        <time>2018-08-19T13:31:49Z</time>
      </trkpt>
      <trkpt lat="48.75977" lon="2.19096">
        <ele>63.75</ele>
        <time>2018-08-19T13:32:12Z</time>
      </trkpt>
      <trkpt lat="48.75977" lon="2.19105">
        <ele>64.34</ele>
        <time>2018-08-19T13:32:31Z</time>
      </trkpt>
      <trkpt lat="48.75973" lon="2.19131">
        <ele>63.81</ele>
        <time>2018-08-19T13:32:47Z</time>
      </trkpt>
      <trkpt lat="48.75968" lon="2.19167">
        <ele>63.66</ele>
        <time>2018-08-19T13:33:08Z</time>
      </trkpt>
      <trkpt lat="48.75964" lon="2.19188">
        <ele>63.9</ele>
        <time>2018-08-19T13:33:23Z</time>
      </trkpt>
      <trkpt lat="48.75963" lon="2.19212">
        <ele>64.11</ele>
        <time>2018-08-19T13:33:44Z</time>
      </trkpt>
      <trkpt lat="48.75962" lon="2.19226">
        <ele>64.12</ele>
        <time>2018-08-19T13:33:52Z</time>
      </trkpt>
      <trkpt lat="48.75959" lon="2.19231">
        <ele>64.1</ele>
        <time>2018-08-19T13:33:55Z</time>
      </trkpt>
      <trkpt lat="48.75956" lon="2.19239">
        <ele>64.56</ele>
        <time>2018-08-19T13:33:59Z</time>
      </trkpt>
      <trkpt lat="48.7595" lon="2.19244">
        <ele>64.04</ele>
        <time>2018-08-19T13:34:04Z</time>
      </trkpt>
      <trkpt lat="48.75937" lon="2.19239">
        <ele>64.99</ele>
        <time>2018-08-19T13:34:20Z</time>
      </trkpt>
      <trkpt lat="48.75935" lon="2.19238">
        <ele>65.19</ele>
        <time>2018-08-19T13:34:41Z</time>
      </trkpt>
      <trkpt lat="48.75932" lon="2.1924">
        <ele>65.58</ele>
        <time>2018-08-19T13:35:01Z</time>
      </trkpt>
      <trkpt lat="48.75931" lon="2.19245">
        <ele>65.75</ele>
        <time>2018-08-19T13:35:05Z</time>
      </trkpt>
      <trkpt lat="48.75928" lon="2.19248">
        <ele>65.94</ele>
        <time>2018-08-19T13:35:08Z</time>
      </trkpt>
      <trkpt lat="48.75925" lon="2.19251">
        <ele>65.89</ele>
        <time>2018-08-19T13:35:11Z</time>
      </trkpt>
      <trkpt lat="48.75923" lon="2.19253">
        <ele>66.11</ele>
        <time>2018-08-19T13:35:13Z</time>
      </trkpt>
      <trkpt lat="48.7591" lon="2.19276">
        <ele>66.26</ele>
        <time>2018-08-19T13:35:30Z</time>
      </trkpt>
      <trkpt lat="48.75898" lon="2.19298">
        <ele>66.2</ele>
        <time>2018-08-19T13:35:46Z</time>
      </trkpt>
      <trkpt lat="48.75891" lon="2.19312">
        <ele>66.07</ele>
        <time>2018-08-19T13:35:56Z</time>
      </trkpt>
      <trkpt lat="48.75872" lon="2.19351">
        <ele>66.35</ele>
        <time>2018-08-19T13:36:22Z</time>
      </trkpt>
      <trkpt lat="48.75854" lon="2.19385">
        <ele>66.35</ele>
        <time>2018-08-19T13:36:45Z</time>
      </trkpt>
      <trkpt lat="48.75848" lon="2.19396">
        <ele>66.46</ele>
        <time>2018-08-19T13:36:56Z</time>
      </trkpt>
      <trkpt lat="48.75847" lon="2.194">
        <ele>66.06</ele>
        <time>2018-08-19T13:36:59Z</time>
      </trkpt>
      <trkpt lat="48.75841" lon="2.19409">
        <ele>66.57</ele>
        <time>2018-08-19T13:37:12Z</time>
      </trkpt>
      <trkpt lat="48.75837" lon="2.1942">
        <ele>65.98</ele>
        <time>2018-08-19T13:37:22Z</time>
      </trkpt>
      <trkpt lat="48.75826" lon="2.19436">
        <ele>65.91</ele>
        <time>2018-08-19T13:37:35Z</time>
      </trkpt>
      <trkpt lat="48.75814" lon="2.1946">
        <ele>65.93</ele>
        <time>2018-08-19T13:37:50Z</time>
      </trkpt>
      <trkpt lat="48.75801" lon="2.19483">
        <ele>65.87</ele>
        <time>2018-08-19T13:38:06Z</time>
      </trkpt>
      <trkpt lat="48.75788" lon="2.19508">
        <ele>66.05</ele>
        <time>2018-08-19T13:38:23Z</time>
      </trkpt>
      <trkpt lat="48.75769" lon="2.19539">
        <ele>66.31</ele>
        <time>2018-08-19T13:38:46Z</time>
      </trkpt>
      <trkpt lat="48.75757" lon="2.19561">
        <ele>66.27</ele>
        <time>2018-08-19T13:39:03Z</time>
      </trkpt>
      <trkpt lat="48.75751" lon="2.19568">
        <ele>66.01</ele>
        <time>2018-08-19T13:39:09Z</time>
      </trkpt>
      <trkpt lat="48.7575" lon="2.19572">
        <ele>66.12</ele>
        <time>2018-08-19T13:39:12Z</time>
      </trkpt>
      <trkpt lat="48.75747" lon="2.19578">
        <ele>66.44</ele>
        <time>2018-08-19T13:39:21Z</time>
      </trkpt>
      <trkpt lat="48.75745" lon="2.19582">
        <ele>65.74</ele>
        <time>2018-08-19T13:39:24Z</time>
      </trkpt>
      <trkpt lat="48.75731" lon="2.19605">
        <ele>66.53</ele>
        <time>2018-08-19T13:39:42Z</time>
      </trkpt>
      <trkpt lat="48.75721" lon="2.1962">
        <ele>66.42</ele>
        <time>2018-08-19T13:39:56Z</time>
      </trkpt>
      <trkpt lat="48.75708" lon="2.19644">
        <ele>66.73</ele>
        <time>2018-08-19T13:40:13Z</time>
      </trkpt>
      <trkpt lat="48.75693" lon="2.19671">
        <ele>66.67</ele>
        <time>2018-08-19T13:40:32Z</time>
      </trkpt>
      <trkpt lat="48.75681" lon="2.19691">
        <ele>66.76</ele>
        <time>2018-08-19T13:40:48Z</time>
      </trkpt>
      <trkpt lat="48.75662" lon="2.19726">
        <ele>65.85</ele>
        <time>2018-08-19T13:41:14Z</time>
      </trkpt>
      <trkpt lat="48.7565" lon="2.19747">
        <ele>66.3</ele>
        <time>2018-08-19T13:41:30Z</time>
      </trkpt>
      <trkpt lat="48.75635" lon="2.19779">
        <ele>66.15</ele>
        <time>2018-08-19T13:41:52Z</time>
      </trkpt>
      <trkpt lat="48.75622" lon="2.19807">
        <ele>66.14</ele>
        <time>2018-08-19T13:42:13Z</time>
      </trkpt>
      <trkpt lat="48.75608" lon="2.19838">
        <ele>65.2</ele>
        <time>2018-08-19T13:42:33Z</time>
      </trkpt>
      <trkpt lat="48.75592" lon="2.19874">
        <ele>64.8</ele>
        <time>2018-08-19T13:42:57Z</time>
      </trkpt>
      <trkpt lat="48.75579" lon="2.1991">
        <ele>64.09</ele>
        <time>2018-08-19T13:43:20Z</time>
      </trkpt>
      <trkpt lat="48.75565" lon="2.19947">
        <ele>64.9</ele>
        <time>2018-08-19T13:43:44Z</time>
      </trkpt>
      <trkpt lat="48.75556" lon="2.19977">
        <ele>64.65</ele>
        <time>2018-08-19T13:44:05Z</time>
      </trkpt>
      <trkpt lat="48.75551" lon="2.20004">
        <ele>64.72</ele>
        <time>2018-08-19T13:44:23Z</time>
      </trkpt>
      <trkpt lat="48.75547" lon="2.20031">
        <ele>64.12</ele>
        <time>2018-08-19T13:44:41Z</time>
      </trkpt>
      <trkpt lat="48.75547" lon="2.20061">
        <ele>62.96</ele>
        <time>2018-08-19T13:45:00Z</time>
      </trkpt>
      <trkpt lat="48.75541" lon="2.20088">
        <ele>62.81</ele>
        <time>2018-08-19T13:45:18Z</time>
      </trkpt>
      <trkpt lat="48.75541" lon="2.20104">
        <ele>62.38</ele>
        <time>2018-08-19T13:45:34Z</time>
      </trkpt>
      <trkpt lat="48.75536" lon="2.20124">
        <ele>61.91</ele>
        <time>2018-08-19T13:45:56Z</time>
      </trkpt>
      <trkpt lat="48.75533" lon="2.20137">
        <ele>61.75</ele>
        <time>2018-08-19T13:46:03Z</time>
      </trkpt>
      <trkpt lat="48.75532" lon="2.20142">
        <ele>62.21</ele>
        <time>2018-08-19T13:46:05Z</time>
      </trkpt>
      <trkpt lat="48.7552" lon="2.20165">
        <ele>61.94</ele>
        <time>2018-08-19T13:46:19Z</time>
      </trkpt>
      <trkpt lat="48.75518" lon="2.2017">
        <ele>61.82</ele>
        <time>2018-08-19T13:46:22Z</time>
      </trkpt>
      <trkpt lat="48.75517" lon="2.20174">
        <ele>61.96</ele>
        <time>2018-08-19T13:46:24Z</time>
      </trkpt>
      <trkpt lat="48.75515" lon="2.20177">
        <ele>61.76</ele>
        <time>2018-08-19T13:46:26Z</time>
      </trkpt>
      <trkpt lat="48.75508" lon="2.20204">
        <ele>62.19</ele>
        <time>2018-08-19T13:46:42Z</time>
      </trkpt>
      <trkpt lat="48.75506" lon="2.20213">
        <ele>61.59</ele>
        <time>2018-08-19T13:46:47Z</time>
      </trkpt>
      <trkpt lat="48.75504" lon="2.20233">
        <ele>62.02</ele>
        <time>2018-08-19T13:47:01Z</time>
      </trkpt>
      <trkpt lat="48.75504" lon="2.20266">
        <ele>61.49</ele>
        <time>2018-08-19T13:47:20Z</time>
      </trkpt>
      <trkpt lat="48.75503" lon="2.20293">
        <ele>61.66</ele>
        <time>2018-08-19T13:47:37Z</time>
      </trkpt>
      <trkpt lat="48.75501" lon="2.20321">
        <ele>61.68</ele>
        <time>2018-08-19T13:47:52Z</time>
      </trkpt>
      <trkpt lat="48.75499" lon="2.20334">
        <ele>61.49</ele>
        <time>2018-08-19T13:47:59Z</time>
      </trkpt>
      <trkpt lat="48.75496" lon="2.20357">
        <ele>61.21</ele>
        <time>2018-08-19T13:48:13Z</time>
      </trkpt>
      <trkpt lat="48.75493" lon="2.20391">
        <ele>60.89</ele>
        <time>2018-08-19T13:48:30Z</time>
      </trkpt>
      <trkpt lat="48.75489" lon="2.20412">
        <ele>60.36</ele>
        <time>2018-08-19T13:48:43Z</time>
      </trkpt>
      <trkpt lat="48.75488" lon="2.2042">
        <ele>60.66</ele>
        <time>2018-08-19T13:48:47Z</time>
      </trkpt>
      <trkpt lat="48.75482" lon="2.20444">
        <ele>60.86</ele>
        <time>2018-08-19T13:49:01Z</time>
      </trkpt>
      <trkpt lat="48.75478" lon="2.20477">
        <ele>61.36</ele>
        <time>2018-08-19T13:49:19Z</time>
      </trkpt>
      <trkpt lat="48.75475" lon="2.20516">
        <ele>61.26</ele>
        <time>2018-08-19T13:49:41Z</time>
      </trkpt>
      <trkpt lat="48.75474" lon="2.20527">
        <ele>61.16</ele>
        <time>2018-08-19T13:49:53Z</time>
      </trkpt>
      <trkpt lat="48.75475" lon="2.2053">
        <ele>61.44</ele>
        <time>2018-08-19T13:49:55Z</time>
      </trkpt>
      <trkpt lat="48.75475" lon="2.20538">
        <ele>61.37</ele>
        <time>2018-08-19T13:50:00Z</time>
      </trkpt>
      <trkpt lat="48.7547" lon="2.20566">
        <ele>60.58</ele>
        <time>2018-08-19T13:50:18Z</time>
      </trkpt>
      <trkpt lat="48.75466" lon="2.20589">
        <ele>59.99</ele>
        <time>2018-08-19T13:50:32Z</time>
      </trkpt>
      <trkpt lat="48.75463" lon="2.20614">
        <ele>60.78</ele>
        <time>2018-08-19T13:50:47Z</time>
      </trkpt>
      <trkpt lat="48.75463" lon="2.20618">
        <ele>60.72</ele>
        <time>2018-08-19T13:50:49Z</time>
      </trkpt>
      <trkpt lat="48.75462" lon="2.20627">
        <ele>61.09</ele>
        <time>2018-08-19T13:50:53Z</time>
      </trkpt>
      <trkpt lat="48.75461" lon="2.20634">
        <ele>60.93</ele>
        <time>2018-08-19T13:50:56Z</time>
      </trkpt>
      <trkpt lat="48.75459" lon="2.20655">
        <ele>60.96</ele>
        <time>2018-08-19T13:51:08Z</time>
      </trkpt>
      <trkpt lat="48.75451" lon="2.20677">
        <ele>60.43</ele>
        <time>2018-08-19T13:51:23Z</time>
      </trkpt>
      <trkpt lat="48.75447" lon="2.20688">
        <ele>60.65</ele>
        <time>2018-08-19T13:51:31Z</time>
      </trkpt>
      <trkpt lat="48.75446" lon="2.20694">
        <ele>60.84</ele>
        <time>2018-08-19T13:51:35Z</time>
      </trkpt>
      <trkpt lat="48.7544" lon="2.2072">
        <ele>61.09</ele>
        <time>2018-08-19T13:51:51Z</time>
      </trkpt>
      <trkpt lat="48.75434" lon="2.20739">
        <ele>61.17</ele>
        <time>2018-08-19T13:52:07Z</time>
      </trkpt>
      <trkpt lat="48.75438" lon="2.20747">
        <ele>60.86</ele>
        <time>2018-08-19T13:52:25Z</time>
      </trkpt>
      <trkpt lat="48.7543" lon="2.20763">
        <ele>60.96</ele>
        <time>2018-08-19T13:52:46Z</time>
      </trkpt>
      <trkpt lat="48.75428" lon="2.20772">
        <ele>60.59</ele>
        <time>2018-08-19T13:52:54Z</time>
      </trkpt>
      <trkpt lat="48.75425" lon="2.20777">
        <ele>60.92</ele>
        <time>2018-08-19T13:52:57Z</time>
      </trkpt>
      <trkpt lat="48.75421" lon="2.2079">
        <ele>60.58</ele>
        <time>2018-08-19T13:53:07Z</time>
      </trkpt>
      <trkpt lat="48.7542" lon="2.20796">
        <ele>60.66</ele>
        <time>2018-08-19T13:53:11Z</time>
      </trkpt>
      <trkpt lat="48.75415" lon="2.20815">
        <ele>60.27</ele>
        <time>2018-08-19T13:53:24Z</time>
      </trkpt>
      <trkpt lat="48.75414" lon="2.20818">
        <ele>60.26</ele>
        <time>2018-08-19T13:53:26Z</time>
      </trkpt>
      <trkpt lat="48.75413" lon="2.20814">
        <ele>60.49</ele>
        <time>2018-08-19T13:53:36Z</time>
      </trkpt>
      <trkpt lat="48.75421" lon="2.20796">
        <ele>60.51</ele>
        <time>2018-08-19T13:53:53Z</time>
      </trkpt>
      <trkpt lat="48.75426" lon="2.20775">
        <ele>60.8</ele>
        <time>2018-08-19T13:54:11Z</time>
      </trkpt>
      <trkpt lat="48.75427" lon="2.20773">
        <ele>60.94</ele>
        <time>2018-08-19T13:54:37Z</time>
      </trkpt>
      <trkpt lat="48.75427" lon="2.20771">
        <ele>60.5</ele>
        <time>2018-08-19T13:55:19Z</time>
      </trkpt>
      <trkpt lat="48.75427" lon="2.2077">
        <ele>60.95</ele>
        <time>2018-08-19T13:56:00Z</time>
      </trkpt>
      <trkpt lat="48.75429" lon="2.20769">
        <ele>61.54</ele>
        <time>2018-08-19T13:56:38Z</time>
      </trkpt>
      <trkpt lat="48.7543" lon="2.20767">
        <ele>60.91</ele>
        <time>2018-08-19T13:57:08Z</time>
      </trkpt>
      <trkpt lat="48.75429" lon="2.2077">
        <ele>61.88</ele>
        <time>2018-08-19T13:57:33Z</time>
      </trkpt>
      <trkpt lat="48.75427" lon="2.20773">
        <ele>62.09</ele>
        <time>2018-08-19T13:57:59Z</time>
      </trkpt>
      <trkpt lat="48.75427" lon="2.20773">
        <ele>62.11</ele>
        <time>2018-08-19T13:58:19Z</time>
      </trkpt>
      <trkpt lat="48.75427" lon="2.20773">
        <ele>62.73</ele>
        <time>2018-08-19T13:58:53Z</time>
      </trkpt>
      <trkpt lat="48.75426" lon="2.20773">
        <ele>62.52</ele>
        <time>2018-08-19T13:59:24Z</time>
      </trkpt>
      <trkpt lat="48.75427" lon="2.20772">
        <ele>62.64</ele>
        <time>2018-08-19T13:59:55Z</time>
      </trkpt>
      <trkpt lat="48.75426" lon="2.20771">
        <ele>62.52</ele>
        <time>2018-08-19T14:00:34Z</time>
      </trkpt>
      <trkpt lat="48.75427" lon="2.2077">
        <ele>62.94</ele>
        <time>2018-08-19T14:01:07Z</time>
      </trkpt>
      <trkpt lat="48.75427" lon="2.20772">
        <ele>62.88</ele>
        <time>2018-08-19T14:01:38Z</time>
      </trkpt>
      <trkpt lat="48.75426" lon="2.20772">
        <ele>62.54</ele>
        <time>2018-08-19T14:02:09Z</time>
      </trkpt>
      <trkpt lat="48.75427" lon="2.20773">
        <ele>62.82</ele>
        <time>2018-08-19T14:02:48Z</time>
      </trkpt>
      <trkpt lat="48.75424" lon="2.2078">
        <ele>63.21</ele>
        <time>2018-08-19T14:03:09Z</time>
      </trkpt>
      <trkpt lat="48.7542" lon="2.20802">
        <ele>63.1</ele>
        <time>2018-08-19T14:03:26Z</time>
      </trkpt>
      <trkpt lat="48.75414" lon="2.20823">
        <ele>61.96</ele>
        <time>2018-08-19T14:03:44Z</time>
      </trkpt>
      <trkpt lat="48.75406" lon="2.20847">
        <ele>62.11</ele>
        <time>2018-08-19T14:04:02Z</time>
      </trkpt>
      <trkpt lat="48.75401" lon="2.20858">
        <ele>62.44</ele>
        <time>2018-08-19T14:04:11Z</time>
      </trkpt>
      <trkpt lat="48.75388" lon="2.20893">
        <ele>62.42</ele>
        <time>2018-08-19T14:04:31Z</time>
      </trkpt>
      <trkpt lat="48.75383" lon="2.20917">
        <ele>62.36</ele>
        <time>2018-08-19T14:04:47Z</time>
      </trkpt>
      <trkpt lat="48.75375" lon="2.2094">
        <ele>62.42</ele>
        <time>2018-08-19T14:05:05Z</time>
      </trkpt>
      <trkpt lat="48.75369" lon="2.20965">
        <ele>62.5</ele>
        <time>2018-08-19T14:05:21Z</time>
      </trkpt>
      <trkpt lat="48.75362" lon="2.20992">
        <ele>62.49</ele>
        <time>2018-08-19T14:05:37Z</time>
      </trkpt>
      <trkpt lat="48.75355" lon="2.21015">
        <ele>62.72</ele>
        <time>2018-08-19T14:05:51Z</time>
      </trkpt>
      <trkpt lat="48.75349" lon="2.21033">
        <ele>62.99</ele>
        <time>2018-08-19T14:06:02Z</time>
      </trkpt>
      <trkpt lat="48.75336" lon="2.21068">
        <ele>62.83</ele>
        <time>2018-08-19T14:06:23Z</time>
      </trkpt>
      <trkpt lat="48.75328" lon="2.21102">
        <ele>62.99</ele>
        <time>2018-08-19T14:06:44Z</time>
      </trkpt>
      <trkpt lat="48.75326" lon="2.2111">
        <ele>61.46</ele>
        <time>2018-08-19T14:06:49Z</time>
      </trkpt>
      <trkpt lat="48.75321" lon="2.21137">
        <ele>61.51</ele>
        <time>2018-08-19T14:07:07Z</time>
      </trkpt>
      <trkpt lat="48.75317" lon="2.21153">
        <ele>63.31</ele>
        <time>2018-08-19T14:07:18Z</time>
      </trkpt>
      <trkpt lat="48.7532" lon="2.21157">
        <ele>62.99</ele>
        <time>2018-08-19T14:07:35Z</time>
      </trkpt>
      <trkpt lat="48.75315" lon="2.21183">
        <ele>63.34</ele>
        <time>2018-08-19T14:07:54Z</time>
      </trkpt>
      <trkpt lat="48.75311" lon="2.21206">
        <ele>63.62</ele>
        <time>2018-08-19T14:08:10Z</time>
      </trkpt>
      <trkpt lat="48.75307" lon="2.21228">
        <ele>62.7</ele>
        <time>2018-08-19T14:08:31Z</time>
      </trkpt>
      <trkpt lat="48.75305" lon="2.21252">
        <ele>62.57</ele>
        <time>2018-08-19T14:08:44Z</time>
      </trkpt>
      <trkpt lat="48.75305" lon="2.21259">
        <ele>62.93</ele>
        <time>2018-08-19T14:08:47Z</time>
      </trkpt>
      <trkpt lat="48.75307" lon="2.21293">
        <ele>62.45</ele>
        <time>2018-08-19T14:09:05Z</time>
      </trkpt>
      <trkpt lat="48.75309" lon="2.21317">
        <ele>62.55</ele>
        <time>2018-08-19T14:09:18Z</time>
      </trkpt>
      <trkpt lat="48.75305" lon="2.21353">
        <ele>62.93</ele>
        <time>2018-08-19T14:09:40Z</time>
      </trkpt>
      <trkpt lat="48.753" lon="2.21377">
        <ele>63.42</ele>
        <time>2018-08-19T14:09:55Z</time>
      </trkpt>
      <trkpt lat="48.75298" lon="2.21383">
        <ele>63.53</ele>
        <time>2018-08-19T14:10:02Z</time>
      </trkpt>
      <trkpt lat="48.75289" lon="2.21412">
        <ele>63.28</ele>
        <time>2018-08-19T14:10:20Z</time>
      </trkpt>
      <trkpt lat="48.75283" lon="2.21434">
        <ele>62.94</ele>
        <time>2018-08-19T14:10:35Z</time>
      </trkpt>
      <trkpt lat="48.75278" lon="2.21446">
        <ele>63.15</ele>
        <time>2018-08-19T14:10:44Z</time>
      </trkpt>
      <trkpt lat="48.75275" lon="2.21466">
        <ele>63.59</ele>
        <time>2018-08-19T14:10:58Z</time>
      </trkpt>
      <trkpt lat="48.75269" lon="2.21481">
        <ele>63.69</ele>
        <time>2018-08-19T14:11:10Z</time>
      </trkpt>
      <trkpt lat="48.75269" lon="2.21498">
        <ele>64.96</ele>
        <time>2018-08-19T14:11:25Z</time>
      </trkpt>
      <trkpt lat="48.75268" lon="2.21499">
        <ele>64.6</ele>
        <time>2018-08-19T14:11:28Z</time>
      </trkpt>
      <trkpt lat="48.7527" lon="2.21517">
        <ele>65.18</ele>
        <time>2018-08-19T14:11:41Z</time>
      </trkpt>
      <trkpt lat="48.75285" lon="2.21537">
        <ele>65.65</ele>
        <time>2018-08-19T14:11:59Z</time>
      </trkpt>
      <trkpt lat="48.75281" lon="2.21548">
        <ele>63.55</ele>
        <time>2018-08-19T14:12:14Z</time>
      </trkpt>
      <trkpt lat="48.7528" lon="2.21557">
        <ele>62.73</ele>
        <time>2018-08-19T14:12:33Z</time>
      </trkpt>
      <trkpt lat="48.75276" lon="2.21569">
        <ele>62.71</ele>
        <time>2018-08-19T14:12:46Z</time>
      </trkpt>
      <trkpt lat="48.75271" lon="2.21576">
        <ele>62.7</ele>
        <time>2018-08-19T14:12:50Z</time>
      </trkpt>
      <trkpt lat="48.75262" lon="2.21594">
        <ele>62.7</ele>
        <time>2018-08-19T14:13:05Z</time>
      </trkpt>
      <trkpt lat="48.75258" lon="2.21616">
        <ele>62.06</ele>
        <time>2018-08-19T14:13:24Z</time>
      </trkpt>
      <trkpt lat="48.75244" lon="2.21643">
        <ele>62.22</ele>
        <time>2018-08-19T14:13:40Z</time>
      </trkpt>
      <trkpt lat="48.75242" lon="2.21647">
        <ele>62.42</ele>
        <time>2018-08-19T14:13:43Z</time>
      </trkpt>
      <trkpt lat="48.75236" lon="2.2167">
        <ele>62.23</ele>
        <time>2018-08-19T14:13:58Z</time>
      </trkpt>
      <trkpt lat="48.75227" lon="2.21694">
        <ele>62.38</ele>
        <time>2018-08-19T14:14:19Z</time>
      </trkpt>
      <trkpt lat="48.75221" lon="2.21718">
        <ele>62.65</ele>
        <time>2018-08-19T14:14:37Z</time>
      </trkpt>
      <trkpt lat="48.75234" lon="2.21735">
        <ele>61.46</ele>
        <time>2018-08-19T14:14:56Z</time>
      </trkpt>
      <trkpt lat="48.75246" lon="2.21751">
        <ele>61.18</ele>
        <time>2018-08-19T14:15:10Z</time>
      </trkpt>
      <trkpt lat="48.75257" lon="2.21765">
        <ele>61.15</ele>
        <time>2018-08-19T14:15:28Z</time>
      </trkpt>
      <trkpt lat="48.75263" lon="2.2178">
        <ele>61.21</ele>
        <time>2018-08-19T14:15:40Z</time>
      </trkpt>
      <trkpt lat="48.75266" lon="2.21801">
        <ele>60.39</ele>
        <time>2018-08-19T14:15:54Z</time>
      </trkpt>
      <trkpt lat="48.75262" lon="2.21823">
        <ele>60.74</ele>
        <time>2018-08-19T14:16:13Z</time>
      </trkpt>
      <trkpt lat="48.75254" lon="2.21839">
        <ele>60.41</ele>
        <time>2018-08-19T14:16:36Z</time>
      </trkpt>
      <trkpt lat="48.75244" lon="2.21863">
        <ele>59.94</ele>
        <time>2018-08-19T14:16:56Z</time>
      </trkpt>
      <trkpt lat="48.75228" lon="2.21871">
        <ele>59.43</ele>
        <time>2018-08-19T14:17:13Z</time>
      </trkpt>
      <trkpt lat="48.75217" lon="2.21881">
        <ele>59.91</ele>
        <time>2018-08-19T14:17:25Z</time>
      </trkpt>
      <trkpt lat="48.75205" lon="2.21903">
        <ele>58.89</ele>
        <time>2018-08-19T14:17:41Z</time>
      </trkpt>
      <trkpt lat="48.75192" lon="2.21929">
        <ele>58.7</ele>
        <time>2018-08-19T14:18:02Z</time>
      </trkpt>
      <trkpt lat="48.75182" lon="2.21945">
        <ele>58.68</ele>
        <time>2018-08-19T14:18:15Z</time>
      </trkpt>
      <trkpt lat="48.75168" lon="2.21965">
        <ele>59.39</ele>
        <time>2018-08-19T14:18:31Z</time>
      </trkpt>
      <trkpt lat="48.75159" lon="2.21981">
        <ele>59.7</ele>
        <time>2018-08-19T14:18:47Z</time>
      </trkpt>
      <trkpt lat="48.75143" lon="2.21993">
        <ele>59.14</ele>
        <time>2018-08-19T14:19:07Z</time>
      </trkpt>
      <trkpt lat="48.75121" lon="2.22003">
        <ele>58.8</ele>
        <time>2018-08-19T14:19:28Z</time>
      </trkpt>
      <trkpt lat="48.75094" lon="2.22013">
        <ele>59.61</ele>
        <time>2018-08-19T14:19:52Z</time>
      </trkpt>
      <trkpt lat="48.75082" lon="2.22012">
        <ele>59.56</ele>
        <time>2018-08-19T14:20:00Z</time>
      </trkpt>
      <trkpt lat="48.75077" lon="2.22005">
        <ele>60.24</ele>
        <time>2018-08-19T14:20:06Z</time>
      </trkpt>
      <trkpt lat="48.75051" lon="2.2201">
        <ele>61.49</ele>
        <time>2018-08-19T14:20:27Z</time>
      </trkpt>
      <trkpt lat="48.7503" lon="2.22021">
        <ele>62.09</ele>
        <time>2018-08-19T14:20:48Z</time>
      </trkpt>
      <trkpt lat="48.75013" lon="2.22029">
        <ele>63.02</ele>
        <time>2018-08-19T14:21:04Z</time>
      </trkpt>
      <trkpt lat="48.7499" lon="2.22041">
        <ele>62.24</ele>
        <time>2018-08-19T14:21:24Z</time>
      </trkpt>
      <trkpt lat="48.74977" lon="2.22026">
        <ele>62.43</ele>
        <time>2018-08-19T14:21:40Z</time>
      </trkpt>
      <trkpt lat="48.74968" lon="2.22006">
        <ele>61.73</ele>
        <time>2018-08-19T14:21:59Z</time>
      </trkpt>
      <trkpt lat="48.7496" lon="2.22001">
        <ele>60.36</ele>
        <time>2018-08-19T14:22:10Z</time>
      </trkpt>
      <trkpt lat="48.74957" lon="2.22005">
        <ele>60.43</ele>
        <time>2018-08-19T14:22:14Z</time>
      </trkpt>
      <trkpt lat="48.74955" lon="2.22011">
        <ele>60.43</ele>
        <time>2018-08-19T14:22:18Z</time>
      </trkpt>
      <trkpt lat="48.74954" lon="2.22016">
        <ele>59.8</ele>
        <time>2018-08-19T14:22:23Z</time>
      </trkpt>
      <trkpt lat="48.74953" lon="2.22021">
        <ele>59.87</ele>
        <time>2018-08-19T14:22:30Z</time>
      </trkpt>
      <trkpt lat="48.74937" lon="2.22038">
        <ele>60.27</ele>
        <time>2018-08-19T14:22:45Z</time>
      </trkpt>
      <trkpt lat="48.74935" lon="2.22041">
        <ele>60.58</ele>
        <time>2018-08-19T14:22:48Z</time>
      </trkpt>
      <trkpt lat="48.74932" lon="2.22043">
        <ele>60.23</ele>
        <time>2018-08-19T14:22:52Z</time>
      </trkpt>
      <trkpt lat="48.74913" lon="2.22079">
        <ele>60.38</ele>
        <time>2018-08-19T14:23:15Z</time>
      </trkpt>
      <trkpt lat="48.74907" lon="2.22101">
        <ele>60.42</ele>
        <time>2018-08-19T14:23:31Z</time>
      </trkpt>
      <trkpt lat="48.74908" lon="2.22104">
        <ele>60.61</ele>
        <time>2018-08-19T14:23:46Z</time>
      </trkpt>
      <trkpt lat="48.74908" lon="2.22108">
        <ele>59.95</ele>
        <time>2018-08-19T14:23:51Z</time>
      </trkpt>
      <trkpt lat="48.74908" lon="2.22131">
        <ele>59.68</ele>
        <time>2018-08-19T14:24:09Z</time>
      </trkpt>
      <trkpt lat="48.74907" lon="2.22133">
        <ele>60.18</ele>
        <time>2018-08-19T14:24:11Z</time>
      </trkpt>
      <trkpt lat="48.74898" lon="2.22158">
        <ele>59.54</ele>
        <time>2018-08-19T14:24:31Z</time>
      </trkpt>
      <trkpt lat="48.74891" lon="2.2218">
        <ele>59.53</ele>
        <time>2018-08-19T14:24:52Z</time>
      </trkpt>
      <trkpt lat="48.74885" lon="2.22211">
        <ele>59.41</ele>
        <time>2018-08-19T14:25:14Z</time>
      </trkpt>
      <trkpt lat="48.74878" lon="2.22245">
        <ele>58.7</ele>
        <time>2018-08-19T14:25:34Z</time>
      </trkpt>
      <trkpt lat="48.74865" lon="2.22268">
        <ele>59.05</ele>
        <time>2018-08-19T14:25:52Z</time>
      </trkpt>
      <trkpt lat="48.74852" lon="2.223">
        <ele>59.21</ele>
        <time>2018-08-19T14:26:15Z</time>
      </trkpt>
      <trkpt lat="48.74838" lon="2.22334">
        <ele>58.75</ele>
        <time>2018-08-19T14:26:37Z</time>
      </trkpt>
      <trkpt lat="48.74834" lon="2.22345">
        <ele>59.14</ele>
        <time>2018-08-19T14:26:45Z</time>
      </trkpt>
      <trkpt lat="48.7483" lon="2.2238">
        <ele>58.98</ele>
        <time>2018-08-19T14:27:04Z</time>
      </trkpt>
      <trkpt lat="48.74834" lon="2.224">
        <ele>58.91</ele>
        <time>2018-08-19T14:27:22Z</time>
      </trkpt>
      <trkpt lat="48.74844" lon="2.22425">
        <ele>58.53</ele>
        <time>2018-08-19T14:27:42Z</time>
      </trkpt>
      <trkpt lat="48.74857" lon="2.22452">
        <ele>58.27</ele>
        <time>2018-08-19T14:28:05Z</time>
      </trkpt>
      <trkpt lat="48.74857" lon="2.22478">
        <ele>58.04</ele>
        <time>2018-08-19T14:28:21Z</time>
      </trkpt>
      <trkpt lat="48.74862" lon="2.22505">
        <ele>57.91</ele>
        <time>2018-08-19T14:28:38Z</time>
      </trkpt>
      <trkpt lat="48.74864" lon="2.22538">
        <ele>56.54</ele>
        <time>2018-08-19T14:28:59Z</time>
      </trkpt>
      <trkpt lat="48.74854" lon="2.2256">
        <ele>56.28</ele>
        <time>2018-08-19T14:29:20Z</time>
      </trkpt>
      <trkpt lat="48.74837" lon="2.22581">
        <ele>55.82</ele>
        <time>2018-08-19T14:29:40Z</time>
      </trkpt>
      <trkpt lat="48.74831" lon="2.22588">
        <ele>55.69</ele>
        <time>2018-08-19T14:29:47Z</time>
      </trkpt>
      <trkpt lat="48.74825" lon="2.22598">
        <ele>55.41</ele>
        <time>2018-08-19T14:29:55Z</time>
      </trkpt>
      <trkpt lat="48.74809" lon="2.22617">
        <ele>55.45</ele>
        <time>2018-08-19T14:30:13Z</time>
      </trkpt>
      <trkpt lat="48.74808" lon="2.22618">
        <ele>55.6</ele>
        <time>2018-08-19T14:30:15Z</time>
      </trkpt>
      <trkpt lat="48.7479" lon="2.22632">
        <ele>55.64</ele>
        <time>2018-08-19T14:30:31Z</time>
      </trkpt>
      <trkpt lat="48.74777" lon="2.22647">
        <ele>55.74</ele>
        <time>2018-08-19T14:30:45Z</time>
      </trkpt>
      <trkpt lat="48.74762" lon="2.22661">
        <ele>55.7</ele>
        <time>2018-08-19T14:30:59Z</time>
      </trkpt>
      <trkpt lat="48.74751" lon="2.22686">
        <ele>55.01</ele>
        <time>2018-08-19T14:31:15Z</time>
      </trkpt>
      <trkpt lat="48.74745" lon="2.22707">
        <ele>54.89</ele>
        <time>2018-08-19T14:31:29Z</time>
      </trkpt>
      <trkpt lat="48.74734" lon="2.22733">
        <ele>54.74</ele>
        <time>2018-08-19T14:31:49Z</time>
      </trkpt>
      <trkpt lat="48.7472" lon="2.22759">
        <ele>54.78</ele>
        <time>2018-08-19T14:32:09Z</time>
      </trkpt>
      <trkpt lat="48.74716" lon="2.22786">
        <ele>54.94</ele>
        <time>2018-08-19T14:32:29Z</time>
      </trkpt>
      <trkpt lat="48.74715" lon="2.22789">
        <ele>54.97</ele>
        <time>2018-08-19T14:32:30Z</time>
      </trkpt>
      <trkpt lat="48.74702" lon="2.22799">
        <ele>54.92</ele>
        <time>2018-08-19T14:32:46Z</time>
      </trkpt>
      <trkpt lat="48.74684" lon="2.22806">
        <ele>55</ele>
        <time>2018-08-19T14:33:04Z</time>
      </trkpt>
      <trkpt lat="48.74678" lon="2.22817">
        <ele>54.44</ele>
        <time>2018-08-19T14:33:13Z</time>
      </trkpt>
      <trkpt lat="48.74666" lon="2.2285">
        <ele>54.61</ele>
        <time>2018-08-19T14:33:36Z</time>
      </trkpt>
      <trkpt lat="48.74665" lon="2.22855">
        <ele>54.54</ele>
        <time>2018-08-19T14:33:39Z</time>
      </trkpt>
      <trkpt lat="48.74654" lon="2.22888">
        <ele>54.77</ele>
        <time>2018-08-19T14:34:01Z</time>
      </trkpt>
      <trkpt lat="48.74649" lon="2.22893">
        <ele>54.15</ele>
        <time>2018-08-19T14:34:07Z</time>
      </trkpt>
      <trkpt lat="48.74633" lon="2.2291">
        <ele>54.21</ele>
        <time>2018-08-19T14:34:24Z</time>
      </trkpt>
      <trkpt lat="48.74623" lon="2.22925">
        <ele>54.98</ele>
        <time>2018-08-19T14:34:39Z</time>
      </trkpt>
      <trkpt lat="48.74618" lon="2.22927">
        <ele>54.2</ele>
        <time>2018-08-19T14:34:58Z</time>
      </trkpt>
      <trkpt lat="48.74619" lon="2.22927">
        <ele>54.43</ele>
        <time>2018-08-19T14:35:25Z</time>
      </trkpt>
      <trkpt lat="48.74617" lon="2.2293">
        <ele>55.09</ele>
        <time>2018-08-19T14:36:00Z</time>
      </trkpt>
      <trkpt lat="48.74618" lon="2.22932">
        <ele>55.48</ele>
        <time>2018-08-19T14:36:27Z</time>
      </trkpt>
      <trkpt lat="48.7461" lon="2.22937">
        <ele>54.82</ele>
        <time>2018-08-19T14:36:50Z</time>
      </trkpt>
      <trkpt lat="48.74598" lon="2.22938">
        <ele>55.24</ele>
        <time>2018-08-19T14:37:06Z</time>
      </trkpt>
      <trkpt lat="48.74592" lon="2.22955">
        <ele>54.94</ele>
        <time>2018-08-19T14:37:20Z</time>
      </trkpt>
      <trkpt lat="48.7459" lon="2.22958">
        <ele>55.07</ele>
        <time>2018-08-19T14:37:25Z</time>
      </trkpt>
      <trkpt lat="48.74586" lon="2.2296">
        <ele>53.07</ele>
        <time>2018-08-19T14:37:29Z</time>
      </trkpt>
      <trkpt lat="48.74579" lon="2.22966">
        <ele>54.5</ele>
        <time>2018-08-19T14:37:37Z</time>
      </trkpt>
      <trkpt lat="48.7457" lon="2.22973">
        <ele>54.68</ele>
        <time>2018-08-19T14:37:49Z</time>
      </trkpt>
      <trkpt lat="48.7456" lon="2.2299">
        <ele>54.83</ele>
        <time>2018-08-19T14:38:04Z</time>
      </trkpt>
      <trkpt lat="48.74558" lon="2.22993">
        <ele>54.59</ele>
        <time>2018-08-19T14:38:07Z</time>
      </trkpt>
      <trkpt lat="48.74549" lon="2.23009">
        <ele>55.12</ele>
        <time>2018-08-19T14:38:23Z</time>
      </trkpt>
      <trkpt lat="48.74548" lon="2.2301">
        <ele>54.48</ele>
        <time>2018-08-19T14:38:25Z</time>
      </trkpt>
      <trkpt lat="48.74533" lon="2.23022">
        <ele>54.17</ele>
        <time>2018-08-19T14:38:40Z</time>
      </trkpt>
      <trkpt lat="48.74525" lon="2.23028">
        <ele>54.35</ele>
        <time>2018-08-19T14:38:48Z</time>
      </trkpt>
      <trkpt lat="48.74507" lon="2.23031">
        <ele>53.94</ele>
        <time>2018-08-19T14:39:03Z</time>
      </trkpt>
      <trkpt lat="48.74504" lon="2.23031">
        <ele>54.21</ele>
        <time>2018-08-19T14:39:05Z</time>
      </trkpt>
      <trkpt lat="48.74489" lon="2.23026">
        <ele>54.25</ele>
        <time>2018-08-19T14:39:20Z</time>
      </trkpt>
      <trkpt lat="48.74476" lon="2.23021">
        <ele>54.5</ele>
        <time>2018-08-19T14:39:34Z</time>
      </trkpt>
      <trkpt lat="48.74472" lon="2.2302">
        <ele>54.56</ele>
        <time>2018-08-19T14:39:38Z</time>
      </trkpt>
      <trkpt lat="48.74459" lon="2.23027">
        <ele>54.68</ele>
        <time>2018-08-19T14:39:52Z</time>
      </trkpt>
      <trkpt lat="48.74449" lon="2.23041">
        <ele>54.21</ele>
        <time>2018-08-19T14:40:10Z</time>
      </trkpt>
      <trkpt lat="48.74443" lon="2.23047">
        <ele>54.71</ele>
        <time>2018-08-19T14:40:16Z</time>
      </trkpt>
      <trkpt lat="48.74425" lon="2.23057">
        <ele>54</ele>
        <time>2018-08-19T14:40:32Z</time>
      </trkpt>
      <trkpt lat="48.74416" lon="2.23057">
        <ele>54.59</ele>
        <time>2018-08-19T14:40:45Z</time>
      </trkpt>
      <trkpt lat="48.74411" lon="2.23046">
        <ele>54.33</ele>
        <time>2018-08-19T14:41:04Z</time>
      </trkpt>
      <trkpt lat="48.74398" lon="2.23048">
        <ele>53.52</ele>
        <time>2018-08-19T14:41:21Z</time>
      </trkpt>
      <trkpt lat="48.74377" lon="2.23043">
        <ele>53.91</ele>
        <time>2018-08-19T14:41:42Z</time>
      </trkpt>
      <trkpt lat="48.74356" lon="2.23047">
        <ele>53.84</ele>
        <time>2018-08-19T14:42:03Z</time>
      </trkpt>
      <trkpt lat="48.74335" lon="2.23062">
        <ele>53.47</ele>
        <time>2018-08-19T14:42:24Z</time>
      </trkpt>
      <trkpt lat="48.7431" lon="2.23058">
        <ele>52.51</ele>
        <time>2018-08-19T14:42:43Z</time>
      </trkpt>
      <trkpt lat="48.74288" lon="2.23053">
        <ele>52.65</ele>
        <time>2018-08-19T14:43:03Z</time>
      </trkpt>
      <trkpt lat="48.74269" lon="2.23077">
        <ele>52.13</ele>
        <time>2018-08-19T14:43:25Z</time>
      </trkpt>
      <trkpt lat="48.74255" lon="2.23087">
        <ele>51.72</ele>
        <time>2018-08-19T14:43:37Z</time>
      </trkpt>
      <trkpt lat="48.74231" lon="2.23083">
        <ele>52.09</ele>
        <time>2018-08-19T14:43:58Z</time>
      </trkpt>
      <trkpt lat="48.74225" lon="2.23084">
        <ele>51.43</ele>
        <time>2018-08-19T14:44:05Z</time>
      </trkpt>
      <trkpt lat="48.74206" lon="2.23106">
        <ele>51.42</ele>
        <time>2018-08-19T14:44:22Z</time>
      </trkpt>
      <trkpt lat="48.74205" lon="2.23107">
        <ele>51.24</ele>
        <time>2018-08-19T14:44:23Z</time>
      </trkpt>
      <trkpt lat="48.74194" lon="2.23113">
        <ele>51.46</ele>
        <time>2018-08-19T14:44:39Z</time>
      </trkpt>
      <trkpt lat="48.7419" lon="2.23115">
        <ele>50.89</ele>
        <time>2018-08-19T14:45:06Z</time>
      </trkpt>
      <trkpt lat="48.74185" lon="2.23119">
        <ele>50.81</ele>
        <time>2018-08-19T14:45:34Z</time>
      </trkpt>
      <trkpt lat="48.74179" lon="2.2313">
        <ele>51.37</ele>
        <time>2018-08-19T14:45:49Z</time>
      </trkpt>
      <trkpt lat="48.74171" lon="2.23144">
        <ele>52.82</ele>
        <time>2018-08-19T14:46:09Z</time>
      </trkpt>
      <trkpt lat="48.74166" lon="2.23156">
        <ele>52.62</ele>
        <time>2018-08-19T14:46:35Z</time>
      </trkpt>
      <trkpt lat="48.74162" lon="2.23171">
        <ele>52.15</ele>
        <time>2018-08-19T14:46:49Z</time>
      </trkpt>
      <trkpt lat="48.74158" lon="2.23198">
        <ele>51.66</ele>
        <time>2018-08-19T14:47:12Z</time>
      </trkpt>
      <trkpt lat="48.74158" lon="2.23216">
        <ele>51.54</ele>
        <time>2018-08-19T14:47:24Z</time>
      </trkpt>
      <trkpt lat="48.74157" lon="2.2322">
        <ele>51.59</ele>
        <time>2018-08-19T14:47:26Z</time>
      </trkpt>
      <trkpt lat="48.74158" lon="2.23228">
        <ele>51.54</ele>
        <time>2018-08-19T14:47:32Z</time>
      </trkpt>
      <trkpt lat="48.74155" lon="2.23249">
        <ele>51.02</ele>
        <time>2018-08-19T14:47:49Z</time>
      </trkpt>
      <trkpt lat="48.74157" lon="2.23251">
        <ele>51.44</ele>
        <time>2018-08-19T14:48:10Z</time>
      </trkpt>
      <trkpt lat="48.74159" lon="2.23248">
        <ele>50.84</ele>
        <time>2018-08-19T14:48:28Z</time>
      </trkpt>
      <trkpt lat="48.7416" lon="2.23259">
        <ele>51.13</ele>
        <time>2018-08-19T14:48:51Z</time>
      </trkpt>
      <trkpt lat="48.74162" lon="2.2326">
        <ele>51.3</ele>
        <time>2018-08-19T14:49:18Z</time>
      </trkpt>
      <trkpt lat="48.74166" lon="2.23252">
        <ele>52.15</ele>
        <time>2018-08-19T14:49:44Z</time>
      </trkpt>
      <trkpt lat="48.74168" lon="2.23244">
        <ele>52.07</ele>
        <time>2018-08-19T14:50:00Z</time>
      </trkpt>
      <trkpt lat="48.74162" lon="2.23248">
        <ele>51.78</ele>
        <time>2018-08-19T14:50:27Z</time>
      </trkpt>
      <trkpt lat="48.74158" lon="2.23252">
        <ele>51.31</ele>
        <time>2018-08-19T14:50:52Z</time>
      </trkpt>
      <trkpt lat="48.7416" lon="2.23259">
        <ele>51.73</ele>
        <time>2018-08-19T14:51:21Z</time>
      </trkpt>
      <trkpt lat="48.7416" lon="2.2326">
        <ele>51.43</ele>
        <time>2018-08-19T14:51:46Z</time>
      </trkpt>
      <trkpt lat="48.74158" lon="2.23254">
        <ele>51.64</ele>
        <time>2018-08-19T14:52:12Z</time>
      </trkpt>
      <trkpt lat="48.74158" lon="2.23254">
        <ele>51.89</ele>
        <time>2018-08-19T14:52:40Z</time>
      </trkpt>
      <trkpt lat="48.74156" lon="2.2325">
        <ele>52.25</ele>
        <time>2018-08-19T14:53:04Z</time>
      </trkpt>
      <trkpt lat="48.74153" lon="2.23253">
        <ele>51.42</ele>
        <time>2018-08-19T14:53:31Z</time>
      </trkpt>
      <trkpt lat="48.74153" lon="2.23261">
        <ele>52.28</ele>
        <time>2018-08-19T14:53:57Z</time>
      </trkpt>
      <trkpt lat="48.74148" lon="2.23256">
        <ele>52.08</ele>
        <time>2018-08-19T14:54:10Z</time>
      </trkpt>
      <trkpt lat="48.74144" lon="2.23251">
        <ele>51.94</ele>
        <time>2018-08-19T14:54:14Z</time>
      </trkpt>
      <trkpt lat="48.74141" lon="2.23247">
        <ele>51.96</ele>
        <time>2018-08-19T14:54:17Z</time>
      </trkpt>
      <trkpt lat="48.74129" lon="2.23232">
        <ele>52.29</ele>
        <time>2018-08-19T14:54:33Z</time>
      </trkpt>
      <trkpt lat="48.74116" lon="2.23217">
        <ele>52.2</ele>
        <time>2018-08-19T14:54:49Z</time>
      </trkpt>
      <trkpt lat="48.74105" lon="2.23204">
        <ele>52.86</ele>
        <time>2018-08-19T14:55:03Z</time>
      </trkpt>
      <trkpt lat="48.74086" lon="2.23185">
        <ele>54.39</ele>
        <time>2018-08-19T14:55:26Z</time>
      </trkpt>
      <trkpt lat="48.74069" lon="2.23168">
        <ele>55.82</ele>
        <time>2018-08-19T14:55:44Z</time>
      </trkpt>
      <trkpt lat="48.74055" lon="2.23152">
        <ele>56.9</ele>
        <time>2018-08-19T14:56:00Z</time>
      </trkpt>
      <trkpt lat="48.74051" lon="2.2315">
        <ele>57.26</ele>
        <time>2018-08-19T14:56:05Z</time>
      </trkpt>
      <trkpt lat="48.74045" lon="2.23141">
        <ele>58.02</ele>
        <time>2018-08-19T14:56:19Z</time>
      </trkpt>
      <trkpt lat="48.74028" lon="2.23129">
        <ele>59.89</ele>
        <time>2018-08-19T14:56:38Z</time>
      </trkpt>
      <trkpt lat="48.74019" lon="2.23128">
        <ele>59.36</ele>
        <time>2018-08-19T14:56:45Z</time>
      </trkpt>
    </trkseg>
  </trk>
</gpx>